Provisional Data: Hunts Run near Cameron, PA


Please select a monitoring station.
Please select start date.
Please select start date.

Toggle Unit: C/F Toggle Unit: C/F
Sample Time Temperature (C) Temperature (F) Specific Conductivity (mS/cm) pH   Turbidity (NTU+) DO (mg/L)
4/27/2024 12:00:00 AM 9.58 49.244 0.03 6.51 2.51 11.37
4/27/2024 12:15:00 AM 9.51 49.118 0.03 6.5 2.44 11.39
4/27/2024 12:30:00 AM 9.45 49.01 0.03 6.5 2.65 11.4
4/27/2024 12:45:00 AM 9.4 48.92 0.03 6.49 2.73 11.42
4/27/2024 1:00:00 AM 9.34 48.812 0.03 6.49 2.63 11.44
4/27/2024 1:15:00 AM 9.28 48.704 0.03 6.5 2.46 11.46
4/27/2024 1:30:00 AM 9.22 48.596 0.03 6.49 2.56 11.48
4/27/2024 1:45:00 AM 9.17 48.506 0.03 6.49 2.61 11.49
4/27/2024 2:00:00 AM 9.13 48.434 0.03 6.49 2.64 11.51
4/27/2024 2:15:00 AM 9.09 48.362 0.03 6.48 2.58 11.52
4/27/2024 2:30:00 AM 9.05 48.29 0.03 6.49 2.64 11.54
4/27/2024 2:45:00 AM 9.01 48.218 0.03 6.49 2.49 11.54
4/27/2024 3:00:00 AM 8.98 48.164 0.03 6.5 2.61 11.55
4/27/2024 3:15:00 AM 8.95 48.11 0.03 6.49 2.41 11.56
4/27/2024 3:30:00 AM 8.92 48.056 0.03 6.49 2.41 11.58
4/27/2024 3:45:00 AM 8.89 48.002 0.03 6.49 2.5 11.58
4/27/2024 4:00:00 AM 8.87 47.966 0.03 6.48 2.6 11.59
4/27/2024 4:15:00 AM 8.84 47.912 0.03 6.49 2.59 11.59
4/27/2024 4:30:00 AM 8.81 47.858 0.03 6.48 2.58 11.61
4/27/2024 4:45:00 AM 8.79 47.822 0.03 6.49 2.67 11.61
4/27/2024 5:00:00 AM 8.76 47.768 0.03 6.49 2.61 11.62
4/27/2024 5:15:00 AM 8.74 47.732 0.03 6.49 2.72 11.63
4/27/2024 5:30:00 AM 8.7 47.66 0.03 6.49 2.65 11.64
4/27/2024 5:45:00 AM 8.68 47.624 0.03 6.49 2.67 11.64
4/27/2024 6:00:00 AM 8.66 47.588 0.03 6.49 2.74 11.65
4/27/2024 6:15:00 AM 8.65 47.57 0.03 6.49 2.59 11.66
4/27/2024 6:30:00 AM 8.64 47.552 0.03 6.49 2.53 11.67
4/27/2024 6:45:00 AM 8.63 47.534 0.03 6.5 2.45 11.7
4/27/2024 7:00:00 AM 8.62 47.516 0.03 6.51 2.47 11.74
4/27/2024 7:15:00 AM 8.63 47.534 0.03 6.52 2.57 11.78
4/27/2024 7:30:00 AM 8.63 47.534 0.03 6.53 2.48 11.79
4/27/2024 7:45:00 AM 8.63 47.534 0.03 6.53 2.63 11.79
4/27/2024 8:00:00 AM 8.63 47.534 0.03 6.53 2.55 11.8
4/27/2024 8:15:00 AM 8.64 47.552 0.03 6.54 2.47 11.82
4/27/2024 8:30:00 AM 8.66 47.588 0.03 6.57 2.48 11.86
4/27/2024 8:45:00 AM 8.67 47.606 0.03 6.57 2.48 11.87
4/27/2024 9:00:00 AM 8.68 47.624 0.03 6.57 2.6 11.86
4/27/2024 9:15:00 AM 8.69 47.642 0.03 6.58 2.46 11.85
4/27/2024 9:30:00 AM 8.7 47.66 0.03 6.58 2.42 11.86
4/27/2024 9:45:00 AM 8.74 47.732 0.03 6.6 2.37 11.89
4/27/2024 10:00:00 AM 8.79 47.822 0.03 6.62 2.51 11.92
4/27/2024 10:15:00 AM 8.8 47.84 0.03 6.62 2.54 11.89
4/27/2024 10:30:00 AM 8.79 47.822 0.03 6.62 2.44 11.87
4/27/2024 10:45:00 AM 8.8 47.84 0.03 6.63 2.4 11.86
4/27/2024 11:00:00 AM 8.82 47.876 0.029 6.62 2.47 11.87
4/27/2024 11:15:00 AM 8.83 47.894 0.029 6.63 2.51 11.87
4/27/2024 11:30:00 AM 8.84 47.912 0.029 6.63 2.63 11.86
4/27/2024 11:45:00 AM 8.89 48.002 0.029 6.64 2.51 11.89
4/27/2024 12:00:00 PM 8.98 48.164 0.029 6.65 2.61 11.91
4/27/2024 12:15:00 PM 9.04 48.272 0.029 6.66 2.63 11.91
4/27/2024 12:30:00 PM 9.06 48.308 0.029 6.66 2.64 11.89
4/27/2024 12:45:00 PM 9.1 48.38 0.029 6.67 2.68 11.89
4/27/2024 1:00:00 PM 9.12 48.416 0.029 6.67 2.81 11.88
4/27/2024 1:15:00 PM 9.17 48.506 0.029 6.68 3.41 11.87
4/27/2024 1:30:00 PM 9.21 48.578 0.029 6.68 3.63 11.86
4/27/2024 1:45:00 PM 9.22 48.596 0.029 6.69 3.12 11.84
4/27/2024 2:00:00 PM 9.24 48.632 0.029 6.69 2.83 11.83
4/27/2024 2:15:00 PM 9.25 48.65 0.029 6.7 2.77 11.81
4/27/2024 2:30:00 PM 9.27 48.686 0.029 6.68 2.88 11.8
4/27/2024 2:45:00 PM 9.31 48.758 0.029 6.7 2.88 11.8
4/27/2024 3:00:00 PM 9.35 48.83 0.029 6.7 2.8 11.8
4/27/2024 3:15:00 PM 9.37 48.866 0.029 6.69 2.62 11.78
4/27/2024 3:30:00 PM 9.38 48.884 0.029 6.7 2.54 11.77
4/27/2024 3:45:00 PM 9.41 48.938 0.029 6.69 2.56 11.76
4/27/2024 4:00:00 PM 9.46 49.028 0.029 6.69 2.68 11.76
4/27/2024 4:15:00 PM 9.47 49.046 0.029 6.7 2.55 11.74
4/27/2024 4:30:00 PM 9.46 49.028 0.029 6.69 2.66 11.7
4/27/2024 4:45:00 PM 9.46 49.028 0.029 6.68 2.53 11.7
4/27/2024 5:00:00 PM 9.48 49.064 0.029 6.69 2.64 11.7
4/27/2024 5:15:00 PM 9.49 49.082 0.029 6.68 2.54 11.69
4/27/2024 5:30:00 PM 9.49 49.082 0.029 6.68 2.71 11.66
4/27/2024 5:45:00 PM 9.49 49.082 0.029 6.67 2.63 11.66
4/27/2024 6:00:00 PM 9.49 49.082 0.029 6.68 2.53 11.65
4/27/2024 6:15:00 PM 9.49 49.082 0.029 6.66 2.54 11.64
4/27/2024 6:30:00 PM 9.49 49.082 0.029 6.66 2.55 11.61
4/27/2024 6:45:00 PM 9.48 49.064 0.029 6.65 2.67 11.61
4/27/2024 7:00:00 PM 9.47 49.046 0.029 6.65 2.78 11.59
4/27/2024 7:15:00 PM 9.45 49.01 0.029 6.64 2.7 11.54
4/27/2024 7:30:00 PM 9.43 48.974 0.03 6.63 2.79 11.51
4/27/2024 7:45:00 PM 9.42 48.956 0.03 6.63 2.62 11.49
4/27/2024 8:00:00 PM 9.4 48.92 0.03 6.61 2.6 11.47
4/27/2024 8:15:00 PM 9.38 48.884 0.03 6.6 2.63 11.45
4/27/2024 8:30:00 PM 9.37 48.866 0.03 6.6 2.65 11.44
4/27/2024 8:45:00 PM 9.35 48.83 0.03 6.6 2.52 11.44
4/27/2024 9:00:00 PM 9.33 48.794 0.03 6.58 2.9 11.44
4/27/2024 9:15:00 PM 9.32 48.776 0.03 6.59 2.74 11.44
4/27/2024 9:30:00 PM 9.3 48.74 0.03 6.58 2.61 11.44
4/27/2024 9:45:00 PM 9.29 48.722 0.03 6.58 2.56 11.45
4/27/2024 10:00:00 PM 9.27 48.686 0.03 6.58 2.75 11.45
4/27/2024 10:15:00 PM 9.26 48.668 0.03 6.58 2.52 11.45
4/27/2024 10:30:00 PM 9.25 48.65 0.03 6.57 2.6 11.46
4/27/2024 10:45:00 PM 9.24 48.632 0.03 6.56 3.03 11.46
4/27/2024 11:00:00 PM 9.22 48.596 0.03 6.55 2.52 11.47
4/27/2024 11:15:00 PM 9.21 48.578 0.03 6.56 2.46 11.47
4/27/2024 11:30:00 PM 9.2 48.56 0.03 6.56 2.65 11.47
4/27/2024 11:45:00 PM 9.19 48.542 0.03 6.56 2.56 11.47
4/28/2024 12:00:00 AM 9.18 48.524 0.03 6.55 2.76 11.47
4/28/2024 12:15:00 AM 9.17 48.506 0.03 6.55 2.61 11.47
4/28/2024 12:30:00 AM 9.16 48.488 0.03 6.54 2.62 11.48
4/28/2024 12:45:00 AM 9.15 48.47 0.03 6.55 2.64 11.48
4/28/2024 1:00:00 AM 9.14 48.452 0.03 6.54 2.72 11.48
4/28/2024 1:15:00 AM 9.13 48.434 0.03 6.54 2.53 11.49
4/28/2024 1:30:00 AM 9.13 48.434 0.03 6.53 2.6 11.49
4/28/2024 1:45:00 AM 9.12 48.416 0.03 6.54 2.65 11.49
4/28/2024 2:00:00 AM 9.11 48.398 0.03 6.54 2.73 11.49
4/28/2024 2:15:00 AM 9.1 48.38 0.03 6.53 2.64 11.49
4/28/2024 2:30:00 AM 9.1 48.38 0.03 6.54 2.67 11.49
4/28/2024 2:45:00 AM 9.09 48.362 0.03 6.54 2.58 11.48
4/28/2024 3:00:00 AM 9.08 48.344 0.03 6.53 2.68 11.49
4/28/2024 3:15:00 AM 9.07 48.326 0.03 6.53 2.6 11.49
4/28/2024 3:30:00 AM 9.07 48.326 0.03 6.53 2.56 11.49
4/28/2024 3:45:00 AM 9.06 48.308 0.03 6.53 2.53 11.49
4/28/2024 4:00:00 AM 9.05 48.29 0.03 6.52 2.6 11.5
4/28/2024 4:15:00 AM 9.04 48.272 0.03 6.53 2.56 11.5
4/28/2024 4:30:00 AM 9.04 48.272 0.03 6.52 2.59 11.5
4/28/2024 4:45:00 AM 9.03 48.254 0.03 6.53 2.6 11.5
4/28/2024 5:00:00 AM 9.03 48.254 0.03 6.52 2.6 11.5
4/28/2024 5:15:00 AM 9.02 48.236 0.03 6.53 2.59 11.49
4/28/2024 5:30:00 AM 9.02 48.236 0.03 6.52 2.5 11.5
4/28/2024 5:45:00 AM 9.01 48.218 0.03 6.52 2.68 11.5
4/28/2024 6:00:00 AM 9 48.2 0.03 6.52 2.54 11.5
4/28/2024 6:15:00 AM 8.98 48.164 0.03 6.51 2.38 11.5
4/28/2024 6:30:00 AM 8.98 48.164 0.03 6.52 2.41 11.52
4/28/2024 6:45:00 AM 8.98 48.164 0.03 6.52 2.39 11.54
4/28/2024 7:00:00 AM 8.98 48.164 0.03 6.54 2.51 11.57
4/28/2024 7:15:00 AM 9 48.2 0.03 6.55 2.67 11.63
4/28/2024 7:30:00 AM 9.02 48.236 0.03 6.57 2.31 11.68
4/28/2024 7:45:00 AM 9.05 48.29 0.03 6.58 2.49 11.69
4/28/2024 8:00:00 AM 9.06 48.308 0.03 6.6 2.49 11.7
4/28/2024 8:15:00 AM 9.11 48.398 0.03 6.61 2.49 11.76
4/28/2024 8:30:00 AM 9.21 48.578 0.03 6.64 2.5 11.79
4/28/2024 8:45:00 AM 9.27 48.686 0.03 6.65 2.43 11.78
4/28/2024 9:00:00 AM 9.32 48.776 0.03 6.69 2.33 11.78
4/28/2024 9:15:00 AM 9.4 48.92 0.03 6.69 2.38 11.78
4/28/2024 9:30:00 AM 9.54 49.172 0.03 6.7 2.35 11.77
4/28/2024 9:45:00 AM 9.68 49.424 0.03 6.7 2.37 11.74
4/28/2024 10:00:00 AM 9.82 49.676 0.03 6.72 2.36 11.71
4/28/2024 10:15:00 AM 9.99 49.982 0.03 6.73 2.32 11.68
4/28/2024 10:30:00 AM 10.17 50.306 0.03 6.75 2.4 11.63
4/28/2024 10:45:00 AM 10.34 50.612 0.03 6.76 2.41 11.59
4/28/2024 11:00:00 AM 10.56 51.008 0.03 6.78 2.35 11.55
4/28/2024 11:15:00 AM 10.74 51.332 0.03 6.79 2.51 11.5
4/28/2024 11:30:00 AM 10.9 51.62 0.029 6.8 2.48 11.46
4/28/2024 11:45:00 AM 11 51.8 0.029 6.8 2.35 11.4
4/28/2024 12:00:00 PM 11.1 51.98 0.029 6.8 2.36 11.37
4/28/2024 12:15:00 PM 11.31 52.358 0.029 6.8 2.37 11.34
4/28/2024 12:30:00 PM 11.7 53.06 0.029 6.81 2.32 11.28
4/28/2024 12:45:00 PM 12.15 53.87 0.029 6.83 2.45 11.19
4/28/2024 1:00:00 PM 12.49 54.482 0.029 6.85 2.42 11.1
4/28/2024 1:15:00 PM 12.71 54.878 0.029 6.85 2.3 11.03
4/28/2024 1:30:00 PM 12.74 54.932 0.029 6.84 2.33 10.97
4/28/2024 1:45:00 PM 12.92 55.256 0.029 6.84 2.34 10.93
4/28/2024 2:00:00 PM 13.04 55.472 0.029 6.83 2.32 10.89
4/28/2024 2:15:00 PM 13.08 55.544 0.029 6.83 2.25 10.83
4/28/2024 2:30:00 PM 13.44 56.192 0.029 6.81 2.49 10.78
4/28/2024 2:45:00 PM 13.71 56.678 0.029 6.84 2.16 10.75
4/28/2024 3:00:00 PM 13.99 57.182 0.029 6.83 2.23 10.7
4/28/2024 3:15:00 PM 14.19 57.542 0.029 6.81 2.2 10.63
4/28/2024 3:30:00 PM 14.15 57.47 0.029 6.84 2.2 10.6
4/28/2024 3:45:00 PM 14.2 57.56 0.029 6.82 2.16 10.59
4/28/2024 4:00:00 PM 14.24 57.632 0.029 6.81 2.29 10.54
4/28/2024 4:15:00 PM 14.2 57.56 0.029 6.8 2.29 10.5
4/28/2024 4:30:00 PM 14.11 57.398 0.029 6.8 2.27 10.48
4/28/2024 4:45:00 PM 14.1 57.38 0.029 6.79 2.32 10.47
4/28/2024 5:00:00 PM 14.03 57.254 0.029 6.77 2.3 10.42
4/28/2024 5:15:00 PM 14.09 57.362 0.029 6.77 2.29 10.46
4/28/2024 5:30:00 PM 14.12 57.416 0.029 6.78 2.33 10.47
4/28/2024 5:45:00 PM 14.14 57.452 0.029 6.77 2.3 10.51
4/28/2024 6:00:00 PM 14.09 57.362 0.029 6.78 2.35 10.51
4/28/2024 6:15:00 PM 14.01 57.218 0.03 6.76 2.33 10.5
4/28/2024 6:30:00 PM 13.92 57.056 0.03 6.75 2.32 10.49
4/28/2024 6:45:00 PM 13.84 56.912 0.03 6.73 2.46 10.48
4/28/2024 7:00:00 PM 13.74 56.732 0.03 6.71 2.34 10.46
4/28/2024 7:15:00 PM 13.64 56.552 0.03 6.69 2.31 10.43
4/28/2024 7:30:00 PM 13.55 56.39 0.03 6.67 2.36 10.4
4/28/2024 7:45:00 PM 13.44 56.192 0.03 6.64 2.36 10.38
4/28/2024 8:00:00 PM 13.34 56.012 0.03 6.61 2.35 10.36
4/28/2024 8:15:00 PM 13.24 55.832 0.03 6.59 2.32 10.35
4/28/2024 8:30:00 PM 13.14 55.652 0.03 6.58 2.43 10.35
4/28/2024 8:45:00 PM 13.05 55.49 0.03 6.57 2.44 10.34
4/28/2024 9:00:00 PM 12.96 55.328 0.03 6.55 2.2 10.38
4/28/2024 9:15:00 PM 12.88 55.184 0.03 6.55 2.28 10.39
4/28/2024 9:30:00 PM 12.79 55.022 0.031 6.53 2.34 10.41
4/28/2024 9:45:00 PM 12.72 54.896 0.031 6.53 2.44 10.43
4/28/2024 10:00:00 PM 12.64 54.752 0.031 6.53 2.53 10.45
4/28/2024 10:15:00 PM 12.57 54.626 0.031 6.52 2.27 10.47
4/28/2024 10:30:00 PM 12.49 54.482 0.031 6.51 2.43 10.49
4/28/2024 10:45:00 PM 12.42 54.356 0.031 6.51 2.43 10.51
4/28/2024 11:00:00 PM 12.35 54.23 0.031 6.5 2.51 10.53
4/28/2024 11:15:00 PM 12.29 54.122 0.031 6.5 2.49 10.54
4/28/2024 11:30:00 PM 12.22 53.996 0.031 6.49 2.49 10.55
4/28/2024 11:45:00 PM 12.16 53.888 0.031 6.49 2.46 10.57
4/29/2024 12:00:00 AM 12.1 53.78 0.031 6.49 2.34 10.58
4/29/2024 12:15:00 AM 12.03 53.654 0.031 6.49 2.47 10.6
4/29/2024 12:30:00 AM 11.97 53.546 0.031 6.47 2.68 10.61
4/29/2024 12:45:00 AM 11.91 53.438 0.031 6.46 2.45 10.63
4/29/2024 1:00:00 AM 11.87 53.366 0.031 6.47 2.6 10.64
4/29/2024 1:15:00 AM 11.82 53.276 0.031 6.46 2.49 10.65
4/29/2024 1:30:00 AM 11.77 53.186 0.031 6.47 2.46 10.67
4/29/2024 1:45:00 AM 11.72 53.096 0.031 6.46 2.58 10.68
4/29/2024 2:00:00 AM 11.66 52.988 0.031 6.46 2.7 10.69
4/29/2024 2:15:00 AM 11.6 52.88 0.031 6.45 2.49 10.7
4/29/2024 2:30:00 AM 11.55 52.79 0.031 6.45 2.6 10.72
4/29/2024 2:45:00 AM 11.5 52.7 0.031 6.45 2.44 10.74
4/29/2024 3:00:00 AM 11.45 52.61 0.031 6.45 2.88 10.75
4/29/2024 3:15:00 AM 11.4 52.52 0.031 6.45 2.42 10.76
4/29/2024 3:30:00 AM 11.35 52.43 0.031 6.45 2.56 10.77
4/29/2024 3:45:00 AM 11.3 52.34 0.031 6.45 2.63 10.77
4/29/2024 4:00:00 AM 11.25 52.25 0.031 6.45 2.57 10.8
4/29/2024 4:15:00 AM 11.21 52.178 0.031 6.44 2.57 10.8
4/29/2024 4:30:00 AM 11.16 52.088 0.031 6.45 2.45 10.82
4/29/2024 4:45:00 AM 11.11 51.998 0.031 6.44 2.59 10.83
4/29/2024 5:00:00 AM 11.08 51.944 0.031 6.45 2.56 10.85
4/29/2024 5:15:00 AM 11.05 51.89 0.031 6.45 2.56 10.85
4/29/2024 5:30:00 AM 11.03 51.854 0.031 6.45 2.5 10.86
4/29/2024 5:45:00 AM 11.01 51.818 0.031 6.45 3.11 10.87
4/29/2024 6:00:00 AM 10.98 51.764 0.031 6.45 2.54 10.88
4/29/2024 6:15:00 AM 10.96 51.728 0.031 6.45 2.44 10.89
4/29/2024 6:30:00 AM 10.94 51.692 0.031 6.45 2.55 10.91
4/29/2024 6:45:00 AM 10.93 51.674 0.031 6.46 3.16 10.94
4/29/2024 7:00:00 AM 10.92 51.656 0.031 6.48 2.48 10.98
4/29/2024 7:15:00 AM 10.92 51.656 0.031 6.5 2.47 11.04
4/29/2024 7:30:00 AM 10.91 51.638 0.031 6.52 2.52 11.07
4/29/2024 7:45:00 AM 10.92 51.656 0.031 6.54 2.57 11.14
4/29/2024 8:00:00 AM 10.95 51.71 0.031 6.57 2.34 11.19
4/29/2024 8:15:00 AM 10.98 51.764 0.031 6.58 2.41 11.21
4/29/2024 8:30:00 AM 11.01 51.818 0.031 6.6 2.4 11.23
4/29/2024 8:45:00 AM 11.02 51.836 0.031 6.6 2.4 11.22
4/29/2024 9:00:00 AM 11.07 51.926 0.031 6.61 2.47 11.22
4/29/2024 9:15:00 AM 11.14 52.052 0.03 6.63 2.46 11.22
4/29/2024 9:30:00 AM 11.24 52.232 0.03 6.64 2.33 11.22
4/29/2024 9:45:00 AM 11.34 52.412 0.03 6.65 2.44 11.21
4/29/2024 10:00:00 AM 11.46 52.628 0.03 6.67 2.48 11.2
4/29/2024 10:15:00 AM 11.62 52.916 0.03 6.68 2.48 11.17
4/29/2024 10:30:00 AM 11.8 53.24 0.03 6.7 2.42 11.14
4/29/2024 10:45:00 AM 12.02 53.636 0.03 6.73 2.34 11.09
4/29/2024 11:00:00 AM 12.29 54.122 0.03 6.76 2.65 11.06
4/29/2024 11:15:00 AM 12.59 54.662 0.03 6.78 2.54 11
4/29/2024 11:30:00 AM 12.89 55.202 0.03 6.82 2.42 10.94
4/29/2024 11:45:00 AM 13.16 55.688 0.03 6.85 2.43 10.88
4/29/2024 12:00:00 PM 13.43 56.174 0.03 6.86 2.47 10.81
4/29/2024 12:15:00 PM 13.62 56.516 0.03 6.86 2.56 10.76
4/29/2024 12:30:00 PM 13.81 56.858 0.03 6.85 2.32 10.7
4/29/2024 12:45:00 PM 14 57.2 0.03 6.85 2.51 10.67
4/29/2024 1:00:00 PM 14.3 57.74 0.03 6.86 2.32 10.6
4/29/2024 1:15:00 PM 14.45 58.01 0.03 6.86 2.4 10.53
4/29/2024 1:30:00 PM 14.5 58.1 0.03 6.85 2.27 10.49
4/29/2024 1:45:00 PM 14.65 58.37 0.03 6.86 2.34 10.47
4/29/2024 2:00:00 PM 14.72 58.496 0.03 6.85 2.35 10.42
4/29/2024 2:15:00 PM 14.84 58.712 0.03 6.86 2.3 10.4
4/29/2024 2:30:00 PM 15.05 59.09 0.03 6.85 2.23 10.38
4/29/2024 2:45:00 PM 15.21 59.378 0.03 6.86 2.39 10.33
4/29/2024 3:00:00 PM 15.34 59.612 0.03 6.86 2.47 10.3
4/29/2024 3:15:00 PM 15.5 59.9 0.03 6.87 2.48 10.27
4/29/2024 3:30:00 PM 15.68 60.224 0.03 6.86 2.46 10.23
4/29/2024 3:45:00 PM 15.74 60.332 0.03 6.85 2.46 10.18
4/29/2024 4:00:00 PM 15.72 60.296 0.03 6.84 2.43 10.14
4/29/2024 4:15:00 PM 15.77 60.386 0.03 6.84 2.28 10.13
4/29/2024 4:30:00 PM 15.99 60.782 0.03 6.84 2.57 10.12
4/29/2024 4:45:00 PM 16.09 60.962 0.03 6.84 2.34 10.09
4/29/2024 5:00:00 PM 16.17 61.106 0.03 6.85 2.41 10.08
4/29/2024 5:15:00 PM 16.1 60.98 0.03 6.82 2.85 10.04
4/29/2024 5:30:00 PM 16.05 60.89 0.03 6.82 2.39 10.05
4/29/2024 5:45:00 PM 15.99 60.782 0.03 6.8 2.41 10.04
4/29/2024 6:00:00 PM 15.92 60.656 0.03 6.8 2.52 10.02
4/29/2024 6:15:00 PM 15.84 60.512 0.03 6.79 2.39 10
4/29/2024 6:30:00 PM 15.76 60.368 0.03 6.77 2.4 9.99
4/29/2024 6:45:00 PM 15.68 60.224 0.03 6.77 2.5 9.98
4/29/2024 7:00:00 PM 15.57 60.026 0.03 6.74 37.35 9.95
4/29/2024 7:15:00 PM 15.46 59.828 0.03 6.72 2.5 9.93
4/29/2024 7:30:00 PM 15.35 59.63 0.03 6.69 2.61 9.92
4/29/2024 7:45:00 PM 15.24 59.432 0.031 6.67 2.41 9.91
4/29/2024 8:00:00 PM 15.12 59.216 0.031 6.64 2.42 9.9
4/29/2024 8:15:00 PM 15.01 59.018 0.031 6.63 2.42 9.89
4/29/2024 8:30:00 PM 14.89 58.802 0.031 6.61 2.38 9.88
4/29/2024 8:45:00 PM 14.78 58.604 0.031 6.58 2.45 9.88
4/29/2024 9:00:00 PM 14.68 58.424 0.031 6.58 2.47 9.89
4/29/2024 9:15:00 PM 14.58 58.244 0.031 6.56 2.51 9.9
4/29/2024 9:30:00 PM 14.47 58.046 0.031 6.55 2.64 9.93
4/29/2024 9:45:00 PM 14.38 57.884 0.031 6.55 2.57 9.95
4/29/2024 10:00:00 PM 14.29 57.722 0.031 6.54 2.56 9.97
4/29/2024 10:15:00 PM 14.2 57.56 0.031 6.54 2.77 9.99
4/29/2024 10:30:00 PM 14.11 57.398 0.031 6.53 2.58 10.01
4/29/2024 10:45:00 PM 14.02 57.236 0.031 6.52 2.68 10.03
4/29/2024 11:00:00 PM 13.93 57.074 0.031 6.51 2.63 10.05
4/29/2024 11:15:00 PM 13.84 56.912 0.031 6.51 2.62 10.07
4/29/2024 11:30:00 PM 13.77 56.786 0.031 6.51 3.09 10.09
4/29/2024 11:45:00 PM 13.7 56.66 0.031 6.49 19.94 10.1
4/30/2024 12:00:00 AM 13.63 56.534 0.032 6.49 11.29 10.12
4/30/2024 12:15:00 AM 13.56 56.408 0.032 6.48 2.67 10.14
4/30/2024 12:30:00 AM 13.5 56.3 0.032 6.47 2.86 10.16
4/30/2024 12:45:00 AM 13.43 56.174 0.032 6.48 6.13 10.17
4/30/2024 1:00:00 AM 13.35 56.03 0.032 6.46 17.13 10.19
4/30/2024 1:15:00 AM 13.28 55.904 0.032 6.47 2.7 10.21
4/30/2024 1:30:00 AM 13.2 55.76 0.032 6.45 2.64 10.22
4/30/2024 1:45:00 AM 13.14 55.652 0.032 6.45 2.58 10.24
4/30/2024 2:00:00 AM 13.1 55.58 0.032 6.45 2.66 10.25
4/30/2024 2:15:00 AM 13.06 55.508 0.032 6.46 2.65 10.26
4/30/2024 2:30:00 AM 13 55.4 0.032 6.46 2.66 10.27
4/30/2024 2:45:00 AM 12.95 55.31 0.032 6.46 2.63 10.29
4/30/2024 3:00:00 AM 12.89 55.202 0.032 6.45 2.7 10.3
4/30/2024 3:15:00 AM 12.84 55.112 0.032 6.46 2.58 10.31
4/30/2024 3:30:00 AM 12.8 55.04 0.032 6.45 2.76 10.33
4/30/2024 3:45:00 AM 12.77 54.986 0.032 6.45 2.89 10.34
4/30/2024 4:00:00 AM 12.73 54.914 0.032 6.45 2.57 10.35
4/30/2024 4:15:00 AM 12.68 54.824 0.032 6.46 2.58 10.36
4/30/2024 4:30:00 AM 12.62 54.716 0.032 6.46 2.73 10.37
4/30/2024 4:45:00 AM 12.55 54.59 0.032 6.45 2.71 10.39
4/30/2024 5:00:00 AM 12.49 54.482 0.032 6.45 2.77 10.4
4/30/2024 5:15:00 AM 12.43 54.374 0.032 6.45 2.74 10.41
4/30/2024 5:30:00 AM 12.37 54.266 0.032 6.45 2.56 10.43
4/30/2024 5:45:00 AM 12.31 54.158 0.032 6.43 2.79 10.42
4/30/2024 6:00:00 AM 12.26 54.068 0.032 6.45 2.63 10.45
4/30/2024 6:15:00 AM 12.2 53.96 0.032 6.43 2.84 10.45
4/30/2024 6:30:00 AM 12.15 53.87 0.032 6.45 2.38 10.47
4/30/2024 6:45:00 AM 12.1 53.78 0.032 6.46 2.54 10.48
4/30/2024 7:00:00 AM 12.05 53.69 0.032 6.47 2.42 10.55
4/30/2024 7:15:00 AM 12.01 53.618 0.032 6.48 2.44 10.64
4/30/2024 7:30:00 AM 11.98 53.564 0.032 6.48 2.5 10.63
4/30/2024 7:45:00 AM 11.96 53.528 0.032 6.51 2.46 10.72
4/30/2024 8:00:00 AM 11.97 53.546 0.031 6.52 2.69 10.78
4/30/2024 8:15:00 AM 12 53.6 0.031 6.54 2.58 10.81
4/30/2024 8:30:00 AM 12.04 53.672 0.031 6.54 2.37 10.81
4/30/2024 8:45:00 AM 12.08 53.744 0.031 6.57 2.39 10.88
4/30/2024 9:00:00 AM 12.18 53.924 0.031 6.58 2.74 10.9
4/30/2024 9:15:00 AM 12.28 54.104 0.031 6.61 2.43 10.88
4/30/2024 9:30:00 AM 12.34 54.212 0.031 6.63 2.45 10.89
4/30/2024 9:45:00 AM 12.39 54.302 0.031 6.65 2.33 10.88
4/30/2024 10:00:00 AM 12.49 54.482 0.031 6.66 2.26 10.89
4/30/2024 10:15:00 AM 12.64 54.752 0.031 6.66 2.45 10.89
4/30/2024 10:30:00 AM 12.81 55.058 0.031 6.7 2.48 10.83
4/30/2024 10:45:00 AM 13 55.4 0.031 6.72 2.35 10.8
4/30/2024 11:00:00 AM 13.19 55.742 0.031 6.74 2.42 10.78
4/30/2024 11:15:00 AM 13.38 56.084 0.031 6.77 2.43 10.75
4/30/2024 11:30:00 AM 13.53 56.354 0.031 6.8 2.39 10.71
4/30/2024 11:45:00 AM 13.72 56.696 0.031 6.83 2.25 10.63
4/30/2024 12:00:00 PM 14.05 57.29 0.031 6.87 2.37 10.62
4/30/2024 12:15:00 PM 14.36 57.848 0.03 6.73 2.35 10.51
4/30/2024 12:30:00 PM 14.38 57.884 0.03 6.76 2.38 10.42
4/30/2024 12:45:00 PM 14.38 57.884 0.03 6.85 2.32 10.44
4/30/2024 1:00:00 PM 14.49 58.082 0.03 6.85 2.4 10.43
4/30/2024 1:15:00 PM 14.61 58.298 0.03 6.84 2.72 10.41
4/30/2024 1:30:00 PM 14.71 58.478 0.03 6.85 2.26 10.36
4/30/2024 1:45:00 PM 14.84 58.712 0.03 6.88 2.37 9.92
4/30/2024 2:00:00 PM 14.79 58.622 0.03 6.85 2.29 10.25
4/30/2024 2:15:00 PM 14.79 58.622 0.03 6.84 2.23 10.27
4/30/2024 2:30:00 PM 14.89 58.802 0.03 6.84 2.15 10.31
4/30/2024 2:45:00 PM 14.97 58.946 0.03 6.85 2.47 10.3
4/30/2024 3:00:00 PM 14.94 58.892 0.03 6.83 2.21 10.25
4/30/2024 3:15:00 PM 14.86 58.748 0.031 6.81 2.31 10.19
4/30/2024 3:30:00 PM 14.76 58.568 0.031 6.78 2.44 10.18
4/30/2024 3:45:00 PM 14.69 58.442 0.031 6.76 2.31 10.17
4/30/2024 4:00:00 PM 14.62 58.316 0.031 6.77 2.28 10.19
4/30/2024 4:15:00 PM 14.56 58.208 0.031 6.76 2.34 10.2
4/30/2024 4:30:00 PM 14.5 58.1 0.031 6.75 2.49 10.23
4/30/2024 4:45:00 PM 14.44 57.992 0.031 6.75 2.4 10.25
4/30/2024 5:00:00 PM 14.39 57.902 0.031 6.75 2.54 10.27
4/30/2024 5:15:00 PM 14.34 57.812 0.031 6.75 2.43 10.27
4/30/2024 5:30:00 PM 14.29 57.722 0.031 6.74 2.38 10.3
4/30/2024 5:45:00 PM 14.27 57.686 0.031 6.74 2.36 10.33
4/30/2024 6:00:00 PM 14.23 57.614 0.031 6.75 2.42 10.34
4/30/2024 6:15:00 PM 14.21 57.578 0.031 6.74 2.36 10.37
4/30/2024 6:30:00 PM 14.2 57.56 0.031 6.75 2.28 10.39
4/30/2024 6:45:00 PM 14.16 57.488 0.031 6.74 2.32 10.35
4/30/2024 7:00:00 PM 14.09 57.362 0.031 6.73 2.26 10.32
4/30/2024 7:15:00 PM 14.04 57.272 0.031 6.72 2.42 10.3
4/30/2024 7:30:00 PM 13.98 57.164 0.031 6.68 2.34 10.26
4/30/2024 7:45:00 PM 13.94 57.092 0.031 6.67 2.42 10.25
4/30/2024 8:00:00 PM 13.88 56.984 0.031 6.66 2.42 10.22
4/30/2024 8:15:00 PM 13.82 56.876 0.031 6.63 2.39 10.18
4/30/2024 8:30:00 PM 13.75 56.75 0.031 6.61 2.31 10.15
4/30/2024 8:45:00 PM 13.67 56.606 0.031 6.59 2.5 10.14
4/30/2024 9:00:00 PM 13.59 56.462 0.031 6.57 2.3 10.14
4/30/2024 9:15:00 PM 13.52 56.336 0.032 6.56 2.52 10.15
4/30/2024 9:30:00 PM 13.45 56.21 0.032 6.56 2.41 10.16
4/30/2024 9:45:00 PM 13.4 56.12 0.032 6.55 2.44 10.17
4/30/2024 10:00:00 PM 13.35 56.03 0.032 6.55 2.54 10.2
4/30/2024 10:15:00 PM 13.28 55.904 0.032 6.55 2.45 10.21
4/30/2024 10:30:00 PM 13.21 55.778 0.032 6.53 2.5 10.23
4/30/2024 10:45:00 PM 13.15 55.67 0.032 6.53 2.47 10.24
4/30/2024 11:00:00 PM 13.09 55.562 0.032 6.52 2.51 10.25
4/30/2024 11:15:00 PM 13.04 55.472 0.032 6.53 2.63 10.27
4/30/2024 11:30:00 PM 12.97 55.346 0.032 6.51 2.56 10.29
4/30/2024 11:45:00 PM 12.91 55.238 0.032 6.51 2.74 10.3
5/1/2024 12:00:00 AM 12.86 55.148 0.032 6.51 2.61 10.31
5/1/2024 12:15:00 AM 12.83 55.094 0.032 6.51 2.66 10.33
5/1/2024 12:30:00 AM 12.79 55.022 0.032 6.51 2.68 10.34
5/1/2024 12:45:00 AM 12.76 54.968 0.032 6.51 2.5 10.35
5/1/2024 1:00:00 AM 12.72 54.896 0.032 6.52 2.64 10.36
5/1/2024 1:15:00 AM 12.66 54.788 0.032 6.52 2.58 10.38
5/1/2024 1:30:00 AM 12.6 54.68 0.032 6.51 2.69 10.39
5/1/2024 1:45:00 AM 12.56 54.608 0.032 6.52 2.65 10.4
5/1/2024 2:00:00 AM 12.53 54.554 0.032 6.5 2.69 10.41
5/1/2024 2:15:00 AM 12.5 54.5 0.032 6.52 2.58 10.42
5/1/2024 2:30:00 AM 12.47 54.446 0.032 6.52 2.62 10.43
5/1/2024 2:45:00 AM 12.43 54.374 0.032 6.53 2.74 10.44
5/1/2024 3:00:00 AM 12.39 54.302 0.032 6.54 2.74 10.45
5/1/2024 3:15:00 AM 12.36 54.248 0.032 6.53 2.78 10.46
5/1/2024 3:30:00 AM 12.32 54.176 0.032 6.54 2.61 10.47
5/1/2024 3:45:00 AM 12.29 54.122 0.032 6.55 2.49 10.48
5/1/2024 4:00:00 AM 12.25 54.05 0.032 6.55 2.64 10.48
5/1/2024 4:15:00 AM 12.21 53.978 0.032 6.55 2.59 10.49
5/1/2024 4:30:00 AM 12.17 53.906 0.032 6.55 2.62 10.51
5/1/2024 4:45:00 AM 12.13 53.834 0.032 6.55 2.51 10.52
5/1/2024 5:00:00 AM 12.09 53.762 0.032 6.54 11.54 10.5
5/1/2024 5:15:00 AM 12.06 53.708 0.032 6.55 2.71 10.54
5/1/2024 5:30:00 AM 12.02 53.636 0.032 6.55 2.63 10.55
5/1/2024 5:45:00 AM 11.98 53.564 0.032 6.55 2.72 10.56
5/1/2024 6:00:00 AM 11.95 53.51 0.032 6.55 2.73 10.57
5/1/2024 6:15:00 AM 11.91 53.438 0.032 6.54 2.72 10.59
5/1/2024 6:30:00 AM 11.88 53.384 0.032 6.55 2.71 10.6
5/1/2024 6:45:00 AM 11.84 53.312 0.032 6.56 2.58 10.63
5/1/2024 7:00:00 AM 11.81 53.258 0.032 6.56 2.75 10.67
5/1/2024 7:15:00 AM 11.79 53.222 0.032 6.57 2.75 10.72
5/1/2024 7:30:00 AM 11.77 53.186 0.032 6.59 2.65 10.77
5/1/2024 7:45:00 AM 11.76 53.168 0.032 6.61 2.63 10.83
5/1/2024 8:00:00 AM 11.76 53.168 0.031 6.62 2.57 10.88
5/1/2024 8:15:00 AM 11.79 53.222 0.031 6.63 2.54 10.94
5/1/2024 8:30:00 AM 11.83 53.294 0.031 6.66 2.74 10.97
5/1/2024 8:45:00 AM 11.86 53.348 0.031 6.68 2.51 11
5/1/2024 9:00:00 AM 11.87 53.366 0.031 6.68 2.64 10.98
5/1/2024 9:15:00 AM 11.91 53.438 0.031 6.68 2.61 10.97
5/1/2024 9:30:00 AM 11.99 53.582 0.031 6.7 2.61 10.95
5/1/2024 9:45:00 AM 12.09 53.762 0.031 6.71 2.66 10.95
5/1/2024 10:00:00 AM 12.2 53.96 0.031 6.72 2.62 10.95
5/1/2024 10:15:00 AM 12.33 54.194 0.031 6.74 2.46 10.94
5/1/2024 10:30:00 AM 12.48 54.464 0.031 6.76 2.61 10.91
5/1/2024 10:45:00 AM 12.65 54.77 0.031 6.79 2.42 10.89
5/1/2024 11:00:00 AM 12.85 55.13 0.031 6.8 2.47 10.85
5/1/2024 11:15:00 AM 13.08 55.544 0.031 6.83 2.58 10.8
5/1/2024 11:30:00 AM 13.33 55.994 0.031 6.86 2.65 10.75
5/1/2024 11:45:00 AM 13.58 56.444 0.031 6.87 2.49 10.71
5/1/2024 12:00:00 PM 13.84 56.912 0.031 6.88 2.39 10.58
5/1/2024 12:15:00 PM 14.1 57.38 0.031 6.87 2.25 10.59
5/1/2024 12:30:00 PM 14.39 57.902 0.031 6.87 2.34 10.48
5/1/2024 12:45:00 PM 14.65 58.37 0.031 6.9 2.23 10.43
5/1/2024 1:00:00 PM 14.93 58.874 0.031 6.91 2.29 10.45
5/1/2024 1:15:00 PM 15.24 59.432 0.031 6.91 2.44 10.38
5/1/2024 1:30:00 PM 15.53 59.954 0.031 6.91 2.55 10.32
5/1/2024 1:45:00 PM 15.83 60.494 0.031 6.91 3.55 10.26
5/1/2024 2:00:00 PM 16.1 60.98 0.031 6.87 5.82 10.2
5/1/2024 2:15:00 PM 16.34 61.412 0.031 6.87 2.47 10.1
5/1/2024 2:30:00 PM 16.55 61.79 0.031 6.91 2.26 10.1
5/1/2024 2:45:00 PM 16.73 62.114 0.031 6.88 2.27 10.02
5/1/2024 3:00:00 PM 16.81 62.258 0.031 6.91 2.27 9.97
5/1/2024 3:15:00 PM 16.95 62.51 0.031 6.89 2.3 9.97
5/1/2024 3:30:00 PM 16.96 62.528 0.031 6.87 3.29 9.88
5/1/2024 3:45:00 PM 16.83 62.294 0.031 6.89 2.22 9.89
5/1/2024 4:00:00 PM 16.76 62.168 0.031 6.9 2.17 9.92
5/1/2024 4:15:00 PM 16.93 62.474 0.031 6.88 2.37 9.89
5/1/2024 4:30:00 PM 16.97 62.546 0.031 6.89 2.23 9.85
5/1/2024 4:45:00 PM 17.06 62.708 0.031 6.87 2.37 9.88
5/1/2024 5:00:00 PM 16.99 62.582 0.031 6.86 2.18 9.81
5/1/2024 5:15:00 PM 16.97 62.546 0.031 6.84 2.14 9.81
5/1/2024 5:30:00 PM 16.88 62.384 0.031 6.84 3.04 9.78
5/1/2024 5:45:00 PM 16.76 62.168 0.031 6.82 2.19 9.79
5/1/2024 6:00:00 PM 16.64 61.952 0.031 6.81 2.35 9.74
5/1/2024 6:15:00 PM 16.49 61.682 0.031 6.79 2.63 9.78
5/1/2024 6:30:00 PM 16.36 61.448 0.031 6.77 2.35 9.76
5/1/2024 6:45:00 PM 16.23 61.214 0.031 6.75 4.91 9.73
5/1/2024 7:00:00 PM 16.09 60.962 0.031 6.72 2.2 9.74
5/1/2024 7:15:00 PM 15.94 60.692 0.031 6.73 2.25 9.74
5/1/2024 7:30:00 PM 15.8 60.44 0.032 6.69 2.3 9.73
5/1/2024 7:45:00 PM 15.64 60.152 0.032 6.68 2.23 9.68
5/1/2024 8:00:00 PM 15.49 59.882 0.032 6.66 2.42 9.72
5/1/2024 8:15:00 PM 15.34 59.612 0.032 6.64 2.44 9.73
5/1/2024 8:30:00 PM 15.19 59.342 0.032 6.61 2.24 9.71
5/1/2024 8:45:00 PM 15.05 59.09 0.032 6.61 2.25 9.75
5/1/2024 9:00:00 PM 14.93 58.874 0.032 6.6 2.35 9.8
5/1/2024 9:15:00 PM 14.82 58.676 0.032 6.58 2.17 9.81
5/1/2024 9:30:00 PM 14.73 58.514 0.032 6.55 2.35 9.8
5/1/2024 9:45:00 PM 14.64 58.352 0.032 6.56 2.95 9.85
5/1/2024 10:00:00 PM 14.55 58.19 0.032 6.54 4.21 9.88
5/1/2024 10:15:00 PM 14.46 58.028 0.032 6.54 2.27 9.91
5/1/2024 10:30:00 PM 14.35 57.83 0.032 6.53 16.88 9.91
5/1/2024 10:45:00 PM 14.25 57.65 0.032 6.52 17.72 9.93
5/1/2024 11:00:00 PM 14.15 57.47 0.032 6.5 5.91 9.96
5/1/2024 11:15:00 PM 14.05 57.29 0.032 6.5 2.31 9.99
5/1/2024 11:30:00 PM 13.96 57.128 0.032 6.49 2.44 10.01
5/1/2024 11:45:00 PM 13.87 56.966 0.032 6.49 2.35 10.04
5/2/2024 12:00:00 AM 13.79 56.822 0.032 6.49 2.37 10.06
5/2/2024 12:15:00 AM 13.7 56.66 0.032 6.49 2.38 10.08
5/2/2024 12:30:00 AM 13.63 56.534 0.032 6.48 2.92 10.09
5/2/2024 12:45:00 AM 13.57 56.426 0.032 6.48 2.42 10.12
5/2/2024 1:00:00 AM 13.5 56.3 0.032 6.47 2.4 10.13
5/2/2024 1:15:00 AM 13.44 56.192 0.032 6.46 2.33 10.15
5/2/2024 1:30:00 AM 13.37 56.066 0.032 6.46 2.74 10.17
5/2/2024 1:45:00 AM 13.3 55.94 0.032 6.46 2.99 10.19
5/2/2024 2:00:00 AM 13.22 55.796 0.032 6.46 2.57 10.2
5/2/2024 2:15:00 AM 13.15 55.67 0.032 6.46 2.6 10.22
5/2/2024 2:30:00 AM 13.07 55.526 0.032 6.46 2.39 10.23
5/2/2024 2:45:00 AM 12.99 55.382 0.032 6.45 2.54 10.25
5/2/2024 3:00:00 AM 12.92 55.256 0.032 6.45 3.61 10.25
5/2/2024 3:15:00 AM 12.84 55.112 0.032 6.44 2.53 10.29
5/2/2024 3:30:00 AM 12.77 54.986 0.032 6.45 2.45 10.3
5/2/2024 3:45:00 AM 12.69 54.842 0.032 6.44 3.66 10.33
5/2/2024 4:00:00 AM 12.62 54.716 0.032 6.45 2.46 10.36
5/2/2024 4:15:00 AM 12.55 54.59 0.032 6.45 2.34 10.37
5/2/2024 4:30:00 AM 12.47 54.446 0.032 6.45 2.66 10.4
5/2/2024 4:45:00 AM 12.4 54.32 0.032 6.45 2.57 10.42
5/2/2024 5:00:00 AM 12.32 54.176 0.032 6.45 2.57 10.43
5/2/2024 5:15:00 AM 12.25 54.05 0.032 6.45 2.51 10.45
5/2/2024 5:30:00 AM 12.19 53.942 0.032 6.46 2.41 10.47
5/2/2024 5:45:00 AM 12.12 53.816 0.032 6.45 10.49 10.48
5/2/2024 6:00:00 AM 12.05 53.69 0.032 6.45 2.9 10.5
5/2/2024 6:15:00 AM 11.99 53.582 0.032 6.46 3.65 10.53
5/2/2024 6:30:00 AM 11.93 53.474 0.032 6.46 6.38 10.56
5/2/2024 6:45:00 AM 11.86 53.348 0.032 6.48 2.9 10.6
5/2/2024 7:00:00 AM 11.82 53.276 0.032 6.48 2.46 10.65
5/2/2024 7:15:00 AM 11.78 53.204 0.032 6.5 3.29 10.71
5/2/2024 7:30:00 AM 11.74 53.132 0.032 6.52 2.88 10.76
5/2/2024 7:45:00 AM 11.69 53.042 0.032 6.52 4.39 10.77
5/2/2024 8:00:00 AM 11.66 52.988 0.032 6.52 3.21 10.82
5/2/2024 8:15:00 AM 11.68 53.024 0.032 6.54 7.17 10.87
5/2/2024 8:30:00 AM 11.71 53.078 0.032 6.56 3.59 10.91
5/2/2024 8:45:00 AM 11.76 53.168 0.032 6.58 3.79 10.92
5/2/2024 9:00:00 AM 11.81 53.258 0.032 6.59 2.51 10.95
5/2/2024 9:15:00 AM 11.89 53.402 0.032 6.6 3.08 10.95
5/2/2024 9:30:00 AM 11.99 53.582 0.032 6.63 33.76 10.96
5/2/2024 9:45:00 AM 12.11 53.798 0.032 6.64 6.54 10.94
5/2/2024 10:00:00 AM 12.26 54.068 0.032 6.67 21.63 10.94
5/2/2024 10:15:00 AM 12.41 54.338 0.032 6.69 2.84 10.93
5/2/2024 10:30:00 AM 12.59 54.662 0.032 6.71 2.83 10.89
5/2/2024 10:45:00 AM 12.79 55.022 0.032 6.73 3.39 10.86
5/2/2024 11:00:00 AM 13.02 55.436 0.031 6.75 3.38 10.82
5/2/2024 11:15:00 AM 13.27 55.886 0.031 6.78 2.38 10.78
5/2/2024 11:30:00 AM 13.51 56.318 0.031 6.82 14.24 10.73
5/2/2024 11:45:00 AM 13.77 56.786 0.031 6.85 30.78 10.68
5/2/2024 12:00:00 PM 14.04 57.272 0.031 6.88 15.99 10.62
5/2/2024 12:15:00 PM 14.32 57.776 0.031 6.89 2.46 10.58
5/2/2024 12:30:00 PM 14.61 58.298 0.031 6.91 3.34 10.52
5/2/2024 12:45:00 PM 14.93 58.874 0.031 6.85 28.69 10.44
5/2/2024 1:00:00 PM 15.24 59.432 0.031 6.92 7.01 10.39
5/2/2024 1:15:00 PM 15.55 59.99 0.031 6.91 10.88 10.34
5/2/2024 1:30:00 PM 15.84 60.512 0.031 6.93 7.94 10.27
5/2/2024 1:45:00 PM 16.14 61.052 0.031 6.93 590.75 10.21
5/2/2024 2:00:00 PM 16.41 61.538 0.031 6.9 8.18 10.12
5/2/2024 2:15:00 PM 16.66 61.988 0.031 6.93 349.13 10.1
5/2/2024 2:30:00 PM 16.89 62.402 0.031 6.92 2047.29 10.05
5/2/2024 2:45:00 PM 17.08 62.744 0.031 6.93 8.41 9.99
5/2/2024 3:00:00 PM 17.22 62.996 0.031 6.94 2.25 9.97
5/2/2024 3:15:00 PM 17.33 63.194 0.031 6.9 612.36 9.91
5/2/2024 3:30:00 PM 17.39 63.302 0.031 6.93 52.92 9.89
5/2/2024 3:45:00 PM 17.45 63.41 0.031 6.91 2.44 9.87
5/2/2024 4:00:00 PM 17.49 63.482 0.031 6.92 2.19 9.84
5/2/2024 4:15:00 PM 17.49 63.482 0.031 6.91 2.2 9.82
5/2/2024 4:30:00 PM 17.47 63.446 0.031 6.91 2.11 9.81
5/2/2024 4:45:00 PM 17.45 63.41 0.031 6.9 2.25 9.81
5/2/2024 5:00:00 PM 17.39 63.302 0.031 6.88 2.16 9.78
5/2/2024 5:15:00 PM 17.32 63.176 0.031 6.87 2.21 9.78
5/2/2024 5:30:00 PM 17.21 62.978 0.031 6.86 2.33 9.76
5/2/2024 5:45:00 PM 17.06 62.708 0.031 6.84 2.28 9.75
5/2/2024 6:00:00 PM 16.91 62.438 0.032 6.82 2.07 9.74
5/2/2024 6:15:00 PM 16.78 62.204 0.032 6.82 2.15 9.74
5/2/2024 6:30:00 PM 16.66 61.988 0.032 6.79 2.42 9.74
5/2/2024 6:45:00 PM 16.53 61.754 0.032 6.78 2.31 9.74
5/2/2024 7:00:00 PM 16.39 61.502 0.032 6.75 2.4 9.73
5/2/2024 7:15:00 PM 16.23 61.214 0.032 6.74 2.28 9.72
5/2/2024 7:30:00 PM 16.08 60.944 0.032 6.71 2.31 9.71
5/2/2024 7:45:00 PM 15.92 60.656 0.032 6.7 2.19 9.7
5/2/2024 8:00:00 PM 15.76 60.368 0.032 6.68 2.25 9.7
5/2/2024 8:15:00 PM 15.6 60.08 0.032 6.65 2.28 9.7
5/2/2024 8:30:00 PM 15.46 59.828 0.033 6.64 2.24 9.7
5/2/2024 8:45:00 PM 15.31 59.558 0.033 6.62 2.29 9.72
5/2/2024 9:00:00 PM 15.17 59.306 0.033 6.6 2.26 9.75
5/2/2024 9:15:00 PM 15.04 59.072 0.033 6.59 2.5 9.78
5/2/2024 9:30:00 PM 14.92 58.856 0.033 6.58 2.44 9.8
5/2/2024 9:45:00 PM 14.81 58.658 0.033 6.56 2.66 9.83
5/2/2024 10:00:00 PM 14.69 58.442 0.033 6.56 2.38 9.84
5/2/2024 10:15:00 PM 14.58 58.244 0.033 6.55 2.39 9.88
5/2/2024 10:30:00 PM 14.48 58.064 0.033 6.54 2.48 9.9
5/2/2024 10:45:00 PM 14.38 57.884 0.033 6.53 2.25 9.93
5/2/2024 11:00:00 PM 14.27 57.686 0.033 6.53 2.3 9.95
5/2/2024 11:15:00 PM 14.17 57.506 0.033 6.52 2.29 9.97
5/2/2024 11:30:00 PM 14.07 57.326 0.033 6.52 2.33 10
5/2/2024 11:45:00 PM 13.97 57.146 0.033 6.51 2.39 10.02
5/3/2024 12:00:00 AM 13.86 56.948 0.033 6.51 2.46 10.04
5/3/2024 12:15:00 AM 13.76 56.768 0.033 6.5 2.56 10.06
5/3/2024 12:30:00 AM 13.67 56.606 0.033 6.5 2.55 10.1
5/3/2024 12:45:00 AM 13.57 56.426 0.033 6.5 3.23 10.11
5/3/2024 1:00:00 AM 13.47 56.246 0.033 6.49 2.56 10.14
5/3/2024 1:15:00 AM 13.37 56.066 0.033 6.48 2.44 10.18
5/3/2024 1:30:00 AM 13.28 55.904 0.033 6.48 2.44 10.2
5/3/2024 1:45:00 AM 13.19 55.742 0.033 6.49 2.4 10.22
5/3/2024 2:00:00 AM 13.1 55.58 0.033 6.48 2.57 10.24
5/3/2024 2:15:00 AM 13 55.4 0.033 6.48 2.54 10.26
5/3/2024 2:30:00 AM 12.92 55.256 0.033 6.46 2.61 10.28
5/3/2024 2:45:00 AM 12.83 55.094 0.033 6.48 2.43 10.31
5/3/2024 3:00:00 AM 12.75 54.95 0.033 6.47 2.31 10.33
5/3/2024 3:15:00 AM 12.66 54.788 0.033 6.47 2.65 10.36
5/3/2024 3:30:00 AM 12.57 54.626 0.033 6.47 2.45 10.36
5/3/2024 3:45:00 AM 12.5 54.5 0.033 6.47 2.43 10.39
5/3/2024 4:00:00 AM 12.41 54.338 0.033 6.47 2.62 10.42
5/3/2024 4:15:00 AM 12.33 54.194 0.033 6.46 2.5 10.44
5/3/2024 4:30:00 AM 12.25 54.05 0.033 6.47 2.6 10.46
5/3/2024 4:45:00 AM 12.17 53.906 0.033 6.47 2.55 10.48
5/3/2024 5:00:00 AM 12.09 53.762 0.033 6.46 2.49 10.5
5/3/2024 5:15:00 AM 12.01 53.618 0.033 6.46 2.45 10.52
5/3/2024 5:30:00 AM 11.93 53.474 0.033 6.47 2.51 10.54
5/3/2024 5:45:00 AM 11.85 53.33 0.033 6.47 2.42 10.56
5/3/2024 6:00:00 AM 11.78 53.204 0.033 6.47 2.43 10.58
5/3/2024 6:15:00 AM 11.7 53.06 0.033 6.47 2.68 10.6
5/3/2024 6:30:00 AM 11.63 52.934 0.033 6.47 2.72 10.65
5/3/2024 6:45:00 AM 11.57 52.826 0.033 6.48 2.5 10.69
5/3/2024 7:00:00 AM 11.51 52.718 0.033 6.5 2.64 10.75
5/3/2024 7:15:00 AM 11.47 52.646 0.033 6.51 2.54 10.82
5/3/2024 7:30:00 AM 11.44 52.592 0.033 6.53 2.49 10.89
5/3/2024 7:45:00 AM 11.42 52.556 0.033 6.54 2.58 10.9
5/3/2024 8:00:00 AM 11.4 52.52 0.033 6.55 2.52 10.94
5/3/2024 8:15:00 AM 11.4 52.52 0.032 6.56 2.48 10.96
5/3/2024 8:30:00 AM 11.42 52.556 0.032 6.57 2.58 11
5/3/2024 8:45:00 AM 11.47 52.646 0.032 6.58 2.58 11.01
5/3/2024 9:00:00 AM 11.54 52.772 0.032 6.6 2.3 11.01
5/3/2024 9:15:00 AM 11.63 52.934 0.032 6.62 2.33 11.06
5/3/2024 9:30:00 AM 11.72 53.096 0.032 6.62 2.44 11.03
5/3/2024 9:45:00 AM 11.83 53.294 0.032 6.65 2.31 11.04
5/3/2024 10:00:00 AM 11.98 53.564 0.032 6.66 2.4 11.04
5/3/2024 10:15:00 AM 12.15 53.87 0.032 6.68 2.36 11.02
5/3/2024 10:30:00 AM 12.32 54.176 0.032 6.72 2.35 10.92
5/3/2024 10:45:00 AM 12.49 54.482 0.032 6.75 2.35 10.97
5/3/2024 11:00:00 AM 12.7 54.86 0.032 6.77 2.3 10.95
5/3/2024 11:15:00 AM 12.96 55.328 0.032 6.79 2.57 10.92
5/3/2024 11:30:00 AM 13.21 55.778 0.032 6.82 2.26 10.87
5/3/2024 11:45:00 AM 13.38 56.084 0.032 6.86 2.18 10.82
5/3/2024 12:00:00 PM 13.62 56.516 0.032 6.9 2.35 10.77
5/3/2024 12:15:00 PM 13.86 56.948 0.032 6.93 2.3 10.73
5/3/2024 12:30:00 PM 14.12 57.416 0.031 6.93 2.13 10.67
5/3/2024 12:45:00 PM 14.44 57.992 0.031 6.95 2.23 10.61
5/3/2024 1:00:00 PM 14.74 58.532 0.031 6.96 2.24 10.56
5/3/2024 1:15:00 PM 14.98 58.964 0.031 6.97 2.63 10.5
5/3/2024 1:30:00 PM 15.21 59.378 0.031 6.96 2.2 10.44
5/3/2024 1:45:00 PM 15.41 59.738 0.031 6.94 2.49 10.39
5/3/2024 2:00:00 PM 15.59 60.062 0.031 6.96 2.27 10.35
5/3/2024 2:15:00 PM 15.83 60.494 0.031 6.92 2.53 10.23
5/3/2024 2:30:00 PM 16.13 61.034 0.031 6.96 2.27 10.23
5/3/2024 2:45:00 PM 16.35 61.43 0.031 6.94 115.9 10.19
5/3/2024 3:00:00 PM 16.5 61.7 0.031 6.97 3.98 10.15
5/3/2024 3:15:00 PM 16.44 61.592 0.031 6.96 4.73 10.09
5/3/2024 3:30:00 PM 16.42 61.556 0.031 6.94 83.08 10.09
5/3/2024 3:45:00 PM 16.41 61.538 0.031 6.93 3.25 10.03
5/3/2024 4:00:00 PM 16.48 61.664 0.031 6.93 2.17 10.05
5/3/2024 4:15:00 PM 16.49 61.682 0.031 6.89 2.17 9.99
5/3/2024 4:30:00 PM 16.38 61.484 0.032 6.89 2.26 9.94
5/3/2024 4:45:00 PM 16.28 61.304 0.032 6.87 2.36 9.84
5/3/2024 5:00:00 PM 16.21 61.178 0.032 6.85 2.3 9.85
5/3/2024 5:15:00 PM 16.17 61.106 0.032 6.84 2.38 9.86
5/3/2024 5:30:00 PM 16.15 61.07 0.032 6.82 2.2 9.85
5/3/2024 5:45:00 PM 16.14 61.052 0.032 6.7 2.23 9.88
5/3/2024 6:00:00 PM 16.11 60.998 0.032 6.69 2.17 9.89
5/3/2024 6:15:00 PM 16.05 60.89 0.032 6.81 2.81 9.89
5/3/2024 6:30:00 PM 15.98 60.764 0.032 6.78 2.29 9.93
5/3/2024 6:45:00 PM 15.9 60.62 0.032 6.78 2.21 9.88
5/3/2024 7:00:00 PM 15.82 60.476 0.032 6.73 89.78 9.78
5/3/2024 7:15:00 PM 15.74 60.332 0.032 6.73 2.18 9.81
5/3/2024 7:30:00 PM 15.65 60.17 0.032 6.71 2.24 9.78
5/3/2024 7:45:00 PM 15.57 60.026 0.033 6.69 2.05 9.76
5/3/2024 8:00:00 PM 15.5 59.9 0.033 6.64 2.15 9.61
5/3/2024 8:15:00 PM 15.43 59.774 0.033 6.64 2.06 9.51
5/3/2024 8:30:00 PM 15.36 59.648 0.033 6.64 50.14 9.7
5/3/2024 8:45:00 PM 15.3 59.54 0.033 6.65 2.42 9.67
5/3/2024 9:00:00 PM 15.24 59.432 0.033 6.65 2.22 9.74
5/3/2024 9:15:00 PM 15.17 59.306 0.033 6.63 2.42 9.77
5/3/2024 9:30:00 PM 15.11 59.198 0.033 6.62 2.43 9.78
5/3/2024 9:45:00 PM 15.04 59.072 0.033 6.61 2.22 9.79
5/3/2024 10:00:00 PM 14.98 58.964 0.033 6.61 2.56 9.81
5/3/2024 10:15:00 PM 14.91 58.838 0.033 6.6 2.29 9.81
5/3/2024 10:30:00 PM 14.85 58.73 0.033 6.6 2.3 9.84
5/3/2024 10:45:00 PM 14.79 58.622 0.033 6.59 2.33 9.86
5/3/2024 11:00:00 PM 14.73 58.514 0.033 6.58 2.51 9.86
5/3/2024 11:15:00 PM 14.68 58.424 0.033 6.57 2.24 9.87
5/3/2024 11:30:00 PM 14.63 58.334 0.033 6.57 2.22 9.88
5/3/2024 11:45:00 PM 14.58 58.244 0.033 6.56 2.31 9.89
5/4/2024 12:00:00 AM 14.53 58.154 0.033 6.57 2.26 9.91
5/4/2024 12:15:00 AM 14.49 58.082 0.033 6.56 2.42 9.92
5/4/2024 12:30:00 AM 14.45 58.01 0.033 6.55 2.34 9.93
5/4/2024 12:45:00 AM 14.41 57.938 0.033 6.56 2.22 9.94
5/4/2024 1:00:00 AM 14.36 57.848 0.033 6.56 2.25 9.93
5/4/2024 1:15:00 AM 14.32 57.776 0.033 6.56 2.36 9.95
5/4/2024 1:30:00 AM 14.27 57.686 0.033 6.57 2.34 9.96
5/4/2024 1:45:00 AM 14.23 57.614 0.033 6.56 2.42 9.98
5/4/2024 2:00:00 AM 14.18 57.524 0.033 6.56 2.26 9.99
5/4/2024 2:15:00 AM 14.13 57.434 0.033 6.57 2.31 10
5/4/2024 2:30:00 AM 14.09 57.362 0.033 6.56 2.32 10.01
5/4/2024 2:45:00 AM 14.05 57.29 0.033 6.56 2.46 10.02
5/4/2024 3:00:00 AM 14.01 57.218 0.033 6.55 2.25 10.03
5/4/2024 3:15:00 AM 13.98 57.164 0.033 6.55 2.49 10.02
5/4/2024 3:30:00 AM 13.94 57.092 0.033 6.55 2.46 10.05
5/4/2024 3:45:00 AM 13.9 57.02 0.033 6.54 2.55 10.05
5/4/2024 4:00:00 AM 13.87 56.966 0.033 6.56 2.29 10.07
5/4/2024 4:15:00 AM 13.83 56.894 0.033 6.56 2.43 10.08
5/4/2024 4:30:00 AM 13.8 56.84 0.033 6.56 2.45 10.08
5/4/2024 4:45:00 AM 13.76 56.768 0.033 6.56 2.74 10.1
5/4/2024 5:00:00 AM 13.73 56.714 0.033 6.56 2.3 10.09
5/4/2024 5:15:00 AM 13.7 56.66 0.033 6.55 2.39 10.09
5/4/2024 5:30:00 AM 13.67 56.606 0.033 6.57 2.27 10.12
5/4/2024 5:45:00 AM 13.63 56.534 0.033 6.57 2.28 10.13
5/4/2024 6:00:00 AM 13.6 56.48 0.033 6.56 2.28 10.06
5/4/2024 6:15:00 AM 13.56 56.408 0.033 6.55 2.76 10.12
5/4/2024 6:30:00 AM 13.52 56.336 0.033 6.59 2.25 10.15
5/4/2024 6:45:00 AM 13.49 56.282 0.033 6.59 2.28 10.17
5/4/2024 7:00:00 AM 13.46 56.228 0.033 6.59 2.46 10.22
5/4/2024 7:15:00 AM 13.43 56.174 0.033 6.61 2.41 10.25
5/4/2024 7:30:00 AM 13.41 56.138 0.033 6.62 2.32 10.29
5/4/2024 7:45:00 AM 13.39 56.102 0.033 6.63 2.48 10.33
5/4/2024 8:00:00 AM 13.36 56.048 0.033 6.64 2.32 10.37
5/4/2024 8:15:00 AM 13.34 56.012 0.033 6.64 2.31 10.4
5/4/2024 8:30:00 AM 13.31 55.958 0.033 6.65 2.31 10.39
5/4/2024 8:45:00 AM 13.29 55.922 0.033 6.66 2.41 10.44
5/4/2024 9:00:00 AM 13.26 55.868 0.033 6.66 2.38 10.47
5/4/2024 9:15:00 AM 13.24 55.832 0.033 6.66 2.37 10.46
5/4/2024 9:30:00 AM 13.22 55.796 0.033 6.66 2.35 10.48
5/4/2024 9:45:00 AM 13.19 55.742 0.033 6.66 2.44 10.51
5/4/2024 10:00:00 AM 13.17 55.706 0.033 6.68 2.27 10.52
5/4/2024 10:15:00 AM 13.16 55.688 0.033 6.67 2.24 10.52
5/4/2024 10:30:00 AM 13.14 55.652 0.033 6.7 2.43 10.6
5/4/2024 10:45:00 AM 13.14 55.652 0.032 6.71 2.27 10.62
5/4/2024 11:00:00 AM 13.16 55.688 0.032 6.73 2.34 10.63
5/4/2024 11:15:00 AM 13.18 55.724 0.032 6.75 2.23 10.69
5/4/2024 11:30:00 AM 13.23 55.814 0.032 6.77 2.08 10.71
5/4/2024 11:45:00 AM 13.25 55.85 0.032 6.77 2.26 10.76
5/4/2024 12:00:00 PM 13.25 55.85 0.032 6.78 2.32 10.74
5/4/2024 12:15:00 PM 13.26 55.868 0.032 6.78 2.39 10.73
5/4/2024 12:30:00 PM 13.26 55.868 0.032 6.79 2.44 10.75
5/4/2024 12:45:00 PM 13.27 55.886 0.032 6.79 2.4 10.74
5/4/2024 1:00:00 PM 13.26 55.868 0.032 6.8 2.64 10.75
5/4/2024 1:15:00 PM 13.22 55.796 0.032 6.8 2.33 10.72
5/4/2024 1:30:00 PM 13.18 55.724 0.032 6.79 2.39 10.71
5/4/2024 1:45:00 PM 13.14 55.652 0.032 6.76 2.82 10.65
5/4/2024 2:00:00 PM 13.11 55.598 0.032 6.78 2.38 10.66
5/4/2024 2:15:00 PM 13.07 55.526 0.032 6.77 2.28 10.66
5/4/2024 2:30:00 PM 13.04 55.472 0.032 6.77 2.3 10.69
5/4/2024 2:45:00 PM 13.02 55.436 0.032 6.76 2.46 10.67
5/4/2024 3:00:00 PM 13 55.4 0.032 6.76 2.33 10.69
5/4/2024 3:15:00 PM 12.98 55.364 0.032 6.77 2.25 10.69
5/4/2024 3:30:00 PM 12.96 55.328 0.032 6.77 2.43 10.72
5/4/2024 3:45:00 PM 12.94 55.292 0.032 6.77 2.44 10.72
5/4/2024 4:00:00 PM 12.92 55.256 0.032 6.77 2.31 10.72
5/4/2024 4:15:00 PM 12.91 55.238 0.032 6.76 2.41 10.72
5/4/2024 4:30:00 PM 12.87 55.166 0.032 6.76 2.21 10.68
5/4/2024 4:45:00 PM 12.85 55.13 0.032 6.75 2.35 10.71
5/4/2024 5:00:00 PM 12.83 55.094 0.032 6.74 2.21 10.71
5/4/2024 5:15:00 PM 12.81 55.058 0.032 6.75 2.31 10.73
5/4/2024 5:30:00 PM 12.77 54.986 0.032 6.75 2.28 10.7
5/4/2024 5:45:00 PM 12.72 54.896 0.032 6.71 2.45 10.61
5/4/2024 6:00:00 PM 12.67 54.806 0.032 6.71 2.35 10.59
5/4/2024 6:15:00 PM 12.61 54.698 0.032 6.7 2.27 10.56
5/4/2024 6:30:00 PM 12.57 54.626 0.032 6.68 2.27 10.57
5/4/2024 6:45:00 PM 12.53 54.554 0.032 6.68 2.23 10.55
5/4/2024 7:00:00 PM 12.49 54.482 0.032 6.67 2.19 10.56
5/4/2024 7:15:00 PM 12.44 54.392 0.032 6.66 2.22 10.54
5/4/2024 7:30:00 PM 12.4 54.32 0.032 6.65 2.32 10.53
5/4/2024 7:45:00 PM 12.35 54.23 0.033 6.65 2.32 10.53
5/4/2024 8:00:00 PM 12.31 54.158 0.033 6.63 2.51 10.49
5/4/2024 8:15:00 PM 12.27 54.086 0.033 6.63 2.41 10.52
5/4/2024 8:30:00 PM 12.23 54.014 0.033 6.63 5.22 10.49
5/4/2024 8:45:00 PM 12.18 53.924 0.033 6.61 2.3 10.41
5/4/2024 9:00:00 PM 12.15 53.87 0.033 6.62 4.43 10.53
5/4/2024 9:15:00 PM 12.11 53.798 0.033 6.62 2.55 10.54
5/4/2024 9:30:00 PM 12.08 53.744 0.033 6.61 2.51 10.55
5/4/2024 9:45:00 PM 12.04 53.672 0.033 6.61 2.59 10.55
5/4/2024 10:00:00 PM 12 53.6 0.033 6.61 2.63 10.56
5/4/2024 10:15:00 PM 11.97 53.546 0.033 6.61 2.59 10.57
5/4/2024 10:30:00 PM 11.93 53.474 0.033 6.61 2.74 10.58
5/4/2024 10:45:00 PM 11.9 53.42 0.033 6.61 2.83 10.57
5/4/2024 11:00:00 PM 11.87 53.366 0.033 6.6 3.11 10.58
5/4/2024 11:15:00 PM 11.84 53.312 0.033 6.6 2.9 10.6
5/4/2024 11:30:00 PM 11.81 53.258 0.033 6.6 2.9 10.6
5/4/2024 11:45:00 PM 11.79 53.222 0.033 6.6 3 10.62
5/5/2024 12:00:00 AM 11.76 53.168 0.033 6.61 3.11 10.63
5/5/2024 12:15:00 AM 11.73 53.114 0.033 6.6 3.26 10.64
5/5/2024 12:30:00 AM 11.71 53.078 0.033 6.61 3.31 10.65
5/5/2024 12:45:00 AM 11.69 53.042 0.033 6.61 3.19 10.66
5/5/2024 1:00:00 AM 11.67 53.006 0.033 6.61 3.37 10.66
5/5/2024 1:15:00 AM 11.65 52.97 0.033 6.61 3.09 10.66
5/5/2024 1:30:00 AM 11.62 52.916 0.033 6.61 3.29 10.67
5/5/2024 1:45:00 AM 11.6 52.88 0.033 6.62 3.06 10.68
5/5/2024 2:00:00 AM 11.58 52.844 0.033 6.61 3.22 10.69
5/5/2024 2:15:00 AM 11.56 52.808 0.032 6.6 3.28 10.69
5/5/2024 2:30:00 AM 11.54 52.772 0.032 6.61 3.15 10.7
5/5/2024 2:45:00 AM 11.52 52.736 0.032 6.61 2.9 10.7
5/5/2024 3:00:00 AM 11.5 52.7 0.032 6.62 3.09 10.71
5/5/2024 3:15:00 AM 11.48 52.664 0.032 6.62 3.01 10.71
5/5/2024 3:30:00 AM 11.46 52.628 0.032 6.63 3.32 10.72
5/5/2024 3:45:00 AM 11.45 52.61 0.032 6.63 2.96 10.73
5/5/2024 4:00:00 AM 11.43 52.574 0.032 6.63 3.17 10.73
5/5/2024 4:15:00 AM 11.41 52.538 0.032 6.64 3 10.73
5/5/2024 4:30:00 AM 11.39 52.502 0.032 6.63 3.03 10.75
5/5/2024 4:45:00 AM 11.37 52.466 0.032 6.63 3.18 10.75
5/5/2024 5:00:00 AM 11.35 52.43 0.032 6.64 3.01 10.76
5/5/2024 5:15:00 AM 11.33 52.394 0.032 6.62 8.41 10.75
5/5/2024 5:30:00 AM 11.32 52.376 0.032 6.64 3.05 10.77
5/5/2024 5:45:00 AM 11.3 52.34 0.032 6.64 3.07 10.77
5/5/2024 6:00:00 AM 11.29 52.322 0.032 6.64 3.1 10.78
5/5/2024 6:15:00 AM 11.27 52.286 0.032 6.65 3.17 10.77
5/5/2024 6:30:00 AM 11.26 52.268 0.032 6.64 2.83 10.77
5/5/2024 6:45:00 AM 11.24 52.232 0.032 6.65 2.89 10.81
5/5/2024 7:00:00 AM 11.23 52.214 0.032 6.65 2.8 10.82
5/5/2024 7:15:00 AM 11.22 52.196 0.032 6.66 2.84 10.82
5/5/2024 7:30:00 AM 11.21 52.178 0.032 6.66 2.8 10.82
5/5/2024 7:45:00 AM 11.2 52.16 0.032 6.66 2.97 10.87
5/5/2024 8:00:00 AM 11.19 52.142 0.032 6.67 2.83 10.89
5/5/2024 8:15:00 AM 11.2 52.16 0.032 6.69 2.7 10.95
5/5/2024 8:30:00 AM 11.21 52.178 0.032 6.7 2.69 10.99
5/5/2024 8:45:00 AM 11.23 52.214 0.032 6.72 2.76 11.03
5/5/2024 9:00:00 AM 11.23 52.214 0.032 6.72 2.72 11
5/5/2024 9:15:00 AM 11.24 52.232 0.031 6.72 2.76 11.01
5/5/2024 9:30:00 AM 11.26 52.268 0.031 6.74 2.74 11.06
5/5/2024 9:45:00 AM 11.27 52.286 0.031 6.75 2.7 11.07
5/5/2024 10:00:00 AM 11.3 52.34 0.031 6.76 2.79 11.1
5/5/2024 10:15:00 AM 11.31 52.358 0.031 6.77 2.7 11.11
5/5/2024 10:30:00 AM 11.34 52.412 0.031 6.78 2.59 11.11
5/5/2024 10:45:00 AM 11.36 52.448 0.031 6.77 2.59 11.13
5/5/2024 11:00:00 AM 11.38 52.484 0.031 6.79 2.67 11.12
5/5/2024 11:15:00 AM 11.42 52.556 0.031 6.77 3.07 11.12
5/5/2024 11:30:00 AM 11.43 52.574 0.031 6.78 2.52 11.07
5/5/2024 11:45:00 AM 11.45 52.61 0.031 6.79 13.05 11.02
5/5/2024 12:00:00 PM 11.47 52.646 0.031 6.8 3.27 11.08
5/5/2024 12:15:00 PM 11.47 52.646 0.031 6.79 3.18 11.06
5/5/2024 12:30:00 PM 11.52 52.736 0.031 6.79 3.28 11.07
5/5/2024 12:45:00 PM 11.58 52.844 0.031 6.79 2.8 11.09
5/5/2024 1:00:00 PM 11.61 52.898 0.031 6.8 3.01 11.07
5/5/2024 1:15:00 PM 11.62 52.916 0.031 6.82 3.1 11.06
5/5/2024 1:30:00 PM 11.62 52.916 0.031 6.8 2.46 11.04
5/5/2024 1:45:00 PM 11.66 52.988 0.031 6.82 2.49 11.02
5/5/2024 2:00:00 PM 11.74 53.132 0.031 6.81 2.48 11.07
5/5/2024 2:15:00 PM 11.79 53.222 0.031 6.83 2.43 11.06
5/5/2024 2:30:00 PM 11.84 53.312 0.031 6.83 3.1 11.05
5/5/2024 2:45:00 PM 11.9 53.42 0.031 6.83 2.87 11.06
5/5/2024 3:00:00 PM 11.94 53.492 0.031 6.85 2.87 11.02
5/5/2024 3:15:00 PM 11.97 53.546 0.031 6.8 2.54 10.96
5/5/2024 3:30:00 PM 11.99 53.582 0.031 6.83 2.55 11.02
5/5/2024 3:45:00 PM 12 53.6 0.031 6.82 6.88 10.99
5/5/2024 4:00:00 PM 12.01 53.618 0.031 6.81 2.82 10.93
5/5/2024 4:15:00 PM 12 53.6 0.031 6.82 2.94 10.9
5/5/2024 4:30:00 PM 12 53.6 0.031 6.8 2.63 10.83
5/5/2024 4:45:00 PM 12 53.6 0.031 6.8 2.59 10.85
5/5/2024 5:00:00 PM 12.01 53.618 0.031 6.78 2.35 10.86
5/5/2024 5:15:00 PM 12.02 53.636 0.031 6.8 2.79 10.85
5/5/2024 5:30:00 PM 12.03 53.654 0.031 6.79 2.46 10.84
5/5/2024 5:45:00 PM 12.05 53.69 0.031 6.78 2.51 10.86
5/5/2024 6:00:00 PM 12.06 53.708 0.031 6.77 2.61 10.85
5/5/2024 6:15:00 PM 12.06 53.708 0.031 6.77 2.55 10.82
5/5/2024 6:30:00 PM 12.03 53.654 0.031 6.75 2.58 10.75
5/5/2024 6:45:00 PM 12.01 53.618 0.031 6.73 2.47 10.72
5/5/2024 7:00:00 PM 12 53.6 0.031 6.71 2.59 10.7
5/5/2024 7:15:00 PM 11.99 53.582 0.031 6.7 2.39 10.67
5/5/2024 7:30:00 PM 11.98 53.564 0.031 6.69 2.23 10.61
5/5/2024 7:45:00 PM 11.96 53.528 0.031 6.67 2.72 10.64
5/5/2024 8:00:00 PM 11.94 53.492 0.031 6.66 2.37 10.6
5/5/2024 8:15:00 PM 11.92 53.456 0.032 6.66 2.36 10.52
5/5/2024 8:30:00 PM 11.9 53.42 0.032 6.66 2.29 10.62
5/5/2024 8:45:00 PM 11.89 53.402 0.032 6.65 2.47 10.62
5/5/2024 9:00:00 PM 11.87 53.366 0.032 6.65 2.5 10.62
5/5/2024 9:15:00 PM 11.85 53.33 0.032 6.64 2.46 10.63
5/5/2024 9:30:00 PM 11.84 53.312 0.032 6.64 2.57 10.62
5/5/2024 9:45:00 PM 11.82 53.276 0.032 6.64 2.58 10.63
5/5/2024 10:00:00 PM 11.81 53.258 0.032 6.64 2.47 10.64
5/5/2024 10:15:00 PM 11.8 53.24 0.032 6.63 2.45 10.64
5/5/2024 10:30:00 PM 11.78 53.204 0.032 6.63 2.41 10.64
5/5/2024 10:45:00 PM 11.77 53.186 0.032 6.63 2.33 10.64
5/5/2024 11:00:00 PM 11.76 53.168 0.032 6.63 2.37 10.64
5/5/2024 11:15:00 PM 11.75 53.15 0.032 6.62 2.4 10.64
5/5/2024 11:30:00 PM 11.74 53.132 0.032 6.61 2.49 10.65
5/5/2024 11:45:00 PM 11.73 53.114 0.032 6.62 2.35 10.65
5/6/2024 12:00:00 AM 11.72 53.096 0.032 6.61 2.36 10.65
5/6/2024 12:15:00 AM 11.71 53.078 0.032 6.6 2.35 10.65
5/6/2024 12:30:00 AM 11.7 53.06 0.032 6.6 2.44 10.65
5/6/2024 12:45:00 AM 11.69 53.042 0.032 6.61 2.91 10.65
5/6/2024 1:00:00 AM 11.68 53.024 0.032 6.6 4.36 10.65
5/6/2024 1:15:00 AM 11.67 53.006 0.032 6.6 2.47 10.66
5/6/2024 1:30:00 AM 11.67 53.006 0.032 6.6 2.32 10.66
5/6/2024 1:45:00 AM 11.66 52.988 0.032 6.6 2.34 10.66
5/6/2024 2:00:00 AM 11.65 52.97 0.032 6.6 2.35 10.66
5/6/2024 2:15:00 AM 11.64 52.952 0.032 6.6 2.41 10.66
5/6/2024 2:30:00 AM 11.63 52.934 0.032 6.58 2.43 10.67
5/6/2024 2:45:00 AM 11.63 52.934 0.032 6.59 2.52 10.66
5/6/2024 3:00:00 AM 11.62 52.916 0.032 6.59 2.42 10.66
5/6/2024 3:15:00 AM 11.61 52.898 0.032 6.59 2.4 10.67
5/6/2024 3:30:00 AM 11.6 52.88 0.032 6.58 2.46 10.67
5/6/2024 3:45:00 AM 11.6 52.88 0.032 6.57 2.3 10.67
5/6/2024 4:00:00 AM 11.59 52.862 0.032 6.58 2.48 10.67
5/6/2024 4:15:00 AM 11.58 52.844 0.032 6.58 2.55 10.67
5/6/2024 4:30:00 AM 11.58 52.844 0.032 6.57 2.54 10.68
5/6/2024 4:45:00 AM 11.57 52.826 0.032 6.58 2.39 10.67
5/6/2024 5:00:00 AM 11.56 52.808 0.032 6.58 2.42 10.67
5/6/2024 5:15:00 AM 11.56 52.808 0.032 6.58 2.37 10.68
5/6/2024 5:30:00 AM 11.55 52.79 0.033 6.58 2.32 10.66
5/6/2024 5:45:00 AM 11.55 52.79 0.033 6.58 2.84 10.63
5/6/2024 6:00:00 AM 11.54 52.772 0.033 6.57 2.53 10.65
5/6/2024 6:15:00 AM 11.53 52.754 0.033 6.58 2.46 10.63
5/6/2024 6:30:00 AM 11.53 52.754 0.033 6.58 2.38 10.64
5/6/2024 6:45:00 AM 11.52 52.736 0.033 6.58 2.36 10.69
5/6/2024 7:00:00 AM 11.52 52.736 0.033 6.58 2.37 10.68
5/6/2024 7:15:00 AM 11.52 52.736 0.033 6.58 2.24 10.7
5/6/2024 7:30:00 AM 11.53 52.754 0.033 6.59 2.31 10.7
5/6/2024 7:45:00 AM 11.54 52.772 0.033 6.6 2.32 10.78
5/6/2024 8:00:00 AM 11.55 52.79 0.033 6.62 2.32 10.8
5/6/2024 8:15:00 AM 11.57 52.826 0.032 6.63 2.31 10.86
5/6/2024 8:30:00 AM 11.59 52.862 0.032 6.65 2.23 10.83
5/6/2024 8:45:00 AM 11.61 52.898 0.032 6.68 18.72 10.87
5/6/2024 9:00:00 AM 11.66 52.988 0.032 6.7 2.56 10.91
5/6/2024 9:15:00 AM 11.71 53.078 0.032 6.71 2.5 10.92
5/6/2024 9:30:00 AM 11.78 53.204 0.032 6.73 2.44 10.94
5/6/2024 9:45:00 AM 11.86 53.348 0.032 6.74 2.38 11.01
5/6/2024 10:00:00 AM 11.95 53.51 0.032 6.77 2.32 11.04
5/6/2024 10:15:00 AM 12.03 53.654 0.032 6.77 2.26 10.96
5/6/2024 10:30:00 AM 12.09 53.762 0.032 6.78 2.35 11.02
5/6/2024 10:45:00 AM 12.17 53.906 0.032 6.8 2.23 11
5/6/2024 11:00:00 AM 12.23 54.014 0.032 6.82 2.28 11
5/6/2024 11:15:00 AM 12.3 54.14 0.032 6.81 2.68 10.98
5/6/2024 11:30:00 AM 12.36 54.248 0.032 6.83 2.53 10.93
5/6/2024 11:45:00 AM 12.54 54.572 0.031 6.86 2.62 10.96
5/6/2024 12:00:00 PM 12.76 54.968 0.031 6.88 4.18 10.93
5/6/2024 12:15:00 PM 12.97 55.346 0.031 6.89 4.05 10.87
5/6/2024 12:30:00 PM 13.2 55.76 0.031 6.9 4.2 10.83
5/6/2024 12:45:00 PM 13.44 56.192 0.031 6.91 2.32 10.77
5/6/2024 1:00:00 PM 13.6 56.48 0.031 6.87 2.39 10.73
5/6/2024 1:15:00 PM 13.78 56.804 0.031 6.91 2.28 10.66
5/6/2024 1:30:00 PM 14.01 57.218 0.031 6.91 3.43 10.65
5/6/2024 1:45:00 PM 14.19 57.542 0.031 6.91 3.53 10.6
5/6/2024 2:00:00 PM 14.44 57.992 0.031 6.93 2.19 10.53
5/6/2024 2:15:00 PM 14.7 58.46 0.031 6.91 2.23 10.44
5/6/2024 2:30:00 PM 14.98 58.964 0.031 6.94 3.19 10.48
5/6/2024 2:45:00 PM 15.21 59.378 0.031 6.95 2.73 10.4
5/6/2024 3:00:00 PM 15.28 59.504 0.031 6.96 9.51 10.35
5/6/2024 3:15:00 PM 15.37 59.666 0.031 6.95 2.07 10.32
5/6/2024 3:30:00 PM 15.39 59.702 0.031 6.95 2.23 10.31
5/6/2024 3:45:00 PM 15.4 59.72 0.031 6.95 2.08 10.29
5/6/2024 4:00:00 PM 15.34 59.612 0.031 6.94 2.13 10.24
5/6/2024 4:15:00 PM 15.28 59.504 0.031 6.94 2.16 10.24
5/6/2024 4:30:00 PM 15.26 59.468 0.031 6.93 2.08 10.23
5/6/2024 4:45:00 PM 15.3 59.54 0.031 6.89 3.36 10.2
5/6/2024 5:00:00 PM 15.3 59.54 0.031 6.92 2.01 10.25
5/6/2024 5:15:00 PM 15.25 59.45 0.031 6.91 2.06 10.23
5/6/2024 5:30:00 PM 15.16 59.288 0.031 6.88 2.15 10.22
5/6/2024 5:45:00 PM 15.05 59.09 0.031 6.88 2.23 10.19
5/6/2024 6:00:00 PM 14.96 58.928 0.031 6.87 2.14 10.2
5/6/2024 6:15:00 PM 14.9 58.82 0.031 6.84 2.12 10.19
5/6/2024 6:30:00 PM 14.84 58.712 0.031 6.83 2.11 10.18
5/6/2024 6:45:00 PM 14.77 58.586 0.032 6.8 2.07 10.15
5/6/2024 7:00:00 PM 14.69 58.442 0.032 6.78 2.1 10.13
5/6/2024 7:15:00 PM 14.6 58.28 0.032 6.76 2.16 10.09
5/6/2024 7:30:00 PM 14.5 58.1 0.032 6.74 2.14 10.05
5/6/2024 7:45:00 PM 14.42 57.956 0.032 6.72 2.13 10.03
5/6/2024 8:00:00 PM 14.33 57.794 0.032 6.69 2.11 10.01
5/6/2024 8:15:00 PM 14.25 57.65 0.032 6.68 2.08 9.97
5/6/2024 8:30:00 PM 14.18 57.524 0.032 6.67 2.26 9.99
5/6/2024 8:45:00 PM 14.09 57.362 0.032 6.65 2.1 9.99
5/6/2024 9:00:00 PM 14.01 57.218 0.032 6.63 2.2 10
5/6/2024 9:15:00 PM 13.94 57.092 0.032 6.63 2.19 10
5/6/2024 9:30:00 PM 13.87 56.966 0.033 6.63 2.26 10.02
5/6/2024 9:45:00 PM 13.8 56.84 0.033 6.62 2.16 10.04
5/6/2024 10:00:00 PM 13.74 56.732 0.033 6.62 2.06 10.04
5/6/2024 10:15:00 PM 13.67 56.606 0.033 6.6 2.23 10.07
5/6/2024 10:30:00 PM 13.61 56.498 0.033 6.61 2.18 10.08
5/6/2024 10:45:00 PM 13.56 56.408 0.033 6.61 2.3 10.08
5/6/2024 11:00:00 PM 13.51 56.318 0.033 6.6 2.16 10.1
5/6/2024 11:15:00 PM 13.46 56.228 0.033 6.6 2.31 10.13
5/6/2024 11:30:00 PM 13.41 56.138 0.033 6.59 2.23 10.13
5/6/2024 11:45:00 PM 13.35 56.03 0.033 6.59 2.22 10.14
5/7/2024 12:00:00 AM 13.3 55.94 0.033 6.59 2.49 10.16
5/7/2024 12:15:00 AM 13.24 55.832 0.033 6.58 2.24 10.17
5/7/2024 12:30:00 AM 13.19 55.742 0.033 6.58 2.24 10.18
5/7/2024 12:45:00 AM 13.13 55.634 0.033 6.57 2.27 10.19
5/7/2024 1:00:00 AM 13.08 55.544 0.033 6.57 2.53 10.2
5/7/2024 1:15:00 AM 13.03 55.454 0.033 6.57 2.65 10.22
5/7/2024 1:30:00 AM 12.98 55.364 0.033 6.57 2.48 10.24
5/7/2024 1:45:00 AM 12.92 55.256 0.033 6.57 2.26 10.25
5/7/2024 2:00:00 AM 12.86 55.148 0.033 6.56 2.29 10.26
5/7/2024 2:15:00 AM 12.79 55.022 0.033 6.57 2.3 10.28
5/7/2024 2:30:00 AM 12.73 54.914 0.033 6.56 2.28 10.29
5/7/2024 2:45:00 AM 12.68 54.824 0.033 6.55 2.37 10.31
5/7/2024 3:00:00 AM 12.63 54.734 0.033 6.56 2.2 10.32
5/7/2024 3:15:00 AM 12.57 54.626 0.033 6.55 2.46 10.33
5/7/2024 3:30:00 AM 12.5 54.5 0.033 6.55 2.32 10.34
5/7/2024 3:45:00 AM 12.44 54.392 0.033 6.56 2.46 10.37
5/7/2024 4:00:00 AM 12.37 54.266 0.033 6.55 2.46 10.38
5/7/2024 4:15:00 AM 12.31 54.158 0.033 6.54 2.47 10.39
5/7/2024 4:30:00 AM 12.25 54.05 0.033 6.55 2.38 10.4
5/7/2024 4:45:00 AM 12.18 53.924 0.033 6.55 2.36 10.42
5/7/2024 5:00:00 AM 12.12 53.816 0.033 6.55 2.42 10.42
5/7/2024 5:15:00 AM 12.05 53.69 0.033 6.55 2.57 10.43
5/7/2024 5:30:00 AM 11.99 53.582 0.033 6.55 2.72 10.46
5/7/2024 5:45:00 AM 11.93 53.474 0.033 6.55 2.71 10.48
5/7/2024 6:00:00 AM 11.87 53.366 0.033 6.55 2.34 10.46
5/7/2024 6:15:00 AM 11.8 53.24 0.033 6.55 2.28 10.48
5/7/2024 6:30:00 AM 11.74 53.132 0.033 6.56 2.26 10.3
5/7/2024 6:45:00 AM 11.69 53.042 0.033 6.57 2.28 10.56
5/7/2024 7:00:00 AM 11.64 52.952 0.033 6.57 2.34 10.57
5/7/2024 7:15:00 AM 11.6 52.88 0.033 6.59 2.27 10.55
5/7/2024 7:30:00 AM 11.56 52.808 0.033 6.6 2.13 10.72
5/7/2024 7:45:00 AM 11.54 52.772 0.033 6.6 2.18 10.76
5/7/2024 8:00:00 AM 11.53 52.754 0.033 6.62 2.15 10.77
5/7/2024 8:15:00 AM 11.54 52.772 0.033 6.63 2.22 10.79
5/7/2024 8:30:00 AM 11.57 52.826 0.032 6.64 2.35 10.84
5/7/2024 8:45:00 AM 11.61 52.898 0.033 6.65 2.24 10.78
5/7/2024 9:00:00 AM 11.66 52.988 0.032 6.67 2.31 10.9
5/7/2024 9:15:00 AM 11.73 53.114 0.032 6.69 2.27 10.91
5/7/2024 9:30:00 AM 11.82 53.276 0.032 6.7 2.15 10.92
5/7/2024 9:45:00 AM 11.92 53.456 0.032 6.73 2.18 10.93
5/7/2024 10:00:00 AM 12.05 53.69 0.032 6.75 2.21 10.91
5/7/2024 10:15:00 AM 12.19 53.942 0.032 6.77 2.21 10.89
5/7/2024 10:30:00 AM 12.35 54.23 0.032 6.78 2.33 10.88
5/7/2024 10:45:00 AM 12.52 54.536 0.032 6.81 2.24 10.84
5/7/2024 11:00:00 AM 12.72 54.896 0.032 6.83 2.2 10.82
5/7/2024 11:15:00 AM 12.97 55.346 0.032 6.87 2.14 10.79
5/7/2024 11:30:00 AM 13.18 55.724 0.032 6.9 2.2 10.74
5/7/2024 11:45:00 AM 13.35 56.03 0.032 6.91 2.35 10.71
5/7/2024 12:00:00 PM 13.61 56.498 0.032 6.93 2.17 10.65
5/7/2024 12:15:00 PM 13.93 57.074 0.032 6.93 2.17 10.58
5/7/2024 12:30:00 PM 14.24 57.632 0.032 6.94 2.32 10.53
5/7/2024 12:45:00 PM 14.53 58.154 0.032 6.95 2.3 10.45
5/7/2024 1:00:00 PM 14.84 58.712 0.032 6.95 2.08 10.39
5/7/2024 1:15:00 PM 15.14 59.252 0.032 6.95 2.2 10.31
5/7/2024 1:30:00 PM 15.36 59.648 0.032 6.95 2.28 10.23
5/7/2024 1:45:00 PM 15.62 60.116 0.032 6.95 2.15 10.18
5/7/2024 2:00:00 PM 15.81 60.458 0.032 6.96 2.27 10.14
5/7/2024 2:15:00 PM 16.03 60.854 0.032 6.96 2.05 10.1
5/7/2024 2:30:00 PM 16.25 61.25 0.032 6.96 2.09 10.05
5/7/2024 2:45:00 PM 16.17 61.106 0.032 6.96 2.14 9.99
5/7/2024 3:00:00 PM 16.22 61.196 0.032 6.95 2.11 9.98
5/7/2024 3:15:00 PM 16.37 61.466 0.032 6.94 2.02 9.94
5/7/2024 3:30:00 PM 16.42 61.556 0.032 6.89 2.33 9.85
5/7/2024 3:45:00 PM 16.4 61.52 0.032 6.91 2.14 9.91
5/7/2024 4:00:00 PM 16.44 61.592 0.032 6.93 2.13 9.88
5/7/2024 4:15:00 PM 16.45 61.61 0.032 6.93 2.3 9.89
5/7/2024 4:30:00 PM 16.47 61.646 0.032 6.92 2.1 9.88
5/7/2024 4:45:00 PM 16.54 61.772 0.032 6.92 2.22 9.87
5/7/2024 5:00:00 PM 16.58 61.844 0.032 6.93 2.07 9.86
5/7/2024 5:15:00 PM 16.56 61.808 0.032 6.91 1.98 9.82
5/7/2024 5:30:00 PM 16.51 61.718 0.032 6.88 2.2 9.76
5/7/2024 5:45:00 PM 16.44 61.592 0.032 6.88 2.67 9.78
5/7/2024 6:00:00 PM 16.35 61.43 0.032 6.86 2.05 9.75
5/7/2024 6:15:00 PM 16.28 61.304 0.032 6.85 2 9.75
5/7/2024 6:30:00 PM 16.21 61.178 0.032 6.83 2.05 9.74
5/7/2024 6:45:00 PM 16.13 61.034 0.032 6.81 1.96 9.71
5/7/2024 7:00:00 PM 16.04 60.872 0.032 6.79 2.09 9.68
5/7/2024 7:15:00 PM 15.93 60.674 0.032 6.76 2.36 9.61
5/7/2024 7:30:00 PM 15.85 60.53 0.032 6.75 2.38 9.66
5/7/2024 7:45:00 PM 15.74 60.332 0.033 6.73 2.36 9.64
5/7/2024 8:00:00 PM 15.62 60.116 0.033 6.7 2.39 9.6
5/7/2024 8:15:00 PM 15.5 59.9 0.033 6.69 2.04 9.62
5/7/2024 8:30:00 PM 15.4 59.72 0.033 6.64 1.97 9.51
5/7/2024 8:45:00 PM 15.29 59.522 0.033 6.65 2.15 9.6
5/7/2024 9:00:00 PM 15.2 59.36 0.033 6.64 2.4 9.63
5/7/2024 9:15:00 PM 15.11 59.198 0.033 6.62 2.09 9.65
5/7/2024 9:30:00 PM 15.02 59.036 0.033 6.62 2.21 9.66
5/7/2024 9:45:00 PM 14.94 58.892 0.033 6.61 2.18 9.68
5/7/2024 10:00:00 PM 14.86 58.748 0.033 6.6 2.28 9.7
5/7/2024 10:15:00 PM 14.79 58.622 0.033 6.6 2.45 9.72
5/7/2024 10:30:00 PM 14.72 58.496 0.033 6.59 2.16 9.73
5/7/2024 10:45:00 PM 14.66 58.388 0.033 6.59 2.06 9.75
5/7/2024 11:00:00 PM 14.61 58.298 0.033 6.58 2.6 9.76
5/7/2024 11:15:00 PM 14.56 58.208 0.033 6.57 2.24 9.78
5/7/2024 11:30:00 PM 14.51 58.118 0.034 6.57 2.25 9.78
5/7/2024 11:45:00 PM 14.46 58.028 0.034 6.57 2.13 9.8
5/8/2024 12:00:00 AM 14.4 57.92 0.034 6.56 2.11 9.81
5/8/2024 12:15:00 AM 14.35 57.83 0.034 6.55 2.27 9.8
5/8/2024 12:30:00 AM 14.29 57.722 0.034 6.55 2.21 9.84
5/8/2024 12:45:00 AM 14.24 57.632 0.034 6.54 2.16 9.85
5/8/2024 1:00:00 AM 14.2 57.56 0.034 6.54 2.27 9.85
5/8/2024 1:15:00 AM 14.16 57.488 0.034 6.54 2.32 9.85
5/8/2024 1:30:00 AM 14.12 57.416 0.034 6.54 2.38 9.88
5/8/2024 1:45:00 AM 14.08 57.344 0.034 6.54 2.13 9.88
5/8/2024 2:00:00 AM 14.05 57.29 0.034 6.53 2.17 9.88
5/8/2024 2:15:00 AM 14.01 57.218 0.034 6.54 2.3 9.89
5/8/2024 2:30:00 AM 13.98 57.164 0.034 6.54 2.34 9.89
5/8/2024 2:45:00 AM 13.96 57.128 0.034 6.55 2.31 9.89
5/8/2024 3:00:00 AM 13.94 57.092 0.034 6.55 2.32 9.88
5/8/2024 3:15:00 AM 13.92 57.056 0.034 6.54 2.24 9.88
5/8/2024 3:30:00 AM 13.89 57.002 0.034 6.54 2.38 9.88
5/8/2024 3:45:00 AM 13.86 56.948 0.034 6.54 2.46 9.88
5/8/2024 4:00:00 AM 13.83 56.894 0.034 6.53 2.69 9.89
5/8/2024 4:15:00 AM 13.8 56.84 0.034 6.54 2.34 9.89
5/8/2024 4:30:00 AM 13.76 56.768 0.034 6.54 2.2 9.92
5/8/2024 4:45:00 AM 13.73 56.714 0.034 6.53 2.23 9.93
5/8/2024 5:00:00 AM 13.7 56.66 0.034 6.53 2.32 9.94
5/8/2024 5:15:00 AM 13.67 56.606 0.034 6.49 2.93 9.92
5/8/2024 5:30:00 AM 13.64 56.552 0.034 6.52 2.42 9.95
5/8/2024 5:45:00 AM 13.62 56.516 0.034 6.52 2.57 9.96
5/8/2024 6:00:00 AM 13.6 56.48 0.034 6.52 2.63 9.93
5/8/2024 6:15:00 AM 13.58 56.444 0.034 6.52 2.66 9.96
5/8/2024 6:30:00 AM 13.56 56.408 0.034 6.51 2.42 9.97
5/8/2024 6:45:00 AM 13.55 56.39 0.034 6.53 2.46 9.96
5/8/2024 7:00:00 AM 13.54 56.372 0.034 6.54 2.38 9.64
5/8/2024 7:15:00 AM 13.53 56.354 0.034 6.55 2.44 10.06
5/8/2024 7:30:00 AM 13.52 56.336 0.034 6.56 2.37 9.99
5/8/2024 7:45:00 AM 13.53 56.354 0.034 6.57 2.34 9.89
5/8/2024 8:00:00 AM 13.55 56.39 0.034 6.6 2.28 10.14
5/8/2024 8:15:00 AM 13.58 56.444 0.034 6.62 2.48 10.18
5/8/2024 8:30:00 AM 13.61 56.498 0.033 6.64 2.35 10.27
5/8/2024 8:45:00 AM 13.67 56.606 0.033 6.67 2.18 10.33
5/8/2024 9:00:00 AM 13.72 56.696 0.033 6.7 2.26 10.32
5/8/2024 9:15:00 AM 13.75 56.75 0.033 6.73 2.32 10.33
5/8/2024 9:30:00 AM 13.83 56.894 0.033 6.75 2.19 10.35
5/8/2024 9:45:00 AM 13.96 57.128 0.033 6.76 2.92 10.35
5/8/2024 10:00:00 AM 13.98 57.164 0.033 6.8 2.2 10.3
5/8/2024 10:15:00 AM 14.01 57.218 0.033 6.8 2.17 10.28
5/8/2024 10:30:00 AM 14.16 57.488 0.033 6.82 2.31 10.3
5/8/2024 10:45:00 AM 14.36 57.848 0.033 6.84 2.1 10.29
5/8/2024 11:00:00 AM 14.48 58.064 0.033 6.85 2.27 10.12
5/8/2024 11:15:00 AM 14.56 58.208 0.032 6.85 2.2 10.24
5/8/2024 11:30:00 AM 14.73 58.514 0.032 6.87 2.24 10.12
5/8/2024 11:45:00 AM 14.95 58.91 0.032 6.88 2.55 10.21
5/8/2024 12:00:00 PM 15.15 59.27 0.032 6.87 3.7 10.14
5/8/2024 12:15:00 PM 15.33 59.594 0.032 6.93 2.12 10.14
5/8/2024 12:30:00 PM 15.53 59.954 0.032 6.93 2.1 10.09
5/8/2024 12:45:00 PM 15.81 60.458 0.032 6.93 2.08 10.07
5/8/2024 1:00:00 PM 16.1 60.98 0.032 6.96 2.06 10.05
5/8/2024 1:15:00 PM 16.34 61.412 0.032 6.96 2.17 9.98
5/8/2024 1:30:00 PM 16.62 61.916 0.032 6.96 2.02 9.94
5/8/2024 1:45:00 PM 16.88 62.384 0.032 6.96 2.12 9.89
5/8/2024 2:00:00 PM 17.12 62.816 0.032 6.98 2.12 9.84
5/8/2024 2:15:00 PM 17.33 63.194 0.032 6.98 2.06 9.8
5/8/2024 2:30:00 PM 17.53 63.554 0.032 6.98 2.16 9.76
5/8/2024 2:45:00 PM 17.66 63.788 0.032 6.98 2.5 9.72
5/8/2024 3:00:00 PM 17.78 64.004 0.032 6.98 2.14 9.69
5/8/2024 3:15:00 PM 17.86 64.148 0.032 6.95 2.38 9.61
5/8/2024 3:30:00 PM 17.85 64.13 0.032 6.96 2.14 9.62
5/8/2024 3:45:00 PM 17.84 64.112 0.032 6.96 2.05 9.61
5/8/2024 4:00:00 PM 17.85 64.13 0.032 6.94 2.24 9.57
5/8/2024 4:15:00 PM 17.83 64.094 0.032 6.94 2.17 9.6
5/8/2024 4:30:00 PM 17.77 63.986 0.032 6.93 2.3 9.57
5/8/2024 4:45:00 PM 17.69 63.842 0.032 6.93 2.21 9.62
5/8/2024 5:00:00 PM 17.56 63.608 0.032 6.92 2.24 9.61
5/8/2024 5:15:00 PM 17.45 63.41 0.032 6.91 2.3 9.61
5/8/2024 5:30:00 PM 17.33 63.194 0.032 6.9 2.01 9.58
5/8/2024 5:45:00 PM 17.21 62.978 0.032 6.89 2.06 9.58
5/8/2024 6:00:00 PM 17.08 62.744 0.032 6.87 2.03 9.55
5/8/2024 6:15:00 PM 16.94 62.492 0.032 6.85 2.21 9.54
5/8/2024 6:30:00 PM 16.78 62.204 0.032 6.84 2.15 9.56
5/8/2024 6:45:00 PM 16.63 61.934 0.033 6.82 2.18 9.55
5/8/2024 7:00:00 PM 16.49 61.682 0.033 6.8 2.12 9.54
5/8/2024 7:15:00 PM 16.35 61.43 0.033 6.79 2.07 9.55
5/8/2024 7:30:00 PM 16.21 61.178 0.033 6.76 2.2 9.52
5/8/2024 7:45:00 PM 16.09 60.962 0.033 6.75 2.11 9.51
5/8/2024 8:00:00 PM 15.96 60.728 0.033 6.73 2.34 9.5
5/8/2024 8:15:00 PM 15.83 60.494 0.033 6.71 2.53 9.5
5/8/2024 8:30:00 PM 15.7 60.26 0.033 6.69 3.49 9.5
5/8/2024 8:45:00 PM 15.59 60.062 0.033 6.67 2.92 9.51
5/8/2024 9:00:00 PM 15.47 59.846 0.033 6.65 2.38 9.54
5/8/2024 9:15:00 PM 15.37 59.666 0.033 6.64 2.62 9.54
5/8/2024 9:30:00 PM 15.26 59.468 0.033 6.62 2.21 9.57
5/8/2024 9:45:00 PM 15.17 59.306 0.033 6.61 2.48 9.59
5/8/2024 10:00:00 PM 15.08 59.144 0.033 6.61 2.35 9.62
5/8/2024 10:15:00 PM 14.98 58.964 0.034 6.6 2.4 9.64
5/8/2024 10:30:00 PM 14.89 58.802 0.034 6.59 2.24 9.67
5/8/2024 10:45:00 PM 14.79 58.622 0.034 6.58 3.27 9.69
5/8/2024 11:00:00 PM 14.69 58.442 0.034 6.58 2.3 9.68
5/8/2024 11:15:00 PM 14.59 58.262 0.034 6.57 2.46 9.73
5/8/2024 11:30:00 PM 14.5 58.1 0.034 6.57 2.53 9.75
5/8/2024 11:45:00 PM 14.41 57.938 0.034 6.57 2.35 9.77
5/9/2024 12:00:00 AM 14.32 57.776 0.034 6.56 2.22 9.81
5/9/2024 12:15:00 AM 14.22 57.596 0.034 6.55 2.15 9.83
5/9/2024 12:30:00 AM 14.13 57.434 0.034 6.55 2.39 9.8
5/9/2024 12:45:00 AM 14.05 57.29 0.034 6.55 2.56 9.87
5/9/2024 1:00:00 AM 13.96 57.128 0.034 6.54 2.48 9.89
5/9/2024 1:15:00 AM 13.88 56.984 0.034 6.54 2.52 9.91
5/9/2024 1:30:00 AM 13.8 56.84 0.034 6.53 2.51 9.94
5/9/2024 1:45:00 AM 13.72 56.696 0.034 6.53 2.44 9.94
5/9/2024 2:00:00 AM 13.64 56.552 0.034 6.53 2.32 9.96
5/9/2024 2:15:00 AM 13.57 56.426 0.034 6.52 2.46 9.99
5/9/2024 2:30:00 AM 13.49 56.282 0.034 6.53 2.4 10.01
5/9/2024 2:45:00 AM 13.41 56.138 0.034 6.52 2.31 10.03
5/9/2024 3:00:00 AM 13.34 56.012 0.034 6.52 2.34 10.05
5/9/2024 3:15:00 AM 13.27 55.886 0.034 6.53 2.37 10.07
5/9/2024 3:30:00 AM 13.2 55.76 0.034 6.52 2.39 10.08
5/9/2024 3:45:00 AM 13.13 55.634 0.034 6.53 2.66 10.11
5/9/2024 4:00:00 AM 13.06 55.508 0.034 6.52 2.42 10.1
5/9/2024 4:15:00 AM 12.99 55.382 0.033 6.52 2.38 10.14
5/9/2024 4:30:00 AM 12.92 55.256 0.034 6.52 2.34 10.16
5/9/2024 4:45:00 AM 12.85 55.13 0.034 6.52 2.24 10.18
5/9/2024 5:00:00 AM 12.79 55.022 0.033 6.51 2.18 10.21
5/9/2024 5:15:00 AM 12.72 54.896 0.033 6.53 2.31 10.2
5/9/2024 5:30:00 AM 12.65 54.77 0.033 6.52 2.15 10.24
5/9/2024 5:45:00 AM 12.59 54.662 0.033 6.52 3.87 10.25
5/9/2024 6:00:00 AM 12.52 54.536 0.033 6.53 2.35 10.27
5/9/2024 6:15:00 AM 12.46 54.428 0.033 6.53 2.41 10.3
5/9/2024 6:30:00 AM 12.4 54.32 0.033 6.54 2.37 10.33
5/9/2024 6:45:00 AM 12.36 54.248 0.033 6.55 2.24 10.39
5/9/2024 7:00:00 AM 12.34 54.212 0.033 6.57 2.29 10.45
5/9/2024 7:15:00 AM 12.32 54.176 0.033 6.58 2.3 10.49
5/9/2024 7:30:00 AM 12.3 54.14 0.033 6.59 2.26 10.5
5/9/2024 7:45:00 AM 12.29 54.122 0.033 6.61 2.36 10.54
5/9/2024 8:00:00 AM 12.29 54.122 0.033 6.63 2.12 10.59
5/9/2024 8:15:00 AM 12.3 54.14 0.033 6.64 2.18 10.66
5/9/2024 8:30:00 AM 12.32 54.176 0.033 6.66 2.28 10.68
5/9/2024 8:45:00 AM 12.35 54.23 0.033 6.68 2.29 10.7
5/9/2024 9:00:00 AM 12.4 54.32 0.033 6.7 2.26 10.73
5/9/2024 9:15:00 AM 12.44 54.392 0.033 6.71 2.15 10.74
5/9/2024 9:30:00 AM 12.47 54.446 0.033 6.74 2.22 10.76
5/9/2024 9:45:00 AM 12.5 54.5 0.033 6.74 2.21 10.76
5/9/2024 10:00:00 AM 12.52 54.536 0.033 6.75 2.2 10.74
5/9/2024 10:15:00 AM 12.53 54.554 0.033 6.76 2.21 10.72
5/9/2024 10:30:00 AM 12.55 54.59 0.033 6.77 2.22 10.71
5/9/2024 10:45:00 AM 12.56 54.608 0.032 6.78 2.25 10.7
5/9/2024 11:00:00 AM 12.56 54.608 0.033 6.77 2.15 10.66
5/9/2024 11:15:00 AM 12.56 54.608 0.033 6.77 2.2 10.65
5/9/2024 11:30:00 AM 12.57 54.626 0.033 6.78 2.21 10.65
5/9/2024 11:45:00 AM 12.62 54.716 0.032 6.8 2.21 10.7
5/9/2024 12:00:00 PM 12.69 54.842 0.032 6.81 2.13 10.73
5/9/2024 12:15:00 PM 12.73 54.914 0.032 6.83 2.39 10.74
5/9/2024 12:30:00 PM 12.75 54.95 0.032 6.84 2.19 10.72
5/9/2024 12:45:00 PM 12.76 54.968 0.032 6.84 2.21 10.7
5/9/2024 1:00:00 PM 12.76 54.968 0.032 6.84 2.21 10.67
5/9/2024 1:15:00 PM 12.74 54.932 0.032 6.84 2.31 10.66
5/9/2024 1:30:00 PM 12.75 54.95 0.032 6.83 2.47 10.65
5/9/2024 1:45:00 PM 12.76 54.968 0.032 6.83 2.17 10.64
5/9/2024 2:00:00 PM 12.76 54.968 0.032 6.82 2.29 10.6
5/9/2024 2:15:00 PM 12.76 54.968 0.032 6.81 2.27 10.56
5/9/2024 2:30:00 PM 12.75 54.95 0.032 6.81 2.32 10.54
5/9/2024 2:45:00 PM 12.75 54.95 0.032 6.8 2.3 10.54
5/9/2024 3:00:00 PM 12.76 54.968 0.032 6.81 2.28 10.57
5/9/2024 3:15:00 PM 12.78 55.004 0.032 6.82 2.21 10.59
5/9/2024 3:30:00 PM 12.81 55.058 0.032 6.83 2.17 10.6
5/9/2024 3:45:00 PM 12.81 55.058 0.032 6.83 2.24 10.58
5/9/2024 4:00:00 PM 12.79 55.022 0.032 6.82 2.2 10.55
5/9/2024 4:15:00 PM 12.77 54.986 0.033 6.81 2.22 10.52
5/9/2024 4:30:00 PM 12.73 54.914 0.033 6.8 2.15 10.48
5/9/2024 4:45:00 PM 12.71 54.878 0.033 6.79 2.36 10.46
5/9/2024 5:00:00 PM 12.7 54.86 0.033 6.79 2.35 10.47
5/9/2024 5:15:00 PM 12.68 54.824 0.033 6.78 2.4 10.47
5/9/2024 5:30:00 PM 12.68 54.824 0.033 6.78 2.2 10.48
5/9/2024 5:45:00 PM 12.68 54.824 0.033 6.78 2.37 10.5
5/9/2024 6:00:00 PM 12.65 54.77 0.033 6.77 2.29 10.45
5/9/2024 6:15:00 PM 12.62 54.716 0.033 6.75 2.29 10.41
5/9/2024 6:30:00 PM 12.59 54.662 0.033 6.75 2.3 10.39
5/9/2024 6:45:00 PM 12.55 54.59 0.033 6.73 2.58 10.38
5/9/2024 7:00:00 PM 12.52 54.536 0.033 6.73 2.39 10.36
5/9/2024 7:15:00 PM 12.49 54.482 0.033 6.72 2.27 10.38
5/9/2024 7:30:00 PM 12.46 54.428 0.033 6.71 2.38 10.38
5/9/2024 7:45:00 PM 12.42 54.356 0.033 6.7 2.51 10.38
5/9/2024 8:00:00 PM 12.38 54.284 0.033 6.69 2.54 10.36
5/9/2024 8:15:00 PM 12.34 54.212 0.033 6.69 2.47 10.34
5/9/2024 8:30:00 PM 12.3 54.14 0.033 6.68 2.38 10.34
5/9/2024 8:45:00 PM 12.26 54.068 0.033 6.68 2.94 10.34
5/9/2024 9:00:00 PM 12.23 54.014 0.033 6.67 2.49 10.35
5/9/2024 9:15:00 PM 12.19 53.942 0.033 6.67 2.68 10.36
5/9/2024 9:30:00 PM 12.15 53.87 0.033 6.67 2.58 10.35
5/9/2024 9:45:00 PM 12.12 53.816 0.033 6.66 2.8 10.37
5/9/2024 10:00:00 PM 12.09 53.762 0.033 6.65 3.05 10.37
5/9/2024 10:15:00 PM 12.05 53.69 0.033 6.65 3.23 10.38
5/9/2024 10:30:00 PM 12.02 53.636 0.033 6.65 2.87 10.39
5/9/2024 10:45:00 PM 12 53.6 0.033 6.65 2.75 10.38
5/9/2024 11:00:00 PM 11.97 53.546 0.033 6.66 3.08 10.41
5/9/2024 11:15:00 PM 11.94 53.492 0.033 6.65 3.04 10.42
5/9/2024 11:30:00 PM 11.91 53.438 0.033 6.65 2.99 10.42
5/9/2024 11:45:00 PM 11.89 53.402 0.033 6.65 3.07 10.43
5/10/2024 12:00:00 AM 11.86 53.348 0.033 6.65 3.33 10.43
5/10/2024 12:15:00 AM 11.83 53.294 0.033 6.66 3.67 10.44
5/10/2024 12:30:00 AM 11.8 53.24 0.033 6.66 3.43 10.46
5/10/2024 12:45:00 AM 11.77 53.186 0.033 6.65 3.46 10.46
5/10/2024 1:00:00 AM 11.74 53.132 0.033 6.64 3.58 10.47
5/10/2024 1:15:00 AM 11.72 53.096 0.033 6.65 3.35 10.47
5/10/2024 1:30:00 AM 11.69 53.042 0.033 6.65 3.64 10.49
5/10/2024 1:45:00 AM 11.66 52.988 0.033 6.64 3.85 10.49
5/10/2024 2:00:00 AM 11.63 52.934 0.032 6.65 3.44 10.5
5/10/2024 2:15:00 AM 11.6 52.88 0.032 6.64 3.76 10.5
5/10/2024 2:30:00 AM 11.57 52.826 0.032 6.64 3.41 10.51
5/10/2024 2:45:00 AM 11.55 52.79 0.032 6.65 4.26 10.52
5/10/2024 3:00:00 AM 11.52 52.736 0.032 6.65 3.92 10.53
5/10/2024 3:15:00 AM 11.5 52.7 0.032 6.62 4.59 10.54
5/10/2024 3:30:00 AM 11.48 52.664 0.032 6.65 4.51 10.54
5/10/2024 3:45:00 AM 11.46 52.628 0.033 6.65 4.62 10.55
5/10/2024 4:00:00 AM 11.44 52.592 0.032 6.66 4.54 10.55
5/10/2024 4:15:00 AM 11.42 52.556 0.032 6.66 5.01 10.56
5/10/2024 4:30:00 AM 11.4 52.52 0.032 6.66 5.09 10.57
5/10/2024 4:45:00 AM 11.38 52.484 0.032 6.66 4.91 10.58
5/10/2024 5:00:00 AM 11.36 52.448 0.032 6.67 5.05 10.58
5/10/2024 5:15:00 AM 11.33 52.394 0.032 6.67 5.03 10.6
5/10/2024 5:30:00 AM 11.3 52.34 0.032 6.64 14.33 10.61
5/10/2024 5:45:00 AM 11.27 52.286 0.032 6.65 4.94 10.57
5/10/2024 6:00:00 AM 11.24 52.232 0.032 6.65 5.56 10.63
5/10/2024 6:15:00 AM 11.22 52.196 0.032 6.64 5.05 10.64
5/10/2024 6:30:00 AM 11.2 52.16 0.032 6.65 5 10.65
5/10/2024 6:45:00 AM 11.18 52.124 0.032 6.64 4.97 10.68
5/10/2024 7:00:00 AM 11.16 52.088 0.032 6.65 4.99 10.7
5/10/2024 7:15:00 AM 11.14 52.052 0.032 6.66 5.63 10.71
5/10/2024 7:30:00 AM 11.11 51.998 0.032 6.66 6.01 10.73
5/10/2024 7:45:00 AM 11.1 51.98 0.031 6.67 6.18 10.75
5/10/2024 8:00:00 AM 11.08 51.944 0.031 6.66 6.26 10.77
5/10/2024 8:15:00 AM 11.07 51.926 0.031 6.66 6.09 10.78
5/10/2024 8:30:00 AM 11.06 51.908 0.031 6.68 6.71 10.8
5/10/2024 8:45:00 AM 11.06 51.908 0.031 6.69 7.1 10.83
5/10/2024 9:00:00 AM 11.06 51.908 0.031 6.71 7.25 10.86
5/10/2024 9:15:00 AM 11.06 51.908 0.031 6.71 6.78 10.87
5/10/2024 9:30:00 AM 11.05 51.89 0.031 6.71 6.28 10.88
5/10/2024 9:45:00 AM 11.05 51.89 0.031 6.72 5.87 10.91
5/10/2024 10:00:00 AM 11.05 51.89 0.031 6.72 6.16 10.91
5/10/2024 10:15:00 AM 11.04 51.872 0.031 6.71 6.19 10.92
5/10/2024 10:30:00 AM 11.04 51.872 0.031 6.72 6.7 10.93
5/10/2024 10:45:00 AM 11.04 51.872 0.03 6.73 6.42 10.93
5/10/2024 11:00:00 AM 11.04 51.872 0.03 6.73 6.38 10.93
5/10/2024 11:15:00 AM 11.04 51.872 0.03 6.72 6.45 10.93
5/10/2024 11:30:00 AM 11.05 51.89 0.03 6.73 6.13 10.95
5/10/2024 11:45:00 AM 11.05 51.89 0.03 6.73 6.21 10.95
5/10/2024 12:00:00 PM 11.05 51.89 0.03 6.73 6.22 10.95
5/10/2024 12:15:00 PM 11.06 51.908 0.03 6.73 6.41 10.96
5/10/2024 12:30:00 PM 11.07 51.926 0.03 6.74 6.99 10.95
5/10/2024 12:45:00 PM 11.07 51.926 0.03 6.73 6.92 10.94
5/10/2024 1:00:00 PM 11.07 51.926 0.03 6.73 7.56 10.93
5/10/2024 1:15:00 PM 11.07 51.926 0.029 6.72 6.9 10.91
5/10/2024 1:30:00 PM 11.11 51.998 0.029 6.72 6.84 10.95
5/10/2024 1:45:00 PM 11.13 52.034 0.029 6.72 7.24 10.97
5/10/2024 2:00:00 PM 11.15 52.07 0.029 6.74 7.32 10.96
5/10/2024 2:15:00 PM 11.16 52.088 0.029 6.73 7.23 10.95
5/10/2024 2:30:00 PM 11.19 52.142 0.029 6.73 7.49 10.95
5/10/2024 2:45:00 PM 11.19 52.142 0.029 6.74 7.75 10.93
5/10/2024 3:00:00 PM 11.19 52.142 0.029 6.72 7.24 10.93
5/10/2024 3:15:00 PM 11.19 52.142 0.029 6.73 7.88 10.91
5/10/2024 3:30:00 PM 11.19 52.142 0.029 6.7 7.39 10.91
5/10/2024 3:45:00 PM 11.2 52.16 0.029 6.72 7.82 10.92
5/10/2024 4:00:00 PM 11.2 52.16 0.029 6.7 7.75 10.91
5/10/2024 4:15:00 PM 11.2 52.16 0.029 6.71 10.03 10.9
5/10/2024 4:30:00 PM 11.21 52.178 0.029 6.71 10.95 10.9
5/10/2024 4:45:00 PM 11.22 52.196 0.029 6.72 11.17 10.92
5/10/2024 5:00:00 PM 11.25 52.25 0.029 6.72 10.48 10.94
5/10/2024 5:15:00 PM 11.24 52.232 0.029 6.71 10.72 10.92
5/10/2024 5:30:00 PM 11.23 52.214 0.029 6.72 11.28 10.91
5/10/2024 5:45:00 PM 11.23 52.214 0.029 6.71 10.52 10.9
5/10/2024 6:00:00 PM 11.22 52.196 0.029 6.7 9.67 10.9
5/10/2024 6:15:00 PM 11.21 52.178 0.029 6.7 9.52 10.88
5/10/2024 6:30:00 PM 11.19 52.142 0.029 6.7 10.05 10.87
5/10/2024 6:45:00 PM 11.17 52.106 0.029 6.69 8.78 10.86
5/10/2024 7:00:00 PM 11.15 52.07 0.029 6.68 9.21 10.86
5/10/2024 7:15:00 PM 11.13 52.034 0.029 6.68 9.5 10.86
5/10/2024 7:30:00 PM 11.11 51.998 0.029 6.68 8.8 10.86
5/10/2024 7:45:00 PM 11.09 51.962 0.029 6.68 8.55 10.86
5/10/2024 8:00:00 PM 11.07 51.926 0.029 6.67 8.29 10.86
5/10/2024 8:15:00 PM 11.05 51.89 0.029 6.66 8.84 10.86
5/10/2024 8:30:00 PM 11.02 51.836 0.029 6.66 8.17 10.86
5/10/2024 8:45:00 PM 11 51.8 0.029 6.66 8.13 10.86
5/10/2024 9:00:00 PM 10.98 51.764 0.029 6.65 8.07 10.86
5/10/2024 9:15:00 PM 10.96 51.728 0.029 6.64 7.83 10.87
5/10/2024 9:30:00 PM 10.94 51.692 0.029 6.64 8.81 10.88
5/10/2024 9:45:00 PM 10.92 51.656 0.029 6.64 7.94 10.88
5/10/2024 10:00:00 PM 10.9 51.62 0.029 6.64 8.18 10.89
5/10/2024 10:15:00 PM 10.88 51.584 0.028 6.63 8.29 10.9
5/10/2024 10:30:00 PM 10.86 51.548 0.029 6.63 8.34 10.9
5/10/2024 10:45:00 PM 10.84 51.512 0.028 6.62 8.41 10.91
5/10/2024 11:00:00 PM 10.82 51.476 0.029 6.61 19.85 10.91
5/10/2024 11:15:00 PM 10.8 51.44 0.028 6.62 8.03 10.92
5/10/2024 11:30:00 PM 10.78 51.404 0.028 6.63 7.83 10.93
5/10/2024 11:45:00 PM 10.76 51.368 0.028 6.62 7.78 10.93
5/11/2024 12:00:00 AM 10.74 51.332 0.028 6.62 7.28 10.94
5/11/2024 12:15:00 AM 10.72 51.296 0.028 6.62 7.46 10.95
5/11/2024 12:30:00 AM 10.69 51.242 0.029 6.63 7.43 10.96
5/11/2024 12:45:00 AM 10.66 51.188 0.029 6.63 6.92 10.96
5/11/2024 1:00:00 AM 10.64 51.152 0.029 6.61 7.08 10.97
5/11/2024 1:15:00 AM 10.61 51.098 0.029 6.62 6.78 10.98
5/11/2024 1:30:00 AM 10.59 51.062 0.029 6.63 7.1 10.98
5/11/2024 1:45:00 AM 10.55 50.99 0.029 6.63 6.88 10.99
5/11/2024 2:00:00 AM 10.53 50.954 0.029 6.62 5.89 11
5/11/2024 2:15:00 AM 10.5 50.9 0.029 6.62 6.1 11
5/11/2024 2:30:00 AM 10.47 50.846 0.029 6.62 5.98 11.01
5/11/2024 2:45:00 AM 10.44 50.792 0.029 6.63 6.15 11.02
5/11/2024 3:00:00 AM 10.42 50.756 0.029 6.62 5.91 11.02
5/11/2024 3:15:00 AM 10.39 50.702 0.029 6.63 5.96 11.03
5/11/2024 3:30:00 AM 10.36 50.648 0.029 6.63 5.91 11.04
5/11/2024 3:45:00 AM 10.33 50.594 0.029 6.62 5.54 11.05
5/11/2024 4:00:00 AM 10.31 50.558 0.029 6.62 5.7 11.05
5/11/2024 4:15:00 AM 10.28 50.504 0.029 6.63 5.61 11.06
5/11/2024 4:30:00 AM 10.25 50.45 0.029 6.63 5.85 11.07
5/11/2024 4:45:00 AM 10.22 50.396 0.029 6.61 12.02 11.07
5/11/2024 5:00:00 AM 10.19 50.342 0.029 6.62 7.15 11.08
5/11/2024 5:15:00 AM 10.17 50.306 0.029 6.63 5.77 11.09
5/11/2024 5:30:00 AM 10.14 50.252 0.029 6.63 5.83 11.1
5/11/2024 5:45:00 AM 10.11 50.198 0.029 6.61 6.2 11.1
5/11/2024 6:00:00 AM 10.08 50.144 0.029 6.62 12.31 11.11
5/11/2024 6:15:00 AM 10.05 50.09 0.029 6.63 5.27 11.12
5/11/2024 6:30:00 AM 10.03 50.054 0.029 6.62 5.21 11.14
5/11/2024 6:45:00 AM 10 50 0.029 6.62 5.17 11.16
5/11/2024 7:00:00 AM 9.98 49.964 0.029 6.63 4.83 11.17
5/11/2024 7:15:00 AM 9.96 49.928 0.029 6.64 5.37 11.19
5/11/2024 7:30:00 AM 9.95 49.91 0.029 6.64 5.25 11.21
5/11/2024 7:45:00 AM 9.94 49.892 0.029 6.65 5.18 11.22
5/11/2024 8:00:00 AM 9.94 49.892 0.029 6.65 4.72 11.24
5/11/2024 8:15:00 AM 9.94 49.892 0.029 6.67 4.69 11.25
5/11/2024 8:30:00 AM 9.95 49.91 0.029 6.68 5.04 11.28
5/11/2024 8:45:00 AM 9.96 49.928 0.029 6.69 4.79 11.3
5/11/2024 9:00:00 AM 9.98 49.964 0.029 6.7 4.73 11.31
5/11/2024 9:15:00 AM 9.99 49.982 0.029 6.71 4.64 11.3
5/11/2024 9:30:00 AM 10 50 0.029 6.72 4.86 11.3
5/11/2024 9:45:00 AM 10.01 50.018 0.03 6.72 4.63 11.31
5/11/2024 10:00:00 AM 10.04 50.072 0.029 6.73 4.57 11.32
5/11/2024 10:15:00 AM 10.07 50.126 0.029 6.74 4.52 11.33
5/11/2024 10:30:00 AM 10.09 50.162 0.03 6.75 4.52 11.33
5/11/2024 10:45:00 AM 10.12 50.216 0.03 6.76 4.64 11.31
5/11/2024 11:00:00 AM 10.16 50.288 0.03 6.77 4.42 11.31
5/11/2024 11:15:00 AM 10.21 50.378 0.03 6.78 4.66 11.29
5/11/2024 11:30:00 AM 10.28 50.504 0.03 6.78 4.5 11.29
5/11/2024 11:45:00 AM 10.35 50.63 0.03 6.79 4.56 11.28
5/11/2024 12:00:00 PM 10.46 50.828 0.03 6.8 4.9 11.26
5/11/2024 12:15:00 PM 10.56 51.008 0.03 6.81 4.69 11.24
5/11/2024 12:30:00 PM 10.72 51.296 0.03 6.82 4.43 11.21
5/11/2024 12:45:00 PM 10.83 51.494 0.03 6.84 4.61 11.18
5/11/2024 1:00:00 PM 10.87 51.566 0.03 6.84 4.91 11.15
5/11/2024 1:15:00 PM 10.92 51.656 0.03 6.84 4.88 11.13
5/11/2024 1:30:00 PM 10.95 51.71 0.03 6.84 4.7 11.12
5/11/2024 1:45:00 PM 10.94 51.692 0.03 6.84 5.26 11.1
5/11/2024 2:00:00 PM 10.92 51.656 0.03 6.83 4.81 11.07
5/11/2024 2:15:00 PM 10.92 51.656 0.03 6.83 4.84 11.04
5/11/2024 2:30:00 PM 10.94 51.692 0.03 6.82 4.55 11.06
5/11/2024 2:45:00 PM 10.92 51.656 0.03 6.81 5.8 11.05
5/11/2024 3:00:00 PM 10.92 51.656 0.03 6.81 4.82 11.04
5/11/2024 3:15:00 PM 10.88 51.584 0.03 6.8 5.24 10.98
5/11/2024 3:30:00 PM 10.84 51.512 0.03 6.78 4.66 10.98
5/11/2024 3:45:00 PM 10.82 51.476 0.03 6.77 4.78 10.99
5/11/2024 4:00:00 PM 10.78 51.404 0.03 6.77 4.97 10.98
5/11/2024 4:15:00 PM 10.76 51.368 0.03 6.76 4.54 11.01
5/11/2024 4:30:00 PM 10.74 51.332 0.03 6.75 5.11 11.02
5/11/2024 4:45:00 PM 10.72 51.296 0.03 6.75 5.79 11.03
5/11/2024 5:00:00 PM 10.7 51.26 0.03 6.75 7.16 11.03
5/11/2024 5:15:00 PM 10.69 51.242 0.03 6.75 7.65 11.04
5/11/2024 5:30:00 PM 10.67 51.206 0.03 6.75 7.63 11.02
5/11/2024 5:45:00 PM 10.64 51.152 0.03 6.73 7.93 10.99
5/11/2024 6:00:00 PM 10.62 51.116 0.03 6.73 6.87 11
5/11/2024 6:15:00 PM 10.6 51.08 0.03 6.71 7.12 11
5/11/2024 6:30:00 PM 10.59 51.062 0.03 6.72 6.62 11.01
5/11/2024 6:45:00 PM 10.58 51.044 0.03 6.72 6.39 11
5/11/2024 7:00:00 PM 10.56 51.008 0.03 6.71 6 11
5/11/2024 7:15:00 PM 10.57 51.026 0.03 6.71 6.38 11.03
5/11/2024 7:30:00 PM 10.55 50.99 0.03 6.69 5.96 11.02
5/11/2024 7:45:00 PM 10.53 50.954 0.03 6.68 6.67 11.01
5/11/2024 8:00:00 PM 10.51 50.918 0.03 6.68 6.48 11
5/11/2024 8:15:00 PM 10.49 50.882 0.03 6.68 6.14 10.99
5/11/2024 8:30:00 PM 10.47 50.846 0.03 6.68 8.45 10.99
5/11/2024 8:45:00 PM 10.45 50.81 0.03 6.68 7 10.99
5/11/2024 9:00:00 PM 10.43 50.774 0.03 6.67 6.34 11
5/11/2024 9:15:00 PM 10.41 50.738 0.03 6.68 5.9 11
5/11/2024 9:30:00 PM 10.39 50.702 0.03 6.67 5.88 11.01
5/11/2024 9:45:00 PM 10.37 50.666 0.03 6.66 6.19 11.02
5/11/2024 10:00:00 PM 10.34 50.612 0.03 6.66 6.49 11.02
5/11/2024 10:15:00 PM 10.32 50.576 0.03 6.64 6.47 11.03
5/11/2024 10:30:00 PM 10.3 50.54 0.03 6.64 7.1 11.03
5/11/2024 10:45:00 PM 10.28 50.504 0.03 6.65 11.4 11.04
5/11/2024 11:00:00 PM 10.26 50.468 0.03 6.64 11.04 11.05
5/11/2024 11:15:00 PM 10.23 50.414 0.03 6.63 11.65 11.05
5/11/2024 11:30:00 PM 10.2 50.36 0.03 6.63 10.05 11.06
5/11/2024 11:45:00 PM 10.18 50.324 0.03 6.65 9.05 11.07
5/12/2024 12:00:00 AM 10.17 50.306 0.03 6.65 8.76 11.07
5/12/2024 12:15:00 AM 10.15 50.27 0.03 6.64 8.56 11.08
5/12/2024 12:30:00 AM 10.14 50.252 0.03 6.64 8.89 11.09
5/12/2024 12:45:00 AM 10.12 50.216 0.03 6.64 9.1 11.09
5/12/2024 1:00:00 AM 10.11 50.198 0.03 6.63 8.54 11.1
5/12/2024 1:15:00 AM 10.09 50.162 0.03 6.62 8.56 11.1
5/12/2024 1:30:00 AM 10.08 50.144 0.03 6.62 9.03 11.11
5/12/2024 1:45:00 AM 10.06 50.108 0.03 6.61 9.08 11.11
5/12/2024 2:00:00 AM 10.04 50.072 0.029 6.62 8.46 11.12
5/12/2024 2:15:00 AM 10.03 50.054 0.029 6.63 20.14 11.12
5/12/2024 2:30:00 AM 10.02 50.036 0.029 6.62 8.17 11.12
5/12/2024 2:45:00 AM 10 50 0.029 6.62 7.81 11.13
5/12/2024 3:00:00 AM 9.99 49.982 0.029 6.62 8.34 11.13
5/12/2024 3:15:00 AM 9.97 49.946 0.029 6.61 7.51 11.14
5/12/2024 3:30:00 AM 9.96 49.928 0.029 6.62 7.44 11.14
5/12/2024 3:45:00 AM 9.95 49.91 0.029 6.61 7.32 11.15
5/12/2024 4:00:00 AM 9.93 49.874 0.029 6.62 7.41 11.15
5/12/2024 4:15:00 AM 9.92 49.856 0.029 6.61 8.02 11.15
5/12/2024 4:30:00 AM 9.91 49.838 0.029 6.6 7.57 11.16
5/12/2024 4:45:00 AM 9.9 49.82 0.029 6.61 9.83 11.16
5/12/2024 5:00:00 AM 9.89 49.802 0.029 6.61 6.83 11.17
5/12/2024 5:15:00 AM 9.87 49.766 0.029 6.6 7.22 11.14
5/12/2024 5:30:00 AM 9.86 49.748 0.029 6.61 6.66 11.17
5/12/2024 5:45:00 AM 9.85 49.73 0.029 6.61 7.15 11.17
5/12/2024 6:00:00 AM 9.84 49.712 0.029 6.6 6.98 11.17
5/12/2024 6:15:00 AM 9.83 49.694 0.029 6.6 6.76 11.18
5/12/2024 6:30:00 AM 9.83 49.694 0.029 6.61 6.53 11.19
5/12/2024 6:45:00 AM 9.81 49.658 0.029 6.62 6.93 11.19
5/12/2024 7:00:00 AM 9.8 49.64 0.029 6.62 6.72 11.2
5/12/2024 7:15:00 AM 9.8 49.64 0.029 6.61 6.77 11.22
5/12/2024 7:30:00 AM 9.79 49.622 0.029 6.62 6.37 11.24
5/12/2024 7:45:00 AM 9.79 49.622 0.029 6.64 5.99 11.24
5/12/2024 8:00:00 AM 9.79 49.622 0.029 6.62 5.8 11.27
5/12/2024 8:15:00 AM 9.79 49.622 0.029 6.64 6.36 11.26
5/12/2024 8:30:00 AM 9.79 49.622 0.029 6.65 5.96 11.26
5/12/2024 8:45:00 AM 9.79 49.622 0.029 6.63 5.81 11.28
5/12/2024 9:00:00 AM 9.8 49.64 0.028 6.65 5.69 11.3
5/12/2024 9:15:00 AM 9.82 49.676 0.028 6.65 6.14 11.31
5/12/2024 9:30:00 AM 9.84 49.712 0.028 6.65 6.17 11.33
5/12/2024 9:45:00 AM 9.87 49.766 0.028 6.66 6.29 11.33
5/12/2024 10:00:00 AM 9.94 49.892 0.028 6.68 5.8 11.35
5/12/2024 10:15:00 AM 9.99 49.982 0.028 6.7 6.14 11.35
5/12/2024 10:30:00 AM 10.01 50.018 0.028 6.68 5.98 11.32
5/12/2024 10:45:00 AM 10.05 50.09 0.028 6.7 6.03 11.32
5/12/2024 11:00:00 AM 10.14 50.252 0.028 6.7 5.99 11.33
5/12/2024 11:15:00 AM 10.17 50.306 0.028 6.71 5.69 11.29
5/12/2024 11:30:00 AM 10.31 50.558 0.028 6.73 5.67 11.29
5/12/2024 11:45:00 AM 10.4 50.72 0.028 6.74 5.7 11.26
5/12/2024 12:00:00 PM 10.42 50.756 0.028 6.74 5.74 11.24
5/12/2024 12:15:00 PM 10.39 50.702 0.028 6.71 5.61 11.21
5/12/2024 12:30:00 PM 10.38 50.684 0.028 6.72 5.91 11.18
5/12/2024 12:45:00 PM 10.46 50.828 0.028 6.7 5.53 11.23
5/12/2024 1:00:00 PM 10.58 51.044 0.028 6.72 5.46 11.23
5/12/2024 1:15:00 PM 10.63 51.134 0.028 6.73 5.65 11.22
5/12/2024 1:30:00 PM 10.64 51.152 0.028 6.74 5.58 11.21
5/12/2024 1:45:00 PM 10.76 51.368 0.028 6.73 5.69 11.2
5/12/2024 2:00:00 PM 10.83 51.494 0.028 6.73 5.79 11.18
5/12/2024 2:15:00 PM 10.83 51.494 0.028 6.72 5.66 11.16
5/12/2024 2:30:00 PM 10.96 51.728 0.028 6.75 5.54 11.17
5/12/2024 2:45:00 PM 11.06 51.908 0.028 6.75 5.53 11.14
5/12/2024 3:00:00 PM 11.15 52.07 0.028 6.74 5.48 11.12
5/12/2024 3:15:00 PM 11.29 52.322 0.028 6.76 5.39 11.09
5/12/2024 3:30:00 PM 11.23 52.214 0.028 6.75 5.22 11.05
5/12/2024 3:45:00 PM 11.28 52.304 0.028 6.76 5.19 11.03
5/12/2024 4:00:00 PM 11.2 52.16 0.028 6.73 5.28 10.99
5/12/2024 4:15:00 PM 11.19 52.142 0.028 6.73 5.26 11.01
5/12/2024 4:30:00 PM 11.19 52.142 0.028 6.72 5.81 11.05
5/12/2024 4:45:00 PM 11.18 52.124 0.028 6.72 5.16 11.04
5/12/2024 5:00:00 PM 11.19 52.142 0.028 6.73 5.02 11.04
5/12/2024 5:15:00 PM 11.19 52.142 0.028 6.71 5.49 11.03
5/12/2024 5:30:00 PM 11.22 52.196 0.028 6.72 5.1 11.03
5/12/2024 5:45:00 PM 11.24 52.232 0.028 6.72 5.13 11.01
5/12/2024 6:00:00 PM 11.24 52.232 0.028 6.69 5.38 10.99
5/12/2024 6:15:00 PM 11.21 52.178 0.028 6.69 5.22 10.99
5/12/2024 6:30:00 PM 11.19 52.142 0.028 6.69 4.84 10.97
5/12/2024 6:45:00 PM 11.18 52.124 0.028 6.68 5.11 10.96
5/12/2024 7:00:00 PM 11.17 52.106 0.028 6.67 5.14 10.95
5/12/2024 7:15:00 PM 11.15 52.07 0.028 6.66 5.04 10.95
5/12/2024 7:30:00 PM 11.13 52.034 0.028 6.66 5.18 10.95
5/12/2024 7:45:00 PM 11.1 51.98 0.028 6.65 4.89 10.94
5/12/2024 8:00:00 PM 11.07 51.926 0.028 6.62 5.38 10.93
5/12/2024 8:15:00 PM 11.04 51.872 0.028 6.63 5.14 10.93
5/12/2024 8:30:00 PM 10.99 51.782 0.028 6.61 5.18 10.94
5/12/2024 8:45:00 PM 10.95 51.71 0.028 6.61 5.69 10.94
5/12/2024 9:00:00 PM 10.9 51.62 0.029 6.59 5.8 10.95
5/12/2024 9:15:00 PM 10.85 51.53 0.028 6.58 5.11 10.97
5/12/2024 9:30:00 PM 10.81 51.458 0.029 6.59 5.8 10.98
5/12/2024 9:45:00 PM 10.76 51.368 0.029 6.61 5.4 11
5/12/2024 10:00:00 PM 10.71 51.278 0.029 6.6 5.17 11.01
5/12/2024 10:15:00 PM 10.65 51.17 0.029 6.6 5.18 11.03
5/12/2024 10:30:00 PM 10.61 51.098 0.029 6.58 5.19 11.04
5/12/2024 10:45:00 PM 10.56 51.008 0.029 6.59 5.31 11.06
5/12/2024 11:00:00 PM 10.51 50.918 0.029 6.56 5.36 11.08
5/12/2024 11:15:00 PM 10.46 50.828 0.029 6.58 5.09 11.09
5/12/2024 11:30:00 PM 10.41 50.738 0.029 6.57 5.33 11.1
5/12/2024 11:45:00 PM 10.36 50.648 0.029 6.58 5.1 11.12
5/13/2024 12:00:00 AM 10.32 50.576 0.029 6.57 5.6 11.13
5/13/2024 12:15:00 AM 10.28 50.504 0.029 6.55 4.92 11.15
5/13/2024 12:30:00 AM 10.24 50.432 0.029 6.57 4.96 11.16
5/13/2024 12:45:00 AM 10.21 50.378 0.029 6.56 5.4 11.17
5/13/2024 1:00:00 AM 10.17 50.306 0.029 6.55 5.37 11.18
5/13/2024 1:15:00 AM 10.13 50.234 0.029 6.55 5 11.19
5/13/2024 1:30:00 AM 10.1 50.18 0.029 6.53 5.52 11.2
5/13/2024 1:45:00 AM 10.07 50.126 0.029 6.55 5.37 11.21
5/13/2024 2:00:00 AM 10.03 50.054 0.029 6.53 5.67 11.22
5/13/2024 2:15:00 AM 10 50 0.029 6.54 5.41 11.23
5/13/2024 2:30:00 AM 9.96 49.928 0.029 6.52 5.41 11.24
5/13/2024 2:45:00 AM 9.92 49.856 0.029 6.53 5.92 11.25
5/13/2024 3:00:00 AM 9.88 49.784 0.029 6.52 4.99 11.26
5/13/2024 3:15:00 AM 9.83 49.694 0.029 6.51 5.09 11.27
5/13/2024 3:30:00 AM 9.79 49.622 0.029 6.52 5.1 11.28
5/13/2024 3:45:00 AM 9.74 49.532 0.029 6.51 5.23 11.3
5/13/2024 4:00:00 AM 9.7 49.46 0.029 6.53 4.91 11.31
5/13/2024 4:15:00 AM 9.67 49.406 0.029 6.51 4.9 11.32
5/13/2024 4:30:00 AM 9.63 49.334 0.029 6.51 5.2 11.33
5/13/2024 4:45:00 AM 9.6 49.28 0.029 6.53 4.97 11.34
5/13/2024 5:00:00 AM 9.56 49.208 0.029 6.51 9.72 11.35
5/13/2024 5:15:00 AM 9.53 49.154 0.029 6.52 5.4 11.36
5/13/2024 5:30:00 AM 9.5 49.1 0.029 6.52 4.86 11.37
5/13/2024 5:45:00 AM 9.47 49.046 0.029 6.53 5.06 11.38
5/13/2024 6:00:00 AM 9.45 49.01 0.029 6.53 4.79 11.39
5/13/2024 6:15:00 AM 9.42 48.956 0.029 6.51 4.6 11.4
5/13/2024 6:30:00 AM 9.39 48.902 0.029 6.53 4.87 11.42
5/13/2024 6:45:00 AM 9.36 48.848 0.029 6.51 5.4 11.43
5/13/2024 7:00:00 AM 9.33 48.794 0.029 6.55 5.24 11.45
5/13/2024 7:15:00 AM 9.3 48.74 0.029 6.55 4.85 11.48
5/13/2024 7:30:00 AM 9.28 48.704 0.029 6.56 5.15 11.5
5/13/2024 7:45:00 AM 9.26 48.668 0.029 6.55 5.23 11.51
5/13/2024 8:00:00 AM 9.26 48.668 0.029 6.57 4.89 11.53
5/13/2024 8:15:00 AM 9.26 48.668 0.029 6.57 4.31 11.54
5/13/2024 8:30:00 AM 9.26 48.668 0.029 6.56 4.9 11.56
5/13/2024 8:45:00 AM 9.28 48.704 0.029 6.6 4.36 11.58
5/13/2024 9:00:00 AM 9.29 48.722 0.029 6.59 4.51 11.57
5/13/2024 9:15:00 AM 9.31 48.758 0.029 6.61 4.64 11.58
5/13/2024 9:30:00 AM 9.32 48.776 0.029 6.6 4.31 11.55
5/13/2024 9:45:00 AM 9.32 48.776 0.029 6.62 4.43 11.56
5/13/2024 10:00:00 AM 9.34 48.812 0.029 6.62 4.35 11.55
5/13/2024 10:15:00 AM 9.36 48.848 0.029 6.62 4.21 11.53
5/13/2024 10:30:00 AM 9.37 48.866 0.029 6.62 4.59 11.51
5/13/2024 10:45:00 AM 9.4 48.92 0.029 6.61 4.3 11.51
5/13/2024 11:00:00 AM 9.45 49.01 0.029 6.63 4.24 11.52
5/13/2024 11:15:00 AM 9.54 49.172 0.029 6.66 4.75 11.54
5/13/2024 11:30:00 AM 9.65 49.37 0.029 6.66 4.36 11.54
5/13/2024 11:45:00 AM 9.71 49.478 0.028 6.67 4.33 11.52
5/13/2024 12:00:00 PM 9.87 49.766 0.028 6.69 4.3 11.49
5/13/2024 12:15:00 PM 10.04 50.072 0.028 6.69 4.44 11.46
5/13/2024 12:30:00 PM 10.24 50.432 0.028 6.72 4.29 11.42
5/13/2024 12:45:00 PM 10.43 50.774 0.028 6.72 5.01 11.36
5/13/2024 1:00:00 PM 10.64 51.152 0.028 6.73 4.99 11.3
5/13/2024 1:15:00 PM 10.87 51.566 0.028 6.75 5.16 11.25
5/13/2024 1:30:00 PM 11 51.8 0.028 6.76 6.03 11.2
5/13/2024 1:45:00 PM 11.1 51.98 0.028 6.75 4.48 11.16
5/13/2024 2:00:00 PM 11.16 52.088 0.028 6.77 4.51 11.12
5/13/2024 2:15:00 PM 11.19 52.142 0.028 6.76 4.43 11.11
5/13/2024 2:30:00 PM 11.29 52.322 0.028 6.76 4.57 11.09
5/13/2024 2:45:00 PM 11.31 52.358 0.028 6.75 4.44 11.07
5/13/2024 3:00:00 PM 11.32 52.376 0.028 6.73 3.91 11.04
5/13/2024 3:15:00 PM 11.39 52.502 0.028 6.72 3.78 11.03
5/13/2024 3:30:00 PM 11.42 52.556 0.028 6.72 3.92 11.03
5/13/2024 3:45:00 PM 11.48 52.664 0.028 6.74 3.77 11.02
5/13/2024 4:00:00 PM 11.5 52.7 0.028 6.72 3.97 10.99
5/13/2024 4:15:00 PM 11.54 52.772 0.028 6.71 3.96 10.96
5/13/2024 4:30:00 PM 11.6 52.88 0.028 6.7 4.05 10.94
5/13/2024 4:45:00 PM 11.69 53.042 0.028 6.71 4.16 10.95
5/13/2024 5:00:00 PM 11.73 53.114 0.028 6.72 4.17 10.92
5/13/2024 5:15:00 PM 11.78 53.204 0.028 6.71 3.91 10.91
5/13/2024 5:30:00 PM 11.85 53.33 0.028 6.7 3.97 10.88
5/13/2024 5:45:00 PM 11.88 53.384 0.028 6.7 4 10.87
5/13/2024 6:00:00 PM 11.91 53.438 0.028 6.7 3.73 10.84
5/13/2024 6:15:00 PM 11.92 53.456 0.029 6.69 4.16 10.83
5/13/2024 6:30:00 PM 11.9 53.42 0.029 6.7 3.84 10.8
5/13/2024 6:45:00 PM 11.89 53.402 0.029 6.68 4.07 10.78
5/13/2024 7:00:00 PM 11.87 53.366 0.029 6.67 3.84 10.77
5/13/2024 7:15:00 PM 11.83 53.294 0.029 6.66 4.09 10.76
5/13/2024 7:30:00 PM 11.8 53.24 0.029 6.64 4.03 10.75
5/13/2024 7:45:00 PM 11.76 53.168 0.029 6.62 3.68 10.74
5/13/2024 8:00:00 PM 11.71 53.078 0.029 6.62 4 10.74
5/13/2024 8:15:00 PM 11.67 53.006 0.029 6.6 3.99 10.75
5/13/2024 8:30:00 PM 11.63 52.934 0.029 6.59 4.02 10.75
5/13/2024 8:45:00 PM 11.59 52.862 0.029 6.59 4.15 10.76
5/13/2024 9:00:00 PM 11.55 52.79 0.029 6.56 4.27 10.77
5/13/2024 9:15:00 PM 11.51 52.718 0.029 6.56 4.25 10.78
5/13/2024 9:30:00 PM 11.47 52.646 0.029 6.57 4.04 10.79
5/13/2024 9:45:00 PM 11.44 52.592 0.029 6.56 4.42 10.8
5/13/2024 10:00:00 PM 11.4 52.52 0.029 6.56 4.18 10.81
5/13/2024 10:15:00 PM 11.36 52.448 0.029 6.57 4.43 10.82
5/13/2024 10:30:00 PM 11.33 52.394 0.029 6.57 3.99 10.83
5/13/2024 10:45:00 PM 11.29 52.322 0.029 6.54 4.12 10.85
5/13/2024 11:00:00 PM 11.25 52.25 0.029 6.57 4.38 10.85
5/13/2024 11:15:00 PM 11.22 52.196 0.029 6.55 4.23 10.87
5/13/2024 11:30:00 PM 11.18 52.124 0.029 6.55 4.12 10.87
5/13/2024 11:45:00 PM 11.14 52.052 0.029 6.56 3.97 10.88
5/14/2024 12:00:00 AM 11.1 51.98 0.029 6.56 4.24 10.9
5/14/2024 12:15:00 AM 11.06 51.908 0.029 6.56 4.03 10.91
5/14/2024 12:30:00 AM 11.02 51.836 0.029 6.55 4.09 10.92
5/14/2024 12:45:00 AM 10.98 51.764 0.029 6.55 4 10.93
5/14/2024 1:00:00 AM 10.94 51.692 0.029 6.53 4.13 10.94
5/14/2024 1:15:00 AM 10.9 51.62 0.029 6.53 4.14 10.95
5/14/2024 1:30:00 AM 10.86 51.548 0.029 6.52 3.99 10.96
5/14/2024 1:45:00 AM 10.82 51.476 0.029 6.54 4.22 10.97
5/14/2024 2:00:00 AM 10.77 51.386 0.029 6.53 4.12 10.98
5/14/2024 2:15:00 AM 10.73 51.314 0.029 6.53 3.98 11
5/14/2024 2:30:00 AM 10.68 51.224 0.029 6.53 4.18 11
5/14/2024 2:45:00 AM 10.64 51.152 0.029 6.52 4.07 11.02
5/14/2024 3:00:00 AM 10.6 51.08 0.029 6.52 4.28 11.03
5/14/2024 3:15:00 AM 10.55 50.99 0.029 6.51 4.08 11.04
5/14/2024 3:30:00 AM 10.51 50.918 0.029 6.52 4.12 11.05
5/14/2024 3:45:00 AM 10.46 50.828 0.029 6.51 4.24 11.06
5/14/2024 4:00:00 AM 10.42 50.756 0.029 6.51 4.41 11.07
5/14/2024 4:15:00 AM 10.38 50.684 0.029 6.51 4.09 11.09
5/14/2024 4:30:00 AM 10.33 50.594 0.029 6.5 4.2 11.09
5/14/2024 4:45:00 AM 10.29 50.522 0.029 6.51 3.87 11.07
5/14/2024 5:00:00 AM 10.25 50.45 0.029 6.5 4.14 11.11
5/14/2024 5:15:00 AM 10.21 50.378 0.029 6.49 4.3 11.13
5/14/2024 5:30:00 AM 10.17 50.306 0.029 6.49 5.38 11.13
5/14/2024 5:45:00 AM 10.14 50.252 0.029 6.48 7.36 11.15
5/14/2024 6:00:00 AM 10.1 50.18 0.029 6.5 3.88 11.16
5/14/2024 6:15:00 AM 10.07 50.126 0.029 6.49 4.06 11.18
5/14/2024 6:30:00 AM 10.03 50.054 0.029 6.49 4.42 11.2
5/14/2024 6:45:00 AM 10 50 0.029 6.5 4.03 11.23
5/14/2024 7:00:00 AM 9.97 49.946 0.029 6.51 3.93 11.25
5/14/2024 7:15:00 AM 9.96 49.928 0.029 6.51 3.72 11.28
5/14/2024 7:30:00 AM 9.95 49.91 0.029 6.53 3.96 11.29
5/14/2024 7:45:00 AM 9.94 49.892 0.029 6.54 3.67 11.31
5/14/2024 8:00:00 AM 9.94 49.892 0.029 6.54 3.69 11.33
5/14/2024 8:15:00 AM 9.96 49.928 0.029 6.55 3.71 11.35
5/14/2024 8:30:00 AM 9.98 49.964 0.029 6.57 3.7 11.35
5/14/2024 8:45:00 AM 10 50 0.029 6.57 3.7 11.35
5/14/2024 9:00:00 AM 10.05 50.09 0.029 6.58 3.74 11.35
5/14/2024 9:15:00 AM 10.09 50.162 0.029 6.59 3.73 11.35
5/14/2024 9:30:00 AM 10.14 50.252 0.029 6.61 3.62 11.34
5/14/2024 9:45:00 AM 10.21 50.378 0.029 6.62 3.73 11.32
5/14/2024 10:00:00 AM 10.28 50.504 0.029 6.63 3.51 11.31
5/14/2024 10:15:00 AM 10.37 50.666 0.029 6.65 3.58 11.3
5/14/2024 10:30:00 AM 10.47 50.846 0.029 6.66 3.42 11.29
5/14/2024 10:45:00 AM 10.59 51.062 0.029 6.67 3.54 11.29
5/14/2024 11:00:00 AM 10.73 51.314 0.029 6.69 3.65 11.26
5/14/2024 11:15:00 AM 10.8 51.44 0.028 6.7 3.94 11.24
5/14/2024 11:30:00 AM 10.87 51.566 0.028 6.71 3.51 11.21
5/14/2024 11:45:00 AM 10.92 51.656 0.028 6.72 3.67 11.17
5/14/2024 12:00:00 PM 10.93 51.674 0.028 6.71 3.83 11.14
5/14/2024 12:15:00 PM 10.96 51.728 0.028 6.69 3.62 11.12
5/14/2024 12:30:00 PM 10.98 51.764 0.028 6.7 3.72 11.09
5/14/2024 12:45:00 PM 10.97 51.746 0.028 6.68 3.74 11.06
5/14/2024 1:00:00 PM 11 51.8 0.028 6.68 3.87 11.07
5/14/2024 1:15:00 PM 11.04 51.872 0.028 6.68 3.71 11.09
5/14/2024 1:30:00 PM 11.07 51.926 0.028 6.69 3.91 11.1
5/14/2024 1:45:00 PM 11.09 51.962 0.028 6.68 3.8 11.07
5/14/2024 2:00:00 PM 11.16 52.088 0.028 6.68 3.9 11.08
5/14/2024 2:15:00 PM 11.22 52.196 0.028 6.69 3.62 11.07
5/14/2024 2:30:00 PM 11.27 52.286 0.028 6.7 3.75 11.07
5/14/2024 2:45:00 PM 11.34 52.412 0.028 6.7 3.86 11.05
5/14/2024 3:00:00 PM 11.4 52.52 0.028 6.71 3.61 11.02
5/14/2024 3:15:00 PM 11.44 52.592 0.028 6.7 3.75 11
5/14/2024 3:30:00 PM 11.47 52.646 0.028 6.69 3.85 10.97
5/14/2024 3:45:00 PM 11.49 52.682 0.028 6.69 3.6 10.91
5/14/2024 4:00:00 PM 11.5 52.7 0.028 6.68 3.65 10.87
5/14/2024 4:15:00 PM 11.5 52.7 0.028 6.66 3.94 10.87
5/14/2024 4:30:00 PM 11.5 52.7 0.028 6.66 3.97 10.85
5/14/2024 4:45:00 PM 11.5 52.7 0.029 6.65 3.74 10.86
5/14/2024 5:00:00 PM 11.5 52.7 0.029 6.65 3.77 10.85
5/14/2024 5:15:00 PM 11.48 52.664 0.029 6.65 3.84 10.83
5/14/2024 5:30:00 PM 11.48 52.664 0.029 6.63 3.82 10.84
5/14/2024 5:45:00 PM 11.48 52.664 0.029 6.62 3.76 10.83
5/14/2024 6:00:00 PM 11.47 52.646 0.029 6.62 3.76 10.84
5/14/2024 6:15:00 PM 11.47 52.646 0.029 6.63 3.78 10.83
5/14/2024 6:30:00 PM 11.47 52.646 0.029 6.61 3.9 10.82
5/14/2024 6:45:00 PM 11.48 52.664 0.029 6.63 4.02 10.81
5/14/2024 7:00:00 PM 11.47 52.646 0.029 6.62 3.68 10.81
5/14/2024 7:15:00 PM 11.45 52.61 0.029 6.62 3.69 10.8
5/14/2024 7:30:00 PM 11.43 52.574 0.029 6.6 3.72 10.8
5/14/2024 7:45:00 PM 11.42 52.556 0.029 6.58 3.71 10.8
5/14/2024 8:00:00 PM 11.41 52.538 0.029 6.59 3.76 10.79
5/14/2024 8:15:00 PM 11.4 52.52 0.029 6.57 4.15 10.77
5/14/2024 8:30:00 PM 11.39 52.502 0.029 6.56 3.82 10.78
5/14/2024 8:45:00 PM 11.38 52.484 0.029 6.54 3.97 10.79
5/14/2024 9:00:00 PM 11.36 52.448 0.029 6.54 3.6 10.79
5/14/2024 9:15:00 PM 11.36 52.448 0.029 6.53 3.85 10.79
5/14/2024 9:30:00 PM 11.34 52.412 0.029 6.52 4.12 10.79
5/14/2024 9:45:00 PM 11.33 52.394 0.029 6.53 3.99 10.79
5/14/2024 10:00:00 PM 11.32 52.376 0.029 6.51 3.77 10.79
5/14/2024 10:15:00 PM 11.3 52.34 0.029 6.5 4.04 10.79
5/14/2024 10:30:00 PM 11.28 52.304 0.029 6.51 3.79 10.8
5/14/2024 10:45:00 PM 11.27 52.286 0.029 6.49 4.07 10.8
5/14/2024 11:00:00 PM 11.25 52.25 0.029 6.5 4.2 10.8
5/14/2024 11:15:00 PM 11.24 52.232 0.029 6.49 4.16 10.8
5/14/2024 11:30:00 PM 11.22 52.196 0.029 6.49 4.11 10.81
5/14/2024 11:45:00 PM 11.21 52.178 0.029 6.49 4.01 10.81
5/15/2024 12:00:00 AM 11.19 52.142 0.029 6.49 4.21 10.81
5/15/2024 12:15:00 AM 11.18 52.124 0.029 6.47 4.17 10.82
5/15/2024 12:30:00 AM 11.16 52.088 0.029 6.47 3.91 10.82
5/15/2024 12:45:00 AM 11.15 52.07 0.029 6.47 3.92 10.82
5/15/2024 1:00:00 AM 11.14 52.052 0.029 6.47 4.08 10.83
5/15/2024 1:15:00 AM 11.12 52.016 0.029 6.47 4.02 10.83
5/15/2024 1:30:00 AM 11.11 51.998 0.029 6.47 4.15 10.83
5/15/2024 1:45:00 AM 11.1 51.98 0.029 6.45 4.31 10.83
5/15/2024 2:00:00 AM 11.08 51.944 0.029 6.45 4.07 10.83
5/15/2024 2:15:00 AM 11.07 51.926 0.029 6.45 4.12 10.84
5/15/2024 2:30:00 AM 11.06 51.908 0.029 6.45 4.12 10.84
5/15/2024 2:45:00 AM 11.05 51.89 0.029 6.44 4.24 10.84
5/15/2024 3:00:00 AM 11.04 51.872 0.029 6.44 4.32 10.84
5/15/2024 3:15:00 AM 11.03 51.854 0.029 6.43 4.4 10.84
5/15/2024 3:30:00 AM 11.02 51.836 0.029 6.44 4.35 10.84
5/15/2024 3:45:00 AM 11.01 51.818 0.029 6.43 4.2 10.84
5/15/2024 4:00:00 AM 10.99 51.782 0.029 6.42 4.51 10.85
5/15/2024 4:15:00 AM 10.98 51.764 0.029 6.42 4.32 10.85
5/15/2024 4:30:00 AM 10.97 51.746 0.029 6.42 4.18 10.85
5/15/2024 4:45:00 AM 10.96 51.728 0.029 6.42 4.56 10.85
5/15/2024 5:00:00 AM 10.95 51.71 0.029 6.4 4.45 10.85
5/15/2024 5:15:00 AM 10.95 51.71 0.029 6.41 4.47 10.85
5/15/2024 5:30:00 AM 10.94 51.692 0.029 6.4 4.18 10.85
5/15/2024 5:45:00 AM 10.93 51.674 0.029 6.4 4.59 10.85
5/15/2024 6:00:00 AM 10.92 51.656 0.029 6.38 4.74 10.86
5/15/2024 6:15:00 AM 10.91 51.638 0.029 6.36 4.58 10.84
5/15/2024 6:30:00 AM 10.91 51.638 0.029 6.36 4.53 10.83
5/15/2024 6:45:00 AM 10.9 51.62 0.029 6.37 4.7 10.86
5/15/2024 7:00:00 AM 10.9 51.62 0.029 6.38 4.43 10.88
5/15/2024 7:15:00 AM 10.89 51.602 0.029 6.39 4.35 10.89
5/15/2024 7:30:00 AM 10.89 51.602 0.029 6.39 4.43 10.89
5/15/2024 7:45:00 AM 10.89 51.602 0.029 6.38 4.56 10.9
5/15/2024 8:00:00 AM 10.89 51.602 0.029 6.38 4.59 10.91
5/15/2024 8:15:00 AM 10.89 51.602 0.028 6.38 4.71 10.92
5/15/2024 8:30:00 AM 10.89 51.602 0.028 6.38 4.66 10.93
5/15/2024 8:45:00 AM 10.89 51.602 0.028 6.39 4.73 10.94
5/15/2024 9:00:00 AM 10.9 51.62 0.028 6.39 5.05 10.95
5/15/2024 9:15:00 AM 10.9 51.62 0.028 6.4 5 10.95
5/15/2024 9:30:00 AM 10.91 51.638 0.028 6.41 4.66 10.96
5/15/2024 9:45:00 AM 10.92 51.656 0.028 6.41 5.08 10.96
5/15/2024 10:00:00 AM 10.92 51.656 0.028 6.42 5.31 10.97
5/15/2024 10:15:00 AM 10.92 51.656 0.028 6.42 5.37 10.95
5/15/2024 10:30:00 AM 10.93 51.674 0.028 6.42 5.49 10.96
5/15/2024 10:45:00 AM 10.95 51.71 0.028 6.44 5.12 10.97
5/15/2024 11:00:00 AM 10.96 51.728 0.027 6.45 4.93 10.99
5/15/2024 11:15:00 AM 10.98 51.764 0.027 6.45 6.36 10.99
5/15/2024 11:30:00 AM 11.01 51.818 0.027 6.45 5.46 11.01
5/15/2024 11:45:00 AM 11.04 51.872 0.027 6.48 5.34 11.02
5/15/2024 12:00:00 PM 11.06 51.908 0.027 6.48 5.25 11
5/15/2024 12:15:00 PM 11.09 51.962 0.027 6.52 5.29 10.99
5/15/2024 12:30:00 PM 11.12 52.016 0.027 6.54 5.32 10.98
5/15/2024 12:45:00 PM 11.15 52.07 0.027 6.54 5.26 10.98
5/15/2024 1:00:00 PM 11.16 52.088 0.027 6.56 6.1 10.95
5/15/2024 1:15:00 PM 11.17 52.106 0.026 6.54 5.32 10.95
5/15/2024 1:30:00 PM 11.19 52.142 0.026 6.56 4.95 10.94
5/15/2024 1:45:00 PM 11.19 52.142 0.026 6.55 4.89 10.93
5/15/2024 2:00:00 PM 11.2 52.16 0.026 6.55 5.04 10.93
5/15/2024 2:15:00 PM 11.22 52.196 0.026 6.55 4.71 10.94
5/15/2024 2:30:00 PM 11.23 52.214 0.026 6.55 4.92 10.94
5/15/2024 2:45:00 PM 11.26 52.268 0.026 6.56 4.76 10.96
5/15/2024 3:00:00 PM 11.27 52.286 0.026 6.56 4.89 10.94
5/15/2024 3:15:00 PM 11.28 52.304 0.026 6.57 5.9 10.94
5/15/2024 3:30:00 PM 11.33 52.394 0.026 6.56 4.85 10.97
5/15/2024 3:45:00 PM 11.41 52.538 0.026 6.6 4.96 10.99
5/15/2024 4:00:00 PM 11.46 52.628 0.026 6.61 4.82 10.98
5/15/2024 4:15:00 PM 11.53 52.754 0.026 6.61 4.72 10.96
5/15/2024 4:30:00 PM 11.49 52.682 0.026 6.6 4.66 10.9
5/15/2024 4:45:00 PM 11.48 52.664 0.026 6.6 4.48 10.87
5/15/2024 5:00:00 PM 11.48 52.664 0.026 6.58 4.69 10.87
5/15/2024 5:15:00 PM 11.48 52.664 0.026 6.58 4.59 10.87
5/15/2024 5:30:00 PM 11.48 52.664 0.026 6.58 4.52 10.87
5/15/2024 5:45:00 PM 11.47 52.646 0.026 6.56 5.02 10.85
5/15/2024 6:00:00 PM 11.47 52.646 0.026 6.57 4.32 10.85
5/15/2024 6:15:00 PM 11.49 52.682 0.026 6.57 4.5 10.86
5/15/2024 6:30:00 PM 11.5 52.7 0.026 6.57 4.52 10.88
5/15/2024 6:45:00 PM 11.51 52.718 0.026 6.57 4.25 10.86
5/15/2024 7:00:00 PM 11.51 52.718 0.026 6.56 4.38 10.82
5/15/2024 7:15:00 PM 11.52 52.736 0.026 6.56 4.29 10.8
5/15/2024 7:30:00 PM 11.51 52.718 0.026 6.55 4.19 10.79
5/15/2024 7:45:00 PM 11.5 52.7 0.026 6.53 4.18 10.77
5/15/2024 8:00:00 PM 11.49 52.682 0.026 6.54 4.45 10.76
5/15/2024 8:15:00 PM 11.48 52.664 0.027 6.51 4.81 10.76
5/15/2024 8:30:00 PM 11.47 52.646 0.027 6.52 4.48 10.75
5/15/2024 8:45:00 PM 11.46 52.628 0.027 6.51 4.48 10.75
5/15/2024 9:00:00 PM 11.44 52.592 0.027 6.49 4.55 10.75
5/15/2024 9:15:00 PM 11.43 52.574 0.027 6.48 4.25 10.75
5/15/2024 9:30:00 PM 11.42 52.556 0.027 6.48 4.58 10.76
5/15/2024 9:45:00 PM 11.41 52.538 0.027 6.47 4.58 10.76
5/15/2024 10:00:00 PM 11.39 52.502 0.027 6.46 4.58 10.76
5/15/2024 10:15:00 PM 11.38 52.484 0.027 6.45 4.44 10.76
5/15/2024 10:30:00 PM 11.37 52.466 0.027 6.45 4.45 10.77
5/15/2024 10:45:00 PM 11.36 52.448 0.027 6.44 4.46 10.77
5/15/2024 11:00:00 PM 11.35 52.43 0.027 6.45 4.49 10.78
5/15/2024 11:15:00 PM 11.34 52.412 0.027 6.45 4.56 10.78
5/15/2024 11:30:00 PM 11.32 52.376 0.027 6.45 4.66 10.78
5/15/2024 11:45:00 PM 11.31 52.358 0.027 6.45 4.48 10.78
5/16/2024 12:00:00 AM 11.3 52.34 0.027 6.44 4.45 10.79
5/16/2024 12:15:00 AM 11.29 52.322 0.027 6.44 4.69 10.78
5/16/2024 12:30:00 AM 11.27 52.286 0.027 6.43 4.35 10.79
5/16/2024 12:45:00 AM 11.25 52.25 0.027 6.44 4.31 10.79
5/16/2024 1:00:00 AM 11.24 52.232 0.027 6.44 4.51 10.8
5/16/2024 1:15:00 AM 11.22 52.196 0.027 6.44 4.66 10.8
5/16/2024 1:30:00 AM 11.21 52.178 0.027 6.45 4.56 10.81
5/16/2024 1:45:00 AM 11.19 52.142 0.027 6.46 4.4 10.81
5/16/2024 2:00:00 AM 11.18 52.124 0.027 6.46 4.55 10.82
5/16/2024 2:15:00 AM 11.17 52.106 0.027 6.46 4.44 10.82
5/16/2024 2:30:00 AM 11.15 52.07 0.027 6.46 4.64 10.82
5/16/2024 2:45:00 AM 11.14 52.052 0.027 6.45 4.61 10.82
5/16/2024 3:00:00 AM 11.13 52.034 0.027 6.46 4.41 10.83
5/16/2024 3:15:00 AM 11.11 51.998 0.027 6.46 4.37 10.83
5/16/2024 3:30:00 AM 11.1 51.98 0.027 6.45 4.34 10.84
5/16/2024 3:45:00 AM 11.09 51.962 0.027 6.45 4.59 10.84
5/16/2024 4:00:00 AM 11.08 51.944 0.027 6.45 4.51 10.84
5/16/2024 4:15:00 AM 11.06 51.908 0.027 6.45 4.42 10.84
5/16/2024 4:30:00 AM 11.05 51.89 0.027 6.44 4.3 10.85
5/16/2024 4:45:00 AM 11.04 51.872 0.027 6.44 4.69 10.85
5/16/2024 5:00:00 AM 11.03 51.854 0.027 6.44 5.35 10.86
5/16/2024 5:15:00 AM 11.01 51.818 0.027 6.44 4.68 10.86
5/16/2024 5:30:00 AM 11 51.8 0.027 6.44 4.54 10.86
5/16/2024 5:45:00 AM 10.99 51.782 0.027 6.42 6.36 10.78
5/16/2024 6:00:00 AM 10.98 51.764 0.027 6.44 4.22 10.87
5/16/2024 6:15:00 AM 10.96 51.728 0.028 6.43 4.26 10.88
5/16/2024 6:30:00 AM 10.96 51.728 0.028 6.44 3.93 10.89
5/16/2024 6:45:00 AM 10.95 51.71 0.028 6.44 4.05 10.9
5/16/2024 7:00:00 AM 10.94 51.692 0.028 6.44 4.1 10.92
5/16/2024 7:15:00 AM 10.93 51.674 0.028 6.45 3.77 10.93
5/16/2024 7:30:00 AM 10.92 51.656 0.028 6.44 3.98 10.94
5/16/2024 7:45:00 AM 10.93 51.674 0.028 6.45 3.87 10.97
5/16/2024 8:00:00 AM 10.95 51.71 0.028 6.46 3.98 11.01
5/16/2024 8:15:00 AM 10.95 51.71 0.028 6.48 3.7 11
5/16/2024 8:30:00 AM 10.97 51.746 0.027 6.49 3.92 11.03
5/16/2024 8:45:00 AM 10.98 51.764 0.027 6.49 3.99 11.02
5/16/2024 9:00:00 AM 11.01 51.818 0.027 6.5 3.68 11.05
5/16/2024 9:15:00 AM 11.05 51.89 0.027 6.52 4.09 11.07
5/16/2024 9:30:00 AM 11.08 51.944 0.027 6.54 3.7 11.08
5/16/2024 9:45:00 AM 11.13 52.034 0.027 6.56 3.89 11.07
5/16/2024 10:00:00 AM 11.15 52.07 0.027 6.57 3.71 11.06
5/16/2024 10:15:00 AM 11.2 52.16 0.027 6.58 3.78 11.06
5/16/2024 10:30:00 AM 11.22 52.196 0.027 6.59 3.8 11.05
5/16/2024 10:45:00 AM 11.23 52.214 0.027 6.59 3.7 11.03
5/16/2024 11:00:00 AM 11.23 52.214 0.027 6.58 3.87 11
5/16/2024 11:15:00 AM 11.25 52.25 0.027 6.59 3.63 11
5/16/2024 11:30:00 AM 11.29 52.322 0.027 6.6 3.82 11.02
5/16/2024 11:45:00 AM 11.41 52.538 0.027 6.61 3.75 11.03
5/16/2024 12:00:00 PM 11.44 52.592 0.027 6.62 3.8 11.03
5/16/2024 12:15:00 PM 11.46 52.628 0.027 6.62 3.75 10.98
5/16/2024 12:30:00 PM 11.48 52.664 0.027 6.61 3.76 10.95
5/16/2024 12:45:00 PM 11.67 53.006 0.027 6.62 3.76 10.97
5/16/2024 1:00:00 PM 11.68 53.024 0.027 6.64 3.83 10.95
5/16/2024 1:15:00 PM 11.78 53.204 0.027 6.64 3.86 10.94
5/16/2024 1:30:00 PM 11.88 53.384 0.027 6.65 3.84 10.94
5/16/2024 1:45:00 PM 11.99 53.582 0.027 6.66 3.86 10.92
5/16/2024 2:00:00 PM 12.01 53.618 0.027 6.66 3.95 10.87
5/16/2024 2:15:00 PM 12.04 53.672 0.027 6.66 4.01 10.86
5/16/2024 2:30:00 PM 12.1 53.78 0.027 6.66 4.02 10.86
5/16/2024 2:45:00 PM 12.11 53.798 0.027 6.67 3.99 10.85
5/16/2024 3:00:00 PM 12.28 54.104 0.027 6.66 4.18 10.85
5/16/2024 3:15:00 PM 12.28 54.104 0.027 6.67 4.05 10.8
5/16/2024 3:30:00 PM 12.28 54.104 0.027 6.67 3.74 10.76
5/16/2024 3:45:00 PM 12.34 54.212 0.027 6.66 3.88 10.75
5/16/2024 4:00:00 PM 12.35 54.23 0.027 6.65 6.89 10.75
5/16/2024 4:15:00 PM 12.37 54.266 0.027 6.66 3.98 10.75
5/16/2024 4:30:00 PM 12.41 54.338 0.027 6.65 3.87 10.74
5/16/2024 4:45:00 PM 12.46 54.428 0.027 6.64 3.99 10.72
5/16/2024 5:00:00 PM 12.5 54.5 0.027 6.64 3.75 10.7
5/16/2024 5:15:00 PM 12.5 54.5 0.027 6.63 4.09 10.69
5/16/2024 5:30:00 PM 12.51 54.518 0.027 6.63 3.95 10.69
5/16/2024 5:45:00 PM 12.52 54.536 0.027 6.62 3.9 10.69
5/16/2024 6:00:00 PM 12.53 54.554 0.027 6.62 3.86 10.68
5/16/2024 6:15:00 PM 12.53 54.554 0.027 6.62 3.65 10.66
5/16/2024 6:30:00 PM 12.54 54.572 0.027 6.61 3.72 10.64
5/16/2024 6:45:00 PM 12.54 54.572 0.027 6.6 3.79 10.61
5/16/2024 7:00:00 PM 12.54 54.572 0.027 6.59 3.7 10.6
5/16/2024 7:15:00 PM 12.54 54.572 0.027 6.58 3.75 10.6
5/16/2024 7:30:00 PM 12.53 54.554 0.027 6.57 3.88 10.58
5/16/2024 7:45:00 PM 12.51 54.518 0.027 6.57 3.78 10.55
5/16/2024 8:00:00 PM 12.48 54.464 0.027 6.54 3.71 10.53
5/16/2024 8:15:00 PM 12.46 54.428 0.027 6.54 3.9 10.52
5/16/2024 8:30:00 PM 12.43 54.374 0.027 6.52 3.89 10.52
5/16/2024 8:45:00 PM 12.39 54.302 0.027 6.5 13.78 10.51
5/16/2024 9:00:00 PM 12.36 54.248 0.027 6.5 3.48 10.53
5/16/2024 9:15:00 PM 12.33 54.194 0.027 6.51 3.67 10.54
5/16/2024 9:30:00 PM 12.3 54.14 0.027 6.51 3.59 10.54
5/16/2024 9:45:00 PM 12.27 54.086 0.027 6.51 3.54 10.55
5/16/2024 10:00:00 PM 12.24 54.032 0.027 6.51 3.56 10.56
5/16/2024 10:15:00 PM 12.2 53.96 0.027 6.51 3.78 10.57
5/16/2024 10:30:00 PM 12.17 53.906 0.027 6.51 4.3 10.57
5/16/2024 10:45:00 PM 12.13 53.834 0.027 6.51 3.59 10.58
5/16/2024 11:00:00 PM 12.09 53.762 0.027 6.51 3.6 10.59
5/16/2024 11:15:00 PM 12.06 53.708 0.027 6.5 3.63 10.6
5/16/2024 11:30:00 PM 12.02 53.636 0.027 6.5 3.66 10.61
5/16/2024 11:45:00 PM 11.98 53.564 0.027 6.5 3.81 10.62
5/17/2024 12:00:00 AM 11.94 53.492 0.027 6.51 3.57 10.63
5/17/2024 12:15:00 AM 11.91 53.438 0.027 6.51 3.89 10.64
5/17/2024 12:30:00 AM 11.87 53.366 0.027 6.51 3.61 10.65
5/17/2024 12:45:00 AM 11.83 53.294 0.027 6.5 3.88 10.66
5/17/2024 1:00:00 AM 11.79 53.222 0.027 6.5 3.76 10.67
5/17/2024 1:15:00 AM 11.75 53.15 0.027 6.5 3.66 10.68
5/17/2024 1:30:00 AM 11.71 53.078 0.027 6.5 3.78 10.69
5/17/2024 1:45:00 AM 11.67 53.006 0.027 6.49 3.66 10.71
5/17/2024 2:00:00 AM 11.63 52.934 0.027 6.5 3.7 10.71
5/17/2024 2:15:00 AM 11.6 52.88 0.027 6.49 3.96 10.72
5/17/2024 2:30:00 AM 11.56 52.808 0.027 6.5 3.88 10.74
5/17/2024 2:45:00 AM 11.53 52.754 0.027 6.5 3.77 10.75
5/17/2024 3:00:00 AM 11.49 52.682 0.027 6.5 3.65 10.77
5/17/2024 3:15:00 AM 11.45 52.61 0.027 6.49 3.69 10.78
5/17/2024 3:30:00 AM 11.42 52.556 0.027 6.49 3.69 10.79
5/17/2024 3:45:00 AM 11.38 52.484 0.027 6.5 3.77 10.8
5/17/2024 4:00:00 AM 11.35 52.43 0.027 6.5 3.78 10.81
5/17/2024 4:15:00 AM 11.32 52.376 0.027 6.49 3.83 10.82
5/17/2024 4:30:00 AM 11.28 52.304 0.027 6.49 3.77 10.82
5/17/2024 4:45:00 AM 11.25 52.25 0.027 6.48 3.63 10.84
5/17/2024 5:00:00 AM 11.21 52.178 0.027 6.48 3.93 10.85
5/17/2024 5:15:00 AM 11.18 52.124 0.027 6.47 3.85 10.85
5/17/2024 5:30:00 AM 11.15 52.07 0.027 6.48 3.68 10.86
5/17/2024 5:45:00 AM 11.12 52.016 0.027 6.46 3.87 10.87
5/17/2024 6:00:00 AM 11.09 51.962 0.027 6.46 5.61 10.88
5/17/2024 6:15:00 AM 11.06 51.908 0.027 6.45 4.59 10.89
5/17/2024 6:30:00 AM 11.04 51.872 0.027 6.45 3.63 10.89
5/17/2024 6:45:00 AM 11.02 51.836 0.027 6.47 3.75 10.94
5/17/2024 7:00:00 AM 11.01 51.818 0.027 6.47 3.57 10.96
5/17/2024 7:15:00 AM 11 51.8 0.027 6.48 3.59 10.99
5/17/2024 7:30:00 AM 11 51.8 0.027 6.48 3.55 10.99
5/17/2024 7:45:00 AM 11.01 51.818 0.027 6.49 3.39 11.03
5/17/2024 8:00:00 AM 11.02 51.836 0.027 6.51 3.42 11.05
5/17/2024 8:15:00 AM 11.02 51.836 0.027 6.51 3.36 11.06
5/17/2024 8:30:00 AM 11.04 51.872 0.027 6.52 3.46 11.07
5/17/2024 8:45:00 AM 11.07 51.926 0.027 6.52 3.48 11.09
5/17/2024 9:00:00 AM 11.08 51.944 0.027 6.54 3.41 11.08
5/17/2024 9:15:00 AM 11.11 51.998 0.027 6.55 3.39 11.09
5/17/2024 9:30:00 AM 11.15 52.07 0.027 6.54 3.57 11.1
5/17/2024 9:45:00 AM 11.2 52.16 0.027 6.57 3.36 11.1
5/17/2024 10:00:00 AM 11.28 52.304 0.027 6.58 3.19 11.1
5/17/2024 10:15:00 AM 11.37 52.466 0.027 6.61 3.43 11.1
5/17/2024 10:30:00 AM 11.42 52.556 0.027 6.63 3.45 11.1
5/17/2024 10:45:00 AM 11.48 52.664 0.027 6.64 3.43 11.08
5/17/2024 11:00:00 AM 11.58 52.844 0.027 6.64 4.35 11.07
5/17/2024 11:15:00 AM 11.64 52.952 0.027 6.67 3.4 11.05
5/17/2024 11:30:00 AM 11.71 53.078 0.027 6.67 3.37 11.02
5/17/2024 11:45:00 AM 11.78 53.204 0.027 6.68 3.36 11.01
5/17/2024 12:00:00 PM 11.8 53.24 0.027 6.69 3.61 10.99
5/17/2024 12:15:00 PM 11.84 53.312 0.027 6.68 3.39 10.99
5/17/2024 12:30:00 PM 11.88 53.384 0.027 6.67 3.29 10.98
5/17/2024 12:45:00 PM 11.93 53.474 0.027 6.69 3.38 10.96
5/17/2024 1:00:00 PM 12 53.6 0.027 6.68 3.44 10.96
5/17/2024 1:15:00 PM 12.1 53.78 0.027 6.69 3.54 10.95
5/17/2024 1:30:00 PM 12.2 53.96 0.027 6.69 3.49 10.92
5/17/2024 1:45:00 PM 12.23 54.014 0.027 6.7 3.46 10.87
5/17/2024 2:00:00 PM 12.29 54.122 0.027 6.69 3.65 10.88
5/17/2024 2:15:00 PM 12.31 54.158 0.027 6.69 3.53 10.86
5/17/2024 2:30:00 PM 12.33 54.194 0.027 6.68 3.4 10.82
5/17/2024 2:45:00 PM 12.34 54.212 0.027 6.68 3.49 10.78
5/17/2024 3:00:00 PM 12.36 54.248 0.027 6.67 3.38 10.76
5/17/2024 3:15:00 PM 12.39 54.302 0.027 6.66 3.46 10.75
5/17/2024 3:30:00 PM 12.4 54.32 0.027 6.66 3.4 10.73
5/17/2024 3:45:00 PM 12.39 54.302 0.027 6.65 3.57 10.71
5/17/2024 4:00:00 PM 12.37 54.266 0.027 6.64 3.37 10.69
5/17/2024 4:15:00 PM 12.36 54.248 0.027 6.63 3.47 10.67
5/17/2024 4:30:00 PM 12.36 54.248 0.027 6.62 3.47 10.67
5/17/2024 4:45:00 PM 12.37 54.266 0.027 6.63 3.48 10.67
5/17/2024 5:00:00 PM 12.38 54.284 0.027 6.63 3.54 10.68
5/17/2024 5:15:00 PM 12.38 54.284 0.027 6.61 3.41 10.67
5/17/2024 5:30:00 PM 12.39 54.302 0.027 6.62 3.47 10.67
5/17/2024 5:45:00 PM 12.39 54.302 0.027 6.61 3.52 10.65
5/17/2024 6:00:00 PM 12.39 54.302 0.027 6.59 3.44 10.63
5/17/2024 6:15:00 PM 12.39 54.302 0.027 6.6 3.58 10.62
5/17/2024 6:30:00 PM 12.39 54.302 0.027 6.59 9.38 10.61
5/17/2024 6:45:00 PM 12.39 54.302 0.027 6.59 3.26 10.64
5/17/2024 7:00:00 PM 12.37 54.266 0.027 6.58 3.35 10.62
5/17/2024 7:15:00 PM 12.36 54.248 0.027 6.58 3.13 10.61
5/17/2024 7:30:00 PM 12.34 54.212 0.027 6.56 3.54 10.6
5/17/2024 7:45:00 PM 12.32 54.176 0.027 6.57 3.21 10.59
5/17/2024 8:00:00 PM 12.29 54.122 0.027 6.56 3.31 10.57
5/17/2024 8:15:00 PM 12.27 54.086 0.027 6.55 3.28 10.57
5/17/2024 8:30:00 PM 12.24 54.032 0.027 6.54 3.36 10.57
5/17/2024 8:45:00 PM 12.22 53.996 0.027 6.52 3.37 10.57
5/17/2024 9:00:00 PM 12.2 53.96 0.027 6.53 3.32 10.57
5/17/2024 9:15:00 PM 12.18 53.924 0.027 6.52 3.35 10.57
5/17/2024 9:30:00 PM 12.16 53.888 0.027 6.51 3.57 10.58
5/17/2024 9:45:00 PM 12.14 53.852 0.027 6.51 3.52 10.58
5/17/2024 10:00:00 PM 12.12 53.816 0.027 6.5 3.66 10.59
5/17/2024 10:15:00 PM 12.11 53.798 0.027 6.49 3.74 10.59
5/17/2024 10:30:00 PM 12.09 53.762 0.027 6.5 3.57 10.59
5/17/2024 10:45:00 PM 12.07 53.726 0.027 6.49 3.7 10.6
5/17/2024 11:00:00 PM 12.05 53.69 0.028 6.5 3.64 10.6
5/17/2024 11:15:00 PM 12.04 53.672 0.028 6.49 3.57 10.61
5/17/2024 11:30:00 PM 12.02 53.636 0.028 6.49 3.75 10.6
5/17/2024 11:45:00 PM 12 53.6 0.028 6.48 3.8 10.6
5/18/2024 12:00:00 AM 11.99 53.582 0.028 6.47 3.66 10.61
5/18/2024 12:15:00 AM 11.97 53.546 0.028 6.48 3.83 10.62
5/18/2024 12:30:00 AM 11.96 53.528 0.028 6.46 3.65 10.62
5/18/2024 12:45:00 AM 11.94 53.492 0.028 6.46 3.53 10.63
5/18/2024 1:00:00 AM 11.92 53.456 0.028 6.46 3.61 10.63
5/18/2024 1:15:00 AM 11.9 53.42 0.028 6.45 4.13 10.63
5/18/2024 1:30:00 AM 11.89 53.402 0.028 6.45 3.85 10.64
5/18/2024 1:45:00 AM 11.87 53.366 0.028 6.44 4 10.64
5/18/2024 2:00:00 AM 11.85 53.33 0.028 6.45 3.69 10.64
5/18/2024 2:15:00 AM 11.83 53.294 0.028 6.43 3.88 10.65
5/18/2024 2:30:00 AM 11.81 53.258 0.028 6.44 3.63 10.66
5/18/2024 2:45:00 AM 11.8 53.24 0.028 6.44 3.77 10.66
5/18/2024 3:00:00 AM 11.78 53.204 0.028 6.43 3.84 10.66
5/18/2024 3:15:00 AM 11.76 53.168 0.028 6.43 3.71 10.67
5/18/2024 3:30:00 AM 11.75 53.15 0.028 6.42 3.86 10.67
5/18/2024 3:45:00 AM 11.73 53.114 0.028 6.41 3.7 10.68
5/18/2024 4:00:00 AM 11.72 53.096 0.028 6.42 3.96 10.68
5/18/2024 4:15:00 AM 11.7 53.06 0.028 6.41 3.91 10.69
5/18/2024 4:30:00 AM 11.68 53.024 0.028 6.4 3.63 10.69
5/18/2024 4:45:00 AM 11.67 53.006 0.028 6.4 3.76 10.7
5/18/2024 5:00:00 AM 11.65 52.97 0.028 6.4 3.86 10.7
5/18/2024 5:15:00 AM 11.64 52.952 0.028 6.39 3.83 10.7
5/18/2024 5:30:00 AM 11.62 52.916 0.028 6.37 3.87 10.69
5/18/2024 5:45:00 AM 11.61 52.898 0.028 6.4 3.78 10.71
5/18/2024 6:00:00 AM 11.6 52.88 0.028 6.39 3.71 10.7
5/18/2024 6:15:00 AM 11.58 52.844 0.028 6.39 3.7 10.72
5/18/2024 6:30:00 AM 11.57 52.826 0.028 6.39 3.53 10.72
5/18/2024 6:45:00 AM 11.56 52.808 0.028 6.34 3.84 10.74
5/18/2024 7:00:00 AM 11.55 52.79 0.028 6.37 3.57 10.74
5/18/2024 7:15:00 AM 11.55 52.79 0.028 6.38 3.45 10.77
5/18/2024 7:30:00 AM 11.54 52.772 0.028 6.37 3.56 10.8
5/18/2024 7:45:00 AM 11.54 52.772 0.028 6.39 3.4 10.81
5/18/2024 8:00:00 AM 11.53 52.754 0.028 6.38 3.4 10.8
5/18/2024 8:15:00 AM 11.53 52.754 0.028 6.39 3.42 10.8
5/18/2024 8:30:00 AM 11.52 52.736 0.028 6.39 3.4 10.81
5/18/2024 8:45:00 AM 11.53 52.754 0.028 6.39 3.36 10.85
5/18/2024 9:00:00 AM 11.55 52.79 0.028 6.39 3.39 10.9
5/18/2024 9:15:00 AM 11.56 52.808 0.028 6.42 3.57 10.92
5/18/2024 9:30:00 AM 11.57 52.826 0.028 6.44 3.4 10.92
5/18/2024 9:45:00 AM 11.58 52.844 0.028 6.46 3.34 10.92
5/18/2024 10:00:00 AM 11.62 52.916 0.028 6.47 3.41 10.96
5/18/2024 10:15:00 AM 11.66 52.988 0.028 6.49 4.54 10.98
5/18/2024 10:30:00 AM 11.67 53.006 0.028 6.51 3.39 10.96
5/18/2024 10:45:00 AM 11.69 53.042 0.028 6.51 3.35 10.95
5/18/2024 11:00:00 AM 11.71 53.078 0.028 6.54 3.38 10.95
5/18/2024 11:15:00 AM 11.75 53.15 0.028 6.56 3.34 10.97
5/18/2024 11:30:00 AM 11.81 53.258 0.028 6.57 3.41 10.99
5/18/2024 11:45:00 AM 11.86 53.348 0.028 6.6 3.38 10.97
5/18/2024 12:00:00 PM 11.88 53.384 0.028 6.62 3.34 10.96
5/18/2024 12:15:00 PM 11.92 53.456 0.028 6.62 3.46 10.95
5/18/2024 12:30:00 PM 12.05 53.69 0.028 6.64 3.44 10.95
5/18/2024 12:45:00 PM 12.16 53.888 0.028 6.66 3.57 10.92
5/18/2024 1:00:00 PM 12.28 54.104 0.027 6.66 3.43 10.91
5/18/2024 1:15:00 PM 12.34 54.212 0.027 6.67 3.42 10.87
5/18/2024 1:30:00 PM 12.36 54.248 0.027 6.68 3.34 10.85
5/18/2024 1:45:00 PM 12.45 54.41 0.027 6.67 3.58 10.84
5/18/2024 2:00:00 PM 12.57 54.626 0.027 6.68 3.54 10.8
5/18/2024 2:15:00 PM 12.59 54.662 0.027 6.66 3.62 10.7
5/18/2024 2:30:00 PM 12.6 54.68 0.027 6.64 3.42 10.68
5/18/2024 2:45:00 PM 12.65 54.77 0.027 6.65 3.6 10.72
5/18/2024 3:00:00 PM 12.73 54.914 0.027 6.66 3.53 10.75
5/18/2024 3:15:00 PM 12.77 54.986 0.027 6.67 3.73 10.76
5/18/2024 3:30:00 PM 12.8 55.04 0.027 6.68 15.78 10.75
5/18/2024 3:45:00 PM 12.86 55.148 0.027 6.68 12.78 10.74
5/18/2024 4:00:00 PM 12.83 55.094 0.027 6.64 7.11 10.72
5/18/2024 4:15:00 PM 12.92 55.256 0.027 6.68 5.64 10.69
5/18/2024 4:30:00 PM 12.92 55.256 0.027 6.68 4.89 10.66
5/18/2024 4:45:00 PM 12.97 55.346 0.027 6.67 4.83 10.65
5/18/2024 5:00:00 PM 12.98 55.364 0.027 6.67 4.11 10.63
5/18/2024 5:15:00 PM 12.99 55.382 0.027 6.66 4.54 10.62
5/18/2024 5:30:00 PM 13.03 55.454 0.027 6.65 8.24 10.59
5/18/2024 5:45:00 PM 13.05 55.49 0.027 6.65 6.29 10.57
5/18/2024 6:00:00 PM 13.06 55.508 0.027 6.64 5.94 10.56
5/18/2024 6:15:00 PM 13.05 55.49 0.027 6.62 6.76 10.53
5/18/2024 6:30:00 PM 13.06 55.508 0.027 6.62 5.62 10.51
5/18/2024 6:45:00 PM 13.07 55.526 0.027 6.6 4.91 10.5
5/18/2024 7:00:00 PM 13.07 55.526 0.027 6.6 4.88 10.47
5/18/2024 7:15:00 PM 13.07 55.526 0.027 6.59 4.94 10.44
5/18/2024 7:30:00 PM 13.06 55.508 0.027 6.58 5.28 10.42
5/18/2024 7:45:00 PM 13.05 55.49 0.027 6.57 4.86 10.4
5/18/2024 8:00:00 PM 13.03 55.454 0.027 6.57 5.17 10.4
5/18/2024 8:15:00 PM 13 55.4 0.027 6.56 5.39 10.39
5/18/2024 8:30:00 PM 12.98 55.364 0.028 6.55 5.35 10.38
5/18/2024 8:45:00 PM 12.94 55.292 0.028 6.53 5.23 10.38
5/18/2024 9:00:00 PM 12.92 55.256 0.028 6.54 4.73 10.39
5/18/2024 9:15:00 PM 12.89 55.202 0.028 6.53 4.53 10.4
5/18/2024 9:30:00 PM 12.85 55.13 0.028 6.53 4.51 10.4
5/18/2024 9:45:00 PM 12.82 55.076 0.028 6.52 4.33 10.41
5/18/2024 10:00:00 PM 12.78 55.004 0.028 6.5 4.36 10.42
5/18/2024 10:15:00 PM 12.75 54.95 0.028 6.49 4.16 10.44
5/18/2024 10:30:00 PM 12.73 54.914 0.028 6.5 4.09 10.44
5/18/2024 10:45:00 PM 12.7 54.86 0.028 6.5 4.07 10.45
5/18/2024 11:00:00 PM 12.67 54.806 0.028 6.5 4.18 10.46
5/18/2024 11:15:00 PM 12.65 54.77 0.028 6.49 4.35 10.47
5/18/2024 11:30:00 PM 12.63 54.734 0.028 6.5 4.19 10.48
5/18/2024 11:45:00 PM 12.61 54.698 0.028 6.49 4.14 10.48
5/19/2024 12:00:00 AM 12.6 54.68 0.028 6.49 4.23 10.49
5/19/2024 12:15:00 AM 12.57 54.626 0.028 6.49 4.07 10.49
5/19/2024 12:30:00 AM 12.55 54.59 0.028 6.48 4.01 10.5
5/19/2024 12:45:00 AM 12.53 54.554 0.028 6.48 4.42 10.5
5/19/2024 1:00:00 AM 12.51 54.518 0.028 6.47 4.02 10.51
5/19/2024 1:15:00 AM 12.5 54.5 0.028 6.47 4.41 10.51
5/19/2024 1:30:00 AM 12.48 54.464 0.028 6.47 4.13 10.51
5/19/2024 1:45:00 AM 12.46 54.428 0.028 6.46 4.02 10.52
5/19/2024 2:00:00 AM 12.44 54.392 0.028 6.46 4.14 10.53
5/19/2024 2:15:00 AM 12.41 54.338 0.028 6.44 4.07 10.53
5/19/2024 2:30:00 AM 12.38 54.284 0.028 6.45 4.28 10.53
5/19/2024 2:45:00 AM 12.35 54.23 0.028 6.44 4.42 10.55
5/19/2024 3:00:00 AM 12.33 54.194 0.028 6.44 4.41 10.55
5/19/2024 3:15:00 AM 12.3 54.14 0.028 6.45 4.21 10.56
5/19/2024 3:30:00 AM 12.28 54.104 0.028 6.46 4.16 10.57
5/19/2024 3:45:00 AM 12.25 54.05 0.028 6.46 4.16 10.57
5/19/2024 4:00:00 AM 12.23 54.014 0.028 6.46 4.13 10.58
5/19/2024 4:15:00 AM 12.2 53.96 0.028 6.46 4.23 10.59
5/19/2024 4:30:00 AM 12.17 53.906 0.028 6.46 4.29 10.59
5/19/2024 4:45:00 AM 12.15 53.87 0.028 6.47 4.14 10.6
5/19/2024 5:00:00 AM 12.12 53.816 0.028 6.47 4.1 10.61
5/19/2024 5:15:00 AM 12.1 53.78 0.028 6.48 4.08 10.61
5/19/2024 5:30:00 AM 12.08 53.744 0.028 6.49 4.31 10.62
5/19/2024 5:45:00 AM 12.05 53.69 0.028 6.48 4.52 10.63
5/19/2024 6:00:00 AM 12.03 53.654 0.028 6.5 4.09 10.63
5/19/2024 6:15:00 AM 12.01 53.618 0.028 6.48 4.01 10.65
5/19/2024 6:30:00 AM 12 53.6 0.028 6.48 5.21 10.66
5/19/2024 6:45:00 AM 11.98 53.564 0.028 6.48 3.86 10.68
5/19/2024 7:00:00 AM 11.96 53.528 0.028 6.49 3.93 10.69
5/19/2024 7:15:00 AM 11.95 53.51 0.028 6.48 4.04 10.72
5/19/2024 7:30:00 AM 11.94 53.492 0.028 6.5 3.84 10.74
5/19/2024 7:45:00 AM 11.94 53.492 0.028 6.52 3.96 10.75
5/19/2024 8:00:00 AM 11.93 53.474 0.028 6.5 4.02 10.76
5/19/2024 8:15:00 AM 11.93 53.474 0.028 6.51 3.77 10.79
5/19/2024 8:30:00 AM 11.92 53.456 0.028 6.52 3.81 10.8
5/19/2024 8:45:00 AM 11.92 53.456 0.028 6.52 3.74 10.81
5/19/2024 9:00:00 AM 11.92 53.456 0.028 6.51 3.84 10.83
5/19/2024 9:15:00 AM 11.93 53.474 0.028 6.53 3.82 10.85
5/19/2024 9:30:00 AM 11.94 53.492 0.028 6.54 3.81 10.87
5/19/2024 9:45:00 AM 11.95 53.51 0.028 6.54 3.87 10.88
5/19/2024 10:00:00 AM 11.97 53.546 0.028 6.56 3.84 10.89
5/19/2024 10:15:00 AM 12 53.6 0.028 6.58 3.86 10.91
5/19/2024 10:30:00 AM 12.02 53.636 0.028 6.58 3.81 10.92
5/19/2024 10:45:00 AM 12.05 53.69 0.028 6.6 3.81 10.93
5/19/2024 11:00:00 AM 12.08 53.744 0.028 6.61 3.73 10.94
5/19/2024 11:15:00 AM 12.13 53.834 0.028 6.65 3.71 10.94
5/19/2024 11:30:00 AM 12.19 53.942 0.028 6.65 3.83 10.95
5/19/2024 11:45:00 AM 12.23 54.014 0.028 6.68 3.68 10.95
5/19/2024 12:00:00 PM 12.25 54.05 0.028 6.67 3.68 10.93
5/19/2024 12:15:00 PM 12.28 54.104 0.028 6.68 3.77 10.92
5/19/2024 12:30:00 PM 12.32 54.176 0.028 6.69 3.62 10.91
5/19/2024 12:45:00 PM 12.35 54.23 0.028 6.69 3.89 10.9
5/19/2024 1:00:00 PM 12.39 54.302 0.028 6.69 3.91 10.9
5/19/2024 1:15:00 PM 12.41 54.338 0.028 6.68 3.76 10.89
5/19/2024 1:30:00 PM 12.44 54.392 0.028 6.69 3.74 10.88
5/19/2024 1:45:00 PM 12.5 54.5 0.027 6.7 3.78 10.88
5/19/2024 2:00:00 PM 12.57 54.626 0.027 6.71 3.73 10.89
5/19/2024 2:15:00 PM 12.63 54.734 0.027 6.72 3.91 10.88
5/19/2024 2:30:00 PM 12.68 54.824 0.027 6.73 3.7 10.87
5/19/2024 2:45:00 PM 12.77 54.986 0.027 6.73 3.87 10.85
5/19/2024 3:00:00 PM 12.89 55.202 0.027 6.73 4.05 10.84
5/19/2024 3:15:00 PM 12.97 55.346 0.027 6.74 4.62 10.81
5/19/2024 3:30:00 PM 12.96 55.328 0.027 6.74 3.83 10.79
5/19/2024 3:45:00 PM 13.04 55.472 0.027 6.72 3.74 10.77
5/19/2024 4:00:00 PM 12.96 55.328 0.027 6.73 3.8 10.72
5/19/2024 4:15:00 PM 12.94 55.292 0.027 6.7 3.66 10.68
5/19/2024 4:30:00 PM 13.02 55.436 0.027 6.69 3.68 10.67
5/19/2024 4:45:00 PM 13.08 55.544 0.027 6.7 3.7 10.67
5/19/2024 5:00:00 PM 13.1 55.58 0.027 6.68 3.9 10.65
5/19/2024 5:15:00 PM 13.15 55.67 0.027 6.68 3.72 10.62
5/19/2024 5:30:00 PM 13.18 55.724 0.028 6.68 3.9 10.57
5/19/2024 5:45:00 PM 13.18 55.724 0.028 6.66 3.71 10.55
5/19/2024 6:00:00 PM 13.16 55.688 0.028 6.66 3.73 10.53
5/19/2024 6:15:00 PM 13.13 55.634 0.028 6.65 3.87 10.52
5/19/2024 6:30:00 PM 13.1 55.58 0.028 6.64 3.73 10.5
5/19/2024 6:45:00 PM 13.07 55.526 0.028 6.63 3.87 10.5
5/19/2024 7:00:00 PM 13.03 55.454 0.028 6.63 3.73 10.48
5/19/2024 7:15:00 PM 12.99 55.382 0.028 6.61 3.72 10.48
5/19/2024 7:30:00 PM 12.95 55.31 0.028 6.6 3.86 10.47
5/19/2024 7:45:00 PM 12.9 55.22 0.028 6.58 4.06 10.46
5/19/2024 8:00:00 PM 12.85 55.13 0.028 6.57 3.97 10.46
5/19/2024 8:15:00 PM 12.82 55.076 0.028 6.56 3.76 10.45
5/19/2024 8:30:00 PM 12.78 55.004 0.028 6.55 3.79 10.45
5/19/2024 8:45:00 PM 12.75 54.95 0.028 6.54 3.86 10.45
5/19/2024 9:00:00 PM 12.72 54.896 0.028 6.53 4.36 10.45
5/19/2024 9:15:00 PM 12.7 54.86 0.028 6.53 3.94 10.45
5/19/2024 9:30:00 PM 12.68 54.824 0.028 6.52 3.91 10.46
5/19/2024 9:45:00 PM 12.66 54.788 0.028 6.52 4.03 10.47
5/19/2024 10:00:00 PM 12.63 54.734 0.028 6.52 4.73 10.47
5/19/2024 10:15:00 PM 12.61 54.698 0.028 6.52 4.2 10.48
5/19/2024 10:30:00 PM 12.58 54.644 0.028 6.52 4.07 10.49
5/19/2024 10:45:00 PM 12.55 54.59 0.028 6.52 4.13 10.49
5/19/2024 11:00:00 PM 12.52 54.536 0.028 6.52 4.12 10.5
5/19/2024 11:15:00 PM 12.49 54.482 0.028 6.52 3.88 10.51
5/19/2024 11:30:00 PM 12.47 54.446 0.028 6.52 3.99 10.52
5/19/2024 11:45:00 PM 12.44 54.392 0.028 6.52 3.95 10.52
5/20/2024 12:00:00 AM 12.41 54.338 0.028 6.52 4.11 10.53
5/20/2024 12:15:00 AM 12.39 54.302 0.028 6.52 4.03 10.54
5/20/2024 12:30:00 AM 12.36 54.248 0.028 6.52 4.24 10.54
5/20/2024 12:45:00 AM 12.34 54.212 0.028 6.51 4.16 10.55
5/20/2024 1:00:00 AM 12.31 54.158 0.028 6.51 4.28 10.55
5/20/2024 1:15:00 AM 12.28 54.104 0.028 6.52 4.33 10.57
5/20/2024 1:30:00 AM 12.27 54.086 0.028 6.52 4.11 10.57
5/20/2024 1:45:00 AM 12.25 54.05 0.028 6.52 4.32 10.57
5/20/2024 2:00:00 AM 12.22 53.996 0.028 6.53 4.23 10.58
5/20/2024 2:15:00 AM 12.19 53.942 0.028 6.52 4.13 10.59
5/20/2024 2:30:00 AM 12.16 53.888 0.028 6.52 4.25 10.6
5/20/2024 2:45:00 AM 12.13 53.834 0.028 6.53 4.13 10.6
5/20/2024 3:00:00 AM 12.11 53.798 0.028 6.52 4.06 10.6
5/20/2024 3:15:00 AM 12.08 53.744 0.028 6.52 4.29 10.61
5/20/2024 3:30:00 AM 12.05 53.69 0.028 6.52 4.19 10.62
5/20/2024 3:45:00 AM 12.03 53.654 0.028 6.52 4.17 10.62
5/20/2024 4:00:00 AM 12 53.6 0.028 6.52 4.26 10.63
5/20/2024 4:15:00 AM 11.98 53.564 0.028 6.52 4.24 10.64
5/20/2024 4:30:00 AM 11.95 53.51 0.028 6.52 4.33 10.64
5/20/2024 4:45:00 AM 11.93 53.474 0.028 6.52 4.34 10.65
5/20/2024 5:00:00 AM 11.9 53.42 0.028 6.51 4.27 10.66
5/20/2024 5:15:00 AM 11.87 53.366 0.028 6.52 4.57 10.66
5/20/2024 5:30:00 AM 11.85 53.33 0.028 6.52 4.36 10.67
5/20/2024 5:45:00 AM 11.83 53.294 0.028 6.5 4.31 10.68
5/20/2024 6:00:00 AM 11.8 53.24 0.028 6.51 4.29 10.69
5/20/2024 6:15:00 AM 11.78 53.204 0.028 6.5 4.4 10.71
5/20/2024 6:30:00 AM 11.76 53.168 0.028 6.52 4.26 10.73
5/20/2024 6:45:00 AM 11.74 53.132 0.028 6.52 4.27 10.76
5/20/2024 7:00:00 AM 11.73 53.114 0.028 6.53 4.4 10.8
5/20/2024 7:15:00 AM 11.71 53.078 0.028 6.54 4.24 10.82
5/20/2024 7:30:00 AM 11.7 53.06 0.028 6.55 4.1 10.84
5/20/2024 7:45:00 AM 11.7 53.06 0.028 6.56 4.02 10.88
5/20/2024 8:00:00 AM 11.72 53.096 0.028 6.57 4.16 10.92
5/20/2024 8:15:00 AM 11.72 53.096 0.028 6.59 4.16 10.92
5/20/2024 8:30:00 AM 11.72 53.096 0.028 6.6 4.32 10.93
5/20/2024 8:45:00 AM 11.76 53.168 0.028 6.61 4.3 10.97
5/20/2024 9:00:00 AM 11.79 53.222 0.028 6.62 4.14 10.97
5/20/2024 9:15:00 AM 11.82 53.276 0.028 6.62 4.26 10.96
5/20/2024 9:30:00 AM 11.85 53.33 0.028 6.62 4.41 10.95
5/20/2024 9:45:00 AM 11.91 53.438 0.028 6.63 4.31 10.95
5/20/2024 10:00:00 AM 11.98 53.564 0.028 6.64 4.1 10.95
5/20/2024 10:15:00 AM 12.05 53.69 0.028 6.65 4 10.95
5/20/2024 10:30:00 AM 12.12 53.816 0.028 6.67 4.23 10.96
5/20/2024 10:45:00 AM 12.2 53.96 0.028 6.69 4.11 10.94
5/20/2024 11:00:00 AM 12.3 54.14 0.028 6.68 4.1 10.92
5/20/2024 11:15:00 AM 12.41 54.338 0.028 6.69 3.88 10.92
5/20/2024 11:30:00 AM 12.53 54.554 0.028 6.71 3.83 10.9
5/20/2024 11:45:00 AM 12.66 54.788 0.028 6.72 4.04 10.88
5/20/2024 12:00:00 PM 12.79 55.022 0.028 6.73 3.79 10.86
5/20/2024 12:15:00 PM 12.89 55.202 0.028 6.74 3.95 10.83
5/20/2024 12:30:00 PM 13.02 55.436 0.028 6.75 3.85 10.8
5/20/2024 12:45:00 PM 13.21 55.778 0.028 6.76 4.18 10.75
5/20/2024 1:00:00 PM 13.4 56.12 0.028 6.76 4.06 10.72
5/20/2024 1:15:00 PM 13.56 56.408 0.028 6.77 3.85 10.68
5/20/2024 1:30:00 PM 13.71 56.678 0.028 6.76 45.82 10.64
5/20/2024 1:45:00 PM 13.88 56.984 0.028 6.79 3.66 10.62
5/20/2024 2:00:00 PM 14.07 57.326 0.028 6.8 3.81 10.58
5/20/2024 2:15:00 PM 14.22 57.596 0.028 6.81 3.75 10.55
5/20/2024 2:30:00 PM 14.38 57.884 0.028 6.81 3.76 10.52
5/20/2024 2:45:00 PM 14.46 58.028 0.028 6.82 3.65 10.47
5/20/2024 3:00:00 PM 14.55 58.19 0.028 6.82 3.7 10.46
5/20/2024 3:15:00 PM 14.61 58.298 0.028 6.83 3.7 10.43
5/20/2024 3:30:00 PM 14.6 58.28 0.028 6.82 3.69 10.41
5/20/2024 3:45:00 PM 14.66 58.388 0.028 6.82 3.85 10.4
5/20/2024 4:00:00 PM 14.67 58.406 0.028 6.81 3.79 10.37
5/20/2024 4:15:00 PM 14.68 58.424 0.028 6.8 3.92 10.35
5/20/2024 4:30:00 PM 14.69 58.442 0.028 6.79 3.81 10.32
5/20/2024 4:45:00 PM 14.65 58.37 0.028 6.77 3.72 10.28
5/20/2024 5:00:00 PM 14.65 58.37 0.028 6.77 3.89 10.29
5/20/2024 5:15:00 PM 14.63 58.334 0.028 6.74 6.37 10.28
5/20/2024 5:30:00 PM 14.6 58.28 0.028 6.74 4.11 10.23
5/20/2024 5:45:00 PM 14.58 58.244 0.028 6.73 4.13 10.22
5/20/2024 6:00:00 PM 14.55 58.19 0.028 6.71 3.81 10.2
5/20/2024 6:15:00 PM 14.53 58.154 0.028 6.7 3.76 10.19
5/20/2024 6:30:00 PM 14.49 58.082 0.028 6.68 3.91 10.18
5/20/2024 6:45:00 PM 14.45 58.01 0.028 6.67 3.98 10.16
5/20/2024 7:00:00 PM 14.39 57.902 0.028 6.67 3.75 10.15
5/20/2024 7:15:00 PM 14.33 57.794 0.028 6.64 4.22 10.14
5/20/2024 7:30:00 PM 14.28 57.704 0.029 6.63 4.07 10.14
5/20/2024 7:45:00 PM 14.22 57.596 0.029 6.62 3.97 10.13
5/20/2024 8:00:00 PM 14.16 57.488 0.029 6.6 3.9 10.13
5/20/2024 8:15:00 PM 14.11 57.398 0.029 6.58 3.92 10.11
5/20/2024 8:30:00 PM 14.06 57.308 0.029 6.56 4.15 10.11
5/20/2024 8:45:00 PM 14.01 57.218 0.029 6.54 3.97 10.1
5/20/2024 9:00:00 PM 13.97 57.146 0.029 6.54 3.95 10.1
5/20/2024 9:15:00 PM 13.93 57.074 0.029 6.52 4.08 10.1
5/20/2024 9:30:00 PM 13.9 57.02 0.029 6.52 4.02 10.11
5/20/2024 9:45:00 PM 13.87 56.966 0.029 6.51 4.2 10.12
5/20/2024 10:00:00 PM 13.84 56.912 0.029 6.51 4.11 10.13
5/20/2024 10:15:00 PM 13.82 56.876 0.029 6.51 4.13 10.12
5/20/2024 10:30:00 PM 13.79 56.822 0.029 6.51 3.97 10.14
5/20/2024 10:45:00 PM 13.76 56.768 0.029 6.51 3.93 10.15
5/20/2024 11:00:00 PM 13.73 56.714 0.029 6.51 4.05 10.16
5/20/2024 11:15:00 PM 13.7 56.66 0.029 6.51 4.11 10.16
5/20/2024 11:30:00 PM 13.67 56.606 0.029 6.51 3.98 10.17
5/20/2024 11:45:00 PM 13.64 56.552 0.029 6.51 4.21 10.18
5/21/2024 12:00:00 AM 13.61 56.498 0.029 6.51 4.04 10.18
5/21/2024 12:15:00 AM 13.58 56.444 0.029 6.51 4.15 10.2
5/21/2024 12:30:00 AM 13.55 56.39 0.029 6.48 6.27 10.2
5/21/2024 12:45:00 AM 13.52 56.336 0.029 6.51 3.94 10.21
5/21/2024 1:00:00 AM 13.49 56.282 0.029 6.51 4.15 10.22
5/21/2024 1:15:00 AM 13.46 56.228 0.029 6.52 4.13 10.22
5/21/2024 1:30:00 AM 13.43 56.174 0.029 6.51 4.05 10.23
5/21/2024 1:45:00 AM 13.41 56.138 0.029 6.51 3.9 10.23
5/21/2024 2:00:00 AM 13.38 56.084 0.029 6.51 4.05 10.24
5/21/2024 2:15:00 AM 13.35 56.03 0.029 6.51 4.07 10.25
5/21/2024 2:30:00 AM 13.32 55.976 0.029 6.51 4.02 10.26
5/21/2024 2:45:00 AM 13.29 55.922 0.029 6.51 4.03 10.26
5/21/2024 3:00:00 AM 13.27 55.886 0.029 6.51 4.04 10.24
5/21/2024 3:15:00 AM 13.24 55.832 0.029 6.5 4.1 10.27
5/21/2024 3:30:00 AM 13.21 55.778 0.029 6.5 4.22 10.28
5/21/2024 3:45:00 AM 13.18 55.724 0.029 6.5 4.1 10.29
5/21/2024 4:00:00 AM 13.15 55.67 0.029 6.5 4.09 10.29
5/21/2024 4:15:00 AM 13.12 55.616 0.029 6.49 4.11 10.3
5/21/2024 4:30:00 AM 13.1 55.58 0.029 6.49 4.12 10.31
5/21/2024 4:45:00 AM 13.07 55.526 0.029 6.5 4.17 10.31
5/21/2024 5:00:00 AM 13.04 55.472 0.029 6.5 4.16 10.32
5/21/2024 5:15:00 AM 13.01 55.418 0.029 6.49 4.13 10.31
5/21/2024 5:30:00 AM 12.98 55.364 0.029 6.49 4.42 10.3
5/21/2024 5:45:00 AM 12.95 55.31 0.029 6.5 4.35 10.31
5/21/2024 6:00:00 AM 12.92 55.256 0.029 6.49 4.24 10.36
5/21/2024 6:15:00 AM 12.89 55.202 0.029 6.49 4.14 10.38
5/21/2024 6:30:00 AM 12.87 55.166 0.029 6.5 4.17 10.41
5/21/2024 6:45:00 AM 12.85 55.13 0.029 6.51 4.11 10.45
5/21/2024 7:00:00 AM 12.83 55.094 0.029 6.52 3.99 10.48
5/21/2024 7:15:00 AM 12.82 55.076 0.029 6.53 4.11 10.5
5/21/2024 7:30:00 AM 12.81 55.058 0.029 6.53 4.16 10.52
5/21/2024 7:45:00 AM 12.81 55.058 0.029 6.54 4.16 10.56
5/21/2024 8:00:00 AM 12.81 55.058 0.029 6.55 4.08 10.6
5/21/2024 8:15:00 AM 12.83 55.094 0.029 6.57 4.04 10.62
5/21/2024 8:30:00 AM 12.85 55.13 0.029 6.58 4.02 10.63
5/21/2024 8:45:00 AM 12.86 55.148 0.029 6.6 4.01 10.65
5/21/2024 9:00:00 AM 12.89 55.202 0.029 6.6 3.99 10.63
5/21/2024 9:15:00 AM 12.91 55.238 0.029 6.61 4.01 10.66
5/21/2024 9:30:00 AM 12.93 55.274 0.029 6.61 4.05 10.63
5/21/2024 9:45:00 AM 13 55.4 0.029 6.62 3.96 10.65
5/21/2024 10:00:00 AM 13.07 55.526 0.029 6.64 4.05 10.66
5/21/2024 10:15:00 AM 13.14 55.652 0.029 6.66 3.82 10.66
5/21/2024 10:30:00 AM 13.21 55.778 0.029 6.67 3.9 10.66
5/21/2024 10:45:00 AM 13.32 55.976 0.029 6.69 4.04 10.65
5/21/2024 11:00:00 AM 13.43 56.174 0.029 6.71 4 10.65
5/21/2024 11:15:00 AM 13.55 56.39 0.029 6.72 4.28 10.6
5/21/2024 11:30:00 AM 13.66 56.588 0.029 6.74 4.01 10.61
5/21/2024 11:45:00 AM 13.8 56.84 0.029 6.75 4.05 10.58
5/21/2024 12:00:00 PM 13.94 57.092 0.029 6.76 3.99 10.54
5/21/2024 12:15:00 PM 14.12 57.416 0.029 6.77 3.46 10.5
5/21/2024 12:30:00 PM 14.31 57.758 0.029 6.76 3.69 10.43
5/21/2024 12:45:00 PM 14.51 58.118 0.029 6.8 3.54 10.45
5/21/2024 1:00:00 PM 14.62 58.316 0.029 6.81 3.48 10.4
5/21/2024 1:15:00 PM 14.72 58.496 0.029 6.81 3.74 10.4
5/21/2024 1:30:00 PM 14.81 58.658 0.029 6.82 3.46 10.35
5/21/2024 1:45:00 PM 14.92 58.856 0.029 6.82 3.54 10.33
5/21/2024 2:00:00 PM 15.07 59.126 0.029 6.83 3.5 10.31
5/21/2024 2:15:00 PM 15.22 59.396 0.029 6.82 3.41 10.28
5/21/2024 2:30:00 PM 15.39 59.702 0.029 6.83 3.5 10.27
5/21/2024 2:45:00 PM 15.49 59.882 0.029 6.85 3.45 10.23
5/21/2024 3:00:00 PM 15.44 59.792 0.029 6.84 3.53 10.17
5/21/2024 3:15:00 PM 15.57 60.026 0.029 6.83 3.51 10.17
5/21/2024 3:30:00 PM 15.69 60.242 0.029 6.83 3.39 10.16
5/21/2024 3:45:00 PM 15.75 60.35 0.029 6.84 5.61 10.11
5/21/2024 4:00:00 PM 15.7 60.26 0.029 6.82 3.45 10.07
5/21/2024 4:15:00 PM 15.74 60.332 0.029 6.8 3.57 10.09
5/21/2024 4:30:00 PM 15.75 60.35 0.029 6.82 3.38 10.06
5/21/2024 4:45:00 PM 15.75 60.35 0.029 6.81 3.36 10.06
5/21/2024 5:00:00 PM 15.74 60.332 0.029 6.81 3.7 10.07
5/21/2024 5:15:00 PM 15.7 60.26 0.029 6.8 3.7 10.07
5/21/2024 5:30:00 PM 15.66 60.188 0.029 6.79 3.45 10.02
5/21/2024 5:45:00 PM 15.61 60.098 0.029 6.77 3.53 9.98
5/21/2024 6:00:00 PM 15.57 60.026 0.029 6.75 3.54 9.95
5/21/2024 6:15:00 PM 15.52 59.936 0.029 6.72 3.7 9.91
5/21/2024 6:30:00 PM 15.49 59.882 0.029 6.72 3.52 9.92
5/21/2024 6:45:00 PM 15.43 59.774 0.029 6.71 3.67 9.91
5/21/2024 7:00:00 PM 15.37 59.666 0.029 6.69 3.7 9.9
5/21/2024 7:15:00 PM 15.29 59.522 0.029 6.67 3.68 9.9
5/21/2024 7:30:00 PM 15.23 59.414 0.029 6.65 3.7 9.89
5/21/2024 7:45:00 PM 15.16 59.288 0.029 6.63 3.62 9.88
5/21/2024 8:00:00 PM 15.09 59.162 0.029 6.62 3.54 9.87
5/21/2024 8:15:00 PM 15.03 59.054 0.029 6.61 3.82 9.87
5/21/2024 8:30:00 PM 14.97 58.946 0.03 6.58 3.57 9.86
5/21/2024 8:45:00 PM 14.92 58.856 0.03 6.57 3.67 9.86
5/21/2024 9:00:00 PM 14.87 58.766 0.03 6.56 3.84 9.86
5/21/2024 9:15:00 PM 14.82 58.676 0.03 6.56 4.14 9.87
5/21/2024 9:30:00 PM 14.76 58.568 0.03 6.55 3.93 9.88
5/21/2024 9:45:00 PM 14.71 58.478 0.03 6.55 3.87 9.88
5/21/2024 10:00:00 PM 14.66 58.388 0.03 6.55 3.95 9.9
5/21/2024 10:15:00 PM 14.62 58.316 0.03 6.55 3.86 9.91
5/21/2024 10:30:00 PM 14.57 58.226 0.03 6.55 3.99 9.92
5/21/2024 10:45:00 PM 14.53 58.154 0.03 6.55 3.93 9.93
5/21/2024 11:00:00 PM 14.49 58.082 0.03 6.55 3.96 9.94
5/21/2024 11:15:00 PM 14.44 57.992 0.03 6.54 3.95 9.95
5/21/2024 11:30:00 PM 14.4 57.92 0.03 6.54 4.05 9.96
5/21/2024 11:45:00 PM 14.36 57.848 0.03 6.55 3.98 9.97
5/22/2024 12:00:00 AM 14.31 57.758 0.03 6.54 3.97 9.98
5/22/2024 12:15:00 AM 14.27 57.686 0.03 6.53 4.37 10
5/22/2024 12:30:00 AM 14.23 57.614 0.03 6.54 4.12 10.01
5/22/2024 12:45:00 AM 14.18 57.524 0.03 6.54 4.05 10.02
5/22/2024 1:00:00 AM 14.14 57.452 0.03 6.53 4.16 10.02
5/22/2024 1:15:00 AM 14.09 57.362 0.03 6.53 3.99 10.03
5/22/2024 1:30:00 AM 14.05 57.29 0.03 6.53 4.33 10.04
5/22/2024 1:45:00 AM 14.01 57.218 0.03 6.53 3.79 10.06
5/22/2024 2:00:00 AM 13.97 57.146 0.03 6.51 4 10.07
5/22/2024 2:15:00 AM 13.92 57.056 0.03 6.52 3.82 10.07
5/22/2024 2:30:00 AM 13.88 56.984 0.03 6.51 3.89 10.08
5/22/2024 2:45:00 AM 13.84 56.912 0.03 6.51 3.76 10.09
5/22/2024 3:00:00 AM 13.8 56.84 0.03 6.51 3.79 10.1
5/22/2024 3:15:00 AM 13.76 56.768 0.03 6.51 3.87 10.11
5/22/2024 3:30:00 AM 13.72 56.696 0.03 6.51 3.85 10.13
5/22/2024 3:45:00 AM 13.68 56.624 0.03 6.5 3.9 10.14
5/22/2024 4:00:00 AM 13.64 56.552 0.03 6.5 3.98 10.15
5/22/2024 4:15:00 AM 13.61 56.498 0.03 6.5 4.11 10.16
5/22/2024 4:30:00 AM 13.57 56.426 0.03 6.5 3.99 10.17
5/22/2024 4:45:00 AM 13.53 56.354 0.03 6.5 3.86 10.18
5/22/2024 5:00:00 AM 13.5 56.3 0.03 6.5 3.83 10.19
5/22/2024 5:15:00 AM 13.46 56.228 0.03 6.51 4.13 10.19
5/22/2024 5:30:00 AM 13.42 56.156 0.03 6.5 3.92 10.2
5/22/2024 5:45:00 AM 13.38 56.084 0.03 6.49 3.89 10.22
5/22/2024 6:00:00 AM 13.34 56.012 0.03 6.5 4.18 10.23
5/22/2024 6:15:00 AM 13.31 55.958 0.03 6.5 3.82 10.25
5/22/2024 6:30:00 AM 13.27 55.886 0.03 6.5 4.24 10.29
5/22/2024 6:45:00 AM 13.24 55.832 0.03 6.51 4.17 10.31
5/22/2024 7:00:00 AM 13.21 55.778 0.03 6.52 3.87 10.33
5/22/2024 7:15:00 AM 13.19 55.742 0.03 6.53 3.86 10.36
5/22/2024 7:30:00 AM 13.18 55.724 0.03 6.54 3.92 10.38
5/22/2024 7:45:00 AM 13.17 55.706 0.03 6.55 3.96 10.4
5/22/2024 8:00:00 AM 13.16 55.688 0.03 6.55 3.7 10.42
5/22/2024 8:15:00 AM 13.16 55.688 0.03 6.57 3.62 10.44
5/22/2024 8:30:00 AM 13.18 55.724 0.03 6.58 3.68 10.46
5/22/2024 8:45:00 AM 13.19 55.742 0.03 6.59 3.64 10.48
5/22/2024 9:00:00 AM 13.22 55.796 0.03 6.6 3.56 10.49
5/22/2024 9:15:00 AM 13.26 55.868 0.03 6.61 3.59 10.51
5/22/2024 9:30:00 AM 13.31 55.958 0.03 6.61 3.58 10.51
5/22/2024 9:45:00 AM 13.37 56.066 0.03 6.63 3.58 10.51
5/22/2024 10:00:00 AM 13.46 56.228 0.03 6.65 3.58 10.53
5/22/2024 10:15:00 AM 13.56 56.408 0.03 6.67 3.85 10.56
5/22/2024 10:30:00 AM 13.67 56.606 0.03 6.7 3.67 10.58
5/22/2024 10:45:00 AM 13.78 56.804 0.029 6.74 3.58 10.57
5/22/2024 11:00:00 AM 13.86 56.948 0.029 6.75 3.75 10.55
5/22/2024 11:15:00 AM 13.89 57.002 0.029 6.77 3.56 10.52
5/22/2024 11:30:00 AM 14.02 57.236 0.029 6.76 3.69 10.49
5/22/2024 11:45:00 AM 14.21 57.578 0.029 6.78 3.71 10.45
5/22/2024 12:00:00 PM 14.4 57.92 0.029 6.8 3.6 10.42
5/22/2024 12:15:00 PM 14.57 58.226 0.029 6.81 3.6 10.39
5/22/2024 12:30:00 PM 14.82 58.676 0.029 6.83 3.61 10.38
5/22/2024 12:45:00 PM 14.95 58.91 0.029 6.85 3.66 10.33
5/22/2024 1:00:00 PM 15.14 59.252 0.029 6.85 3.81 10.31
5/22/2024 1:15:00 PM 15.34 59.612 0.029 6.87 3.54 10.3
5/22/2024 1:30:00 PM 15.5 59.9 0.029 6.89 3.56 10.26
5/22/2024 1:45:00 PM 15.67 60.206 0.029 6.9 3.62 10.24
5/22/2024 2:00:00 PM 15.79 60.422 0.029 6.9 3.72 10.2
5/22/2024 2:15:00 PM 15.92 60.656 0.029 6.9 3.88 10.17
5/22/2024 2:30:00 PM 15.89 60.602 0.029 6.89 3.77 10.11
5/22/2024 2:45:00 PM 15.91 60.638 0.029 6.88 3.69 10.1
5/22/2024 3:00:00 PM 15.9 60.62 0.029 6.87 3.44 10.08
5/22/2024 3:15:00 PM 16.05 60.89 0.029 6.89 3.32 10.11
5/22/2024 3:30:00 PM 16.17 61.106 0.029 6.9 3.34 10.09
5/22/2024 3:45:00 PM 16.24 61.232 0.029 6.89 3.6 10.06
5/22/2024 4:00:00 PM 16.21 61.178 0.029 6.88 3.38 10
5/22/2024 4:15:00 PM 16.06 60.908 0.029 6.84 3.45 9.9
5/22/2024 4:30:00 PM 16.01 60.818 0.029 6.78 4.45 9.74
5/22/2024 4:45:00 PM 15.92 60.656 0.029 6.72 6.86 9.65
5/22/2024 5:00:00 PM 15.83 60.494 0.03 6.69 5.98 9.69
5/22/2024 5:15:00 PM 15.77 60.386 0.03 6.71 6.86 9.78
5/22/2024 5:30:00 PM 15.74 60.332 0.03 6.72 5.73 9.89
5/22/2024 5:45:00 PM 15.64 60.152 0.029 6.72 8.91 9.88
5/22/2024 6:00:00 PM 15.52 59.936 0.029 6.7 9.21 9.87
5/22/2024 6:15:00 PM 15.44 59.792 0.029 6.68 8.08 9.89
5/22/2024 6:30:00 PM 15.41 59.738 0.029 6.68 7.81 9.94
5/22/2024 6:45:00 PM 15.36 59.648 0.029 6.66 10.81 9.95
5/22/2024 7:00:00 PM 15.3 59.54 0.029 6.63 20.2 9.89
5/22/2024 7:15:00 PM 15.23 59.414 0.029 6.62 21.95 9.87
5/22/2024 7:30:00 PM 15.16 59.288 0.029 6.6 17.22 9.85
5/22/2024 7:45:00 PM 15.11 59.198 0.029 6.58 11.84 9.85
5/22/2024 8:00:00 PM 15.04 59.072 0.029 6.56 11.02 9.85
5/22/2024 8:15:00 PM 14.99 58.982 0.029 6.54 10.35 9.86
5/22/2024 8:30:00 PM 14.95 58.91 0.029 6.53 10.41 9.85
5/22/2024 8:45:00 PM 14.94 58.892 0.029 6.52 10.35 9.86
5/22/2024 9:00:00 PM 14.94 58.892 0.029 6.51 9.83 9.86
5/22/2024 9:15:00 PM 14.95 58.91 0.028 6.5 9.84 9.86
5/22/2024 9:30:00 PM 14.95 58.91 0.028 6.48 10.07 9.85
5/22/2024 9:45:00 PM 14.94 58.892 0.028 6.46 9.8 9.85
5/22/2024 10:00:00 PM 14.92 58.856 0.028 6.46 9.52 9.86
5/22/2024 10:15:00 PM 14.89 58.802 0.028 6.46 9.67 9.86
5/22/2024 10:30:00 PM 14.87 58.766 0.028 6.45 9.31 9.86
5/22/2024 10:45:00 PM 14.85 58.73 0.028 6.44 8.38 9.86
5/22/2024 11:00:00 PM 14.82 58.676 0.028 6.45 8.1 9.87
5/22/2024 11:15:00 PM 14.8 58.64 0.028 6.44 7.9 9.87
5/22/2024 11:30:00 PM 14.78 58.604 0.028 6.44 8.46 9.87
5/22/2024 11:45:00 PM 14.76 58.568 0.028 6.45 8.61 9.88
5/23/2024 12:00:00 AM 14.75 58.55 0.028 6.46 8.18 9.88
5/23/2024 12:15:00 AM 14.72 58.496 0.028 6.46 9.14 9.89
5/23/2024 12:30:00 AM 14.71 58.478 0.028 6.49 9.7 9.89
5/23/2024 12:45:00 AM 14.68 58.424 0.029 6.49 9.76 9.89
5/23/2024 1:00:00 AM 14.66 58.388 0.029 6.51 8.94 9.89
5/23/2024 1:15:00 AM 14.65 58.37 0.029 6.51 8.21 9.9
5/23/2024 1:30:00 AM 14.62 58.316 0.029 6.52 7.47 9.9
5/23/2024 1:45:00 AM 14.6 58.28 0.029 6.52 7.1 9.9
5/23/2024 2:00:00 AM 14.58 58.244 0.029 6.51 6.58 9.9
5/23/2024 2:15:00 AM 14.56 58.208 0.028 6.5 6.29 9.91
5/23/2024 2:30:00 AM 14.54 58.172 0.028 6.51 6.07 9.92
5/23/2024 2:45:00 AM 14.52 58.136 0.028 6.5 6.2 9.93
5/23/2024 3:00:00 AM 14.49 58.082 0.028 6.5 6.05 9.93
5/23/2024 3:15:00 AM 14.47 58.046 0.028 6.5 5.98 9.93
5/23/2024 3:30:00 AM 14.44 57.992 0.028 6.49 5.91 9.94
5/23/2024 3:45:00 AM 14.42 57.956 0.028 6.47 5.83 9.94
5/23/2024 4:00:00 AM 14.39 57.902 0.028 6.48 5.78 9.95
5/23/2024 4:15:00 AM 14.37 57.866 0.028 6.48 5.54 9.95
5/23/2024 4:30:00 AM 14.34 57.812 0.028 6.47 5.64 9.96
5/23/2024 4:45:00 AM 14.31 57.758 0.028 6.48 5.6 9.97
5/23/2024 5:00:00 AM 14.29 57.722 0.028 6.47 5.77 9.98
5/23/2024 5:15:00 AM 14.26 57.668 0.028 6.46 5.44 9.98
5/23/2024 5:30:00 AM 14.24 57.632 0.028 6.46 5.58 9.99
5/23/2024 5:45:00 AM 14.21 57.578 0.028 6.46 5.6 9.99
5/23/2024 6:00:00 AM 14.19 57.542 0.028 6.45 5.86 10
5/23/2024 6:15:00 AM 14.16 57.488 0.028 6.45 5.57 10.01
5/23/2024 6:30:00 AM 14.14 57.452 0.028 6.45 5.39 10.04
5/23/2024 6:45:00 AM 14.12 57.416 0.028 6.45 5.54 10.06
5/23/2024 7:00:00 AM 14.1 57.38 0.028 6.45 5.3 10.08
5/23/2024 7:15:00 AM 14.08 57.344 0.028 6.46 5.21 10.1
5/23/2024 7:30:00 AM 14.05 57.29 0.028 6.46 5.3 10.11
5/23/2024 7:45:00 AM 14.04 57.272 0.028 6.47 5.2 10.15
5/23/2024 8:00:00 AM 14.03 57.254 0.028 6.46 5.02 10.19
5/23/2024 8:15:00 AM 14.02 57.236 0.028 6.48 5.1 10.22
5/23/2024 8:30:00 AM 14.01 57.218 0.028 6.49 5.04 10.24
5/23/2024 8:45:00 AM 14 57.2 0.028 6.5 4.96 10.24
5/23/2024 9:00:00 AM 14.04 57.272 0.028 6.53 5.19 10.3
5/23/2024 9:15:00 AM 14.11 57.398 0.028 6.57 4.9 10.36
5/23/2024 9:30:00 AM 14.12 57.416 0.028 6.6 4.91 10.36
5/23/2024 9:45:00 AM 14.15 57.47 0.028 6.61 4.81 10.34
5/23/2024 10:00:00 AM 14.2 57.56 0.028 6.64 4.92 10.34
5/23/2024 10:15:00 AM 14.26 57.668 0.028 6.66 4.97 10.34
5/23/2024 10:30:00 AM 14.34 57.812 0.028 6.68 4.93 10.34
5/23/2024 10:45:00 AM 14.4 57.92 0.028 6.7 5.1 10.34
5/23/2024 11:00:00 AM 14.48 58.064 0.028 6.72 4.81 10.32
5/23/2024 11:15:00 AM 14.55 58.19 0.028 6.73 4.92 10.3
5/23/2024 11:30:00 AM 14.66 58.388 0.028 6.73 4.99 10.3
5/23/2024 11:45:00 AM 14.78 58.604 0.028 6.75 5.18 10.29
5/23/2024 12:00:00 PM 14.89 58.802 0.028 6.76 5.01 10.28
5/23/2024 12:15:00 PM 15 59 0.028 6.77 4.84 10.26
5/23/2024 12:30:00 PM 15.15 59.27 0.028 6.78 4.97 10.25
5/23/2024 12:45:00 PM 15.3 59.54 0.028 6.79 4.79 10.22
5/23/2024 1:00:00 PM 15.42 59.756 0.028 6.8 4.83 10.21
5/23/2024 1:15:00 PM 15.56 60.008 0.028 6.81 4.97 10.2
5/23/2024 1:30:00 PM 15.64 60.152 0.028 6.82 4.8 10.19
5/23/2024 1:45:00 PM 15.74 60.332 0.028 6.83 4.59 10.17
5/23/2024 2:00:00 PM 15.88 60.584 0.028 6.83 4.92 10.16
5/23/2024 2:15:00 PM 16.02 60.836 0.028 6.84 4.84 10.13
5/23/2024 2:30:00 PM 16.07 60.926 0.028 6.85 4.64 10.12
5/23/2024 2:45:00 PM 16.18 61.124 0.028 6.84 4.77 10.1
5/23/2024 3:00:00 PM 16.24 61.232 0.028 6.83 4.74 10.07
5/23/2024 3:15:00 PM 16.26 61.268 0.028 6.84 4.77 10.04
5/23/2024 3:30:00 PM 16.24 61.232 0.028 6.83 4.3 10.02
5/23/2024 3:45:00 PM 16.16 61.088 0.028 6.82 4.27 10.02
5/23/2024 4:00:00 PM 16.11 60.998 0.028 6.82 4.2 10.01
5/23/2024 4:15:00 PM 16.1 60.98 0.028 6.81 4.19 10.02
5/23/2024 4:30:00 PM 16.1 60.98 0.028 6.81 4.25 10.01
5/23/2024 4:45:00 PM 16.06 60.908 0.028 6.8 4.31 9.99
5/23/2024 5:00:00 PM 16.01 60.818 0.028 6.79 4.26 9.97
5/23/2024 5:15:00 PM 15.94 60.692 0.028 6.77 4.4 9.94
5/23/2024 5:30:00 PM 15.88 60.584 0.028 6.76 4.25 9.94
5/23/2024 5:45:00 PM 15.85 60.53 0.028 6.74 4.27 9.94
5/23/2024 6:00:00 PM 15.8 60.44 0.028 6.73 4.28 9.89
5/23/2024 6:15:00 PM 15.74 60.332 0.028 6.71 4.68 9.86
5/23/2024 6:30:00 PM 15.68 60.224 0.028 6.69 4.63 9.84
5/23/2024 6:45:00 PM 15.62 60.116 0.028 6.68 4.56 9.82
5/23/2024 7:00:00 PM 15.56 60.008 0.029 6.67 4.68 9.82
5/23/2024 7:15:00 PM 15.5 59.9 0.029 6.65 4.41 9.81
5/23/2024 7:30:00 PM 15.43 59.774 0.029 6.64 4.66 9.8
5/23/2024 7:45:00 PM 15.36 59.648 0.029 6.63 4.75 9.8
5/23/2024 8:00:00 PM 15.3 59.54 0.029 6.62 4.58 9.8
5/23/2024 8:15:00 PM 15.24 59.432 0.029 6.6 4.63 9.79
5/23/2024 8:30:00 PM 15.18 59.324 0.029 6.6 4.54 9.8
5/23/2024 8:45:00 PM 15.12 59.216 0.029 6.59 4.73 9.79
5/23/2024 9:00:00 PM 15.05 59.09 0.029 6.58 4.75 9.8
5/23/2024 9:15:00 PM 14.99 58.982 0.029 6.58 4.79 9.81
5/23/2024 9:30:00 PM 14.93 58.874 0.029 6.57 4.71 9.81
5/23/2024 9:45:00 PM 14.87 58.766 0.029 6.57 4.85 9.83
5/23/2024 10:00:00 PM 14.81 58.658 0.029 6.57 4.58 9.85
5/23/2024 10:15:00 PM 14.75 58.55 0.029 6.57 4.8 9.86
5/23/2024 10:30:00 PM 14.69 58.442 0.029 6.56 4.75 9.87
5/23/2024 10:45:00 PM 14.63 58.334 0.029 6.56 4.76 9.88
5/23/2024 11:00:00 PM 14.57 58.226 0.029 6.55 4.84 9.9
5/23/2024 11:15:00 PM 14.51 58.118 0.029 6.55 4.93 9.91
5/23/2024 11:30:00 PM 14.45 58.01 0.029 6.54 4.92 9.93
5/23/2024 11:45:00 PM 14.38 57.884 0.029 6.54 4.95 9.94
5/24/2024 12:00:00 AM 14.32 57.776 0.029 6.53 4.76 9.96
5/24/2024 12:15:00 AM 14.26 57.668 0.029 6.52 4.74 9.97
5/24/2024 12:30:00 AM 14.19 57.542 0.029 6.52 4.77 9.99
5/24/2024 12:45:00 AM 14.13 57.434 0.029 6.51 4.7 10.01
5/24/2024 1:00:00 AM 14.06 57.308 0.029 6.51 4.73 10.01
5/24/2024 1:15:00 AM 13.99 57.182 0.029 6.5 4.78 10.03
5/24/2024 1:30:00 AM 13.93 57.074 0.029 6.5 4.84 10.05
5/24/2024 1:45:00 AM 13.86 56.948 0.029 6.49 4.99 10.07
5/24/2024 2:00:00 AM 13.79 56.822 0.029 6.49 4.84 10.08
5/24/2024 2:15:00 AM 13.73 56.714 0.029 6.48 4.86 10.1
5/24/2024 2:30:00 AM 13.66 56.588 0.029 6.48 4.92 10.11
5/24/2024 2:45:00 AM 13.6 56.48 0.029 6.48 4.97 10.13
5/24/2024 3:00:00 AM 13.54 56.372 0.029 6.48 4.87 10.14
5/24/2024 3:15:00 AM 13.48 56.264 0.029 6.48 4.92 10.16
5/24/2024 3:30:00 AM 13.41 56.138 0.029 6.48 4.9 10.18
5/24/2024 3:45:00 AM 13.35 56.03 0.029 6.47 4.94 10.19
5/24/2024 4:00:00 AM 13.29 55.922 0.029 6.47 5.1 10.21
5/24/2024 4:15:00 AM 13.23 55.814 0.029 6.48 5.05 10.22
5/24/2024 4:30:00 AM 13.17 55.706 0.029 6.47 5.06 10.24
5/24/2024 4:45:00 AM 13.11 55.598 0.029 6.48 5.1 10.25
5/24/2024 5:00:00 AM 13.05 55.49 0.029 6.48 4.92 10.27
5/24/2024 5:15:00 AM 12.99 55.382 0.029 6.47 4.86 10.28
5/24/2024 5:30:00 AM 12.93 55.274 0.029 6.48 4.96 10.3
5/24/2024 5:45:00 AM 12.86 55.148 0.029 6.48 4.96 10.31
5/24/2024 6:00:00 AM 12.81 55.058 0.029 6.48 4.89 10.33
5/24/2024 6:15:00 AM 12.75 54.95 0.029 6.48 4.89 10.37
5/24/2024 6:30:00 AM 12.68 54.824 0.029 6.49 4.89 10.4
5/24/2024 6:45:00 AM 12.64 54.752 0.029 6.49 4.82 10.44
5/24/2024 7:00:00 AM 12.6 54.68 0.029 6.5 4.79 10.5
5/24/2024 7:15:00 AM 12.58 54.644 0.029 6.51 4.84 10.55
5/24/2024 7:30:00 AM 12.55 54.59 0.029 6.53 4.8 10.57
5/24/2024 7:45:00 AM 12.52 54.536 0.029 6.54 4.71 10.59
5/24/2024 8:00:00 AM 12.49 54.482 0.029 6.55 4.76 10.6
5/24/2024 8:15:00 AM 12.47 54.446 0.029 6.56 4.68 10.61
5/24/2024 8:30:00 AM 12.48 54.464 0.029 6.57 4.7 10.62
5/24/2024 8:45:00 AM 12.49 54.482 0.029 6.58 4.82 10.64
5/24/2024 9:00:00 AM 12.52 54.536 0.029 6.6 4.78 10.65
5/24/2024 9:15:00 AM 12.56 54.608 0.029 6.61 4.76 10.65
5/24/2024 9:30:00 AM 12.61 54.698 0.029 6.63 4.78 10.66
5/24/2024 9:45:00 AM 12.68 54.824 0.029 6.64 5.32 10.67
5/24/2024 10:00:00 AM 12.76 54.968 0.029 6.66 4.79 10.67
5/24/2024 10:15:00 AM 12.85 55.13 0.029 6.67 4.88 10.67
5/24/2024 10:30:00 AM 12.95 55.31 0.029 6.69 4.65 10.65
5/24/2024 10:45:00 AM 13.06 55.508 0.029 6.71 4.76 10.64
5/24/2024 11:00:00 AM 13.17 55.706 0.029 6.73 4.74 10.63
5/24/2024 11:15:00 AM 13.29 55.922 0.029 6.75 4.68 10.61
5/24/2024 11:30:00 AM 13.42 56.156 0.029 6.77 4.83 10.59
5/24/2024 11:45:00 AM 13.57 56.426 0.029 6.79 4.78 10.56
5/24/2024 12:00:00 PM 13.73 56.714 0.029 6.8 4.81 10.54
5/24/2024 12:15:00 PM 13.9 57.02 0.029 6.82 4.74 10.51
5/24/2024 12:30:00 PM 14.09 57.362 0.029 6.84 4.68 10.49
5/24/2024 12:45:00 PM 14.3 57.74 0.029 6.85 4.73 10.46
5/24/2024 1:00:00 PM 14.51 58.118 0.029 6.86 4.72 10.42
5/24/2024 1:15:00 PM 14.7 58.46 0.029 6.87 4.79 10.38
5/24/2024 1:30:00 PM 14.9 58.82 0.029 6.85 5.27 10.36
5/24/2024 1:45:00 PM 15.08 59.144 0.029 6.87 4.89 10.31
5/24/2024 2:00:00 PM 15.27 59.486 0.029 6.87 4.73 10.28
5/24/2024 2:15:00 PM 15.42 59.756 0.029 6.87 4.77 10.25
5/24/2024 2:30:00 PM 15.55 59.99 0.029 6.88 4.71 10.22
5/24/2024 2:45:00 PM 15.65 60.17 0.029 6.89 4.77 10.19
5/24/2024 3:00:00 PM 15.69 60.242 0.029 6.89 4.95 10.17
5/24/2024 3:15:00 PM 15.68 60.224 0.029 6.88 5.02 10.16
5/24/2024 3:30:00 PM 15.7 60.26 0.029 6.87 4.89 10.13
5/24/2024 3:45:00 PM 15.62 60.116 0.029 6.86 5.03 10.08
5/24/2024 4:00:00 PM 15.67 60.206 0.029 6.85 5.41 10.09
5/24/2024 4:15:00 PM 15.71 60.278 0.029 6.85 5.02 10.07
5/24/2024 4:30:00 PM 15.7 60.26 0.029 6.84 4.87 10.03
5/24/2024 4:45:00 PM 15.68 60.224 0.029 6.83 4.83 10.03
5/24/2024 5:00:00 PM 15.62 60.116 0.029 6.81 5.01 10.01
5/24/2024 5:15:00 PM 15.56 60.008 0.029 6.8 4.98 9.98
5/24/2024 5:30:00 PM 15.49 59.882 0.029 6.78 5.01 9.96
5/24/2024 5:45:00 PM 15.42 59.756 0.029 6.77 5 9.94
5/24/2024 6:00:00 PM 15.35 59.63 0.029 6.76 4.99 9.93
5/24/2024 6:15:00 PM 15.29 59.522 0.029 6.74 5.07 9.92
5/24/2024 6:30:00 PM 15.23 59.414 0.029 6.72 4.93 9.92
5/24/2024 6:45:00 PM 15.18 59.324 0.029 6.71 4.96 9.92
5/24/2024 7:00:00 PM 15.12 59.216 0.029 6.7 4.96 9.91
5/24/2024 7:15:00 PM 15.07 59.126 0.029 6.68 5.39 9.9
5/24/2024 7:30:00 PM 15.01 59.018 0.03 6.67 4.97 9.89
5/24/2024 7:45:00 PM 14.94 58.892 0.03 6.65 5.24 9.87
5/24/2024 8:00:00 PM 14.88 58.784 0.03 6.64 5.22 9.87
5/24/2024 8:15:00 PM 14.82 58.676 0.03 6.63 5.12 9.86
5/24/2024 8:30:00 PM 14.77 58.586 0.03 6.62 5.04 9.85
5/24/2024 8:45:00 PM 14.72 58.496 0.03 6.61 5.07 9.85
5/24/2024 9:00:00 PM 14.67 58.406 0.03 6.6 5.07 9.85
5/24/2024 9:15:00 PM 14.63 58.334 0.03 6.6 5.05 9.85
5/24/2024 9:30:00 PM 14.59 58.262 0.03 6.59 5.15 9.86
5/24/2024 9:45:00 PM 14.54 58.172 0.03 6.59 5.13 9.87
5/24/2024 10:00:00 PM 14.5 58.1 0.03 6.59 5.28 9.89
5/24/2024 10:15:00 PM 14.45 58.01 0.03 6.59 5.25 9.9
5/24/2024 10:30:00 PM 14.41 57.938 0.03 6.59 5.24 9.91
5/24/2024 10:45:00 PM 14.37 57.866 0.03 6.59 5.45 9.92
5/24/2024 11:00:00 PM 14.32 57.776 0.03 6.58 5.22 9.93
5/24/2024 11:15:00 PM 14.27 57.686 0.03 6.57 5.22 9.94
5/24/2024 11:30:00 PM 14.22 57.596 0.03 6.58 5.15 9.95
5/24/2024 11:45:00 PM 14.17 57.506 0.03 6.57 5.2 9.97
5/25/2024 12:00:00 AM 14.12 57.416 0.03 6.57 5.39 9.98
5/25/2024 12:15:00 AM 14.07 57.326 0.03 6.56 5.35 9.99
5/25/2024 12:30:00 AM 14.01 57.218 0.03 6.56 5.25 10
5/25/2024 12:45:00 AM 13.96 57.128 0.03 6.55 5.62 10.02
5/25/2024 1:00:00 AM 13.9 57.02 0.03 6.54 5.21 10.02
5/25/2024 1:15:00 AM 13.84 56.912 0.03 6.55 5.22 10.04
5/25/2024 1:30:00 AM 13.78 56.804 0.03 6.54 5.11 10.06
5/25/2024 1:45:00 AM 13.72 56.696 0.03 6.53 5.35 10.07
5/25/2024 2:00:00 AM 13.66 56.588 0.03 6.53 5.38 10.09
5/25/2024 2:15:00 AM 13.59 56.462 0.03 6.52 5.53 10.1
5/25/2024 2:30:00 AM 13.53 56.354 0.03 6.52 5.35 10.12
5/25/2024 2:45:00 AM 13.47 56.246 0.03 6.52 5.2 10.14
5/25/2024 3:00:00 AM 13.4 56.12 0.03 6.51 5.35 10.15
5/25/2024 3:15:00 AM 13.34 56.012 0.03 6.51 5.32 10.17
5/25/2024 3:30:00 AM 13.28 55.904 0.03 6.51 5.43 10.18
5/25/2024 3:45:00 AM 13.21 55.778 0.03 6.51 5.48 10.19
5/25/2024 4:00:00 AM 13.15 55.67 0.03 6.51 5.27 10.21
5/25/2024 4:15:00 AM 13.08 55.544 0.029 6.5 5.34 10.22
5/25/2024 4:30:00 AM 13.02 55.436 0.029 6.5 5.31 10.23
5/25/2024 4:45:00 AM 12.96 55.328 0.03 6.5 5.66 10.26
5/25/2024 5:00:00 AM 12.89 55.202 0.03 6.5 5.23 10.27
5/25/2024 5:15:00 AM 12.83 55.094 0.03 6.5 5.3 10.29
5/25/2024 5:30:00 AM 12.77 54.986 0.03 6.5 5.36 10.3
5/25/2024 5:45:00 AM 12.71 54.878 0.03 6.49 5.49 10.32
5/25/2024 6:00:00 AM 12.65 54.77 0.03 6.5 5.36 10.34
5/25/2024 6:15:00 AM 12.59 54.662 0.03 6.5 5.39 10.37
5/25/2024 6:30:00 AM 12.54 54.572 0.03 6.5 5.34 10.4
5/25/2024 6:45:00 AM 12.49 54.482 0.03 6.51 5.63 10.42
5/25/2024 7:00:00 AM 12.44 54.392 0.03 6.52 5.25 10.46
5/25/2024 7:15:00 AM 12.41 54.338 0.03 6.53 5.16 10.49
5/25/2024 7:30:00 AM 12.38 54.284 0.03 6.53 5.28 10.53
5/25/2024 7:45:00 AM 12.36 54.248 0.03 6.55 5.2 10.56
5/25/2024 8:00:00 AM 12.35 54.23 0.03 6.56 5.48 10.59
5/25/2024 8:15:00 AM 12.36 54.248 0.03 6.57 5.26 10.63
5/25/2024 8:30:00 AM 12.37 54.266 0.03 6.59 5.34 10.65
5/25/2024 8:45:00 AM 12.38 54.284 0.03 6.61 5.33 10.65
5/25/2024 9:00:00 AM 12.4 54.32 0.03 6.61 5.24 10.66
5/25/2024 9:15:00 AM 12.44 54.392 0.03 6.63 5.23 10.66
5/25/2024 9:30:00 AM 12.5 54.5 0.03 6.65 5.3 10.68
5/25/2024 9:45:00 AM 12.58 54.644 0.03 6.67 5.23 10.68
5/25/2024 10:00:00 AM 12.67 54.806 0.03 6.69 5.27 10.69
5/25/2024 10:15:00 AM 12.77 54.986 0.03 6.71 5.23 10.69
5/25/2024 10:30:00 AM 12.87 55.166 0.03 6.73 5.16 10.68
5/25/2024 10:45:00 AM 12.99 55.382 0.03 6.76 5.2 10.68
5/25/2024 11:00:00 AM 13.11 55.598 0.029 6.78 5.14 10.68
5/25/2024 11:15:00 AM 13.24 55.832 0.029 6.8 5.22 10.66
5/25/2024 11:30:00 AM 13.39 56.102 0.029 6.81 5.4 10.67
5/25/2024 11:45:00 AM 13.5 56.3 0.029 6.84 5.31 10.65
5/25/2024 12:00:00 PM 13.64 56.552 0.029 6.85 5.6 10.62
5/25/2024 12:15:00 PM 13.8 56.84 0.029 6.87 5.41 10.58
5/25/2024 12:30:00 PM 14.04 57.272 0.029 6.88 5.61 10.54
5/25/2024 12:45:00 PM 14.29 57.722 0.029 6.89 5.67 10.52
5/25/2024 1:00:00 PM 14.34 57.812 0.029 6.89 5.55 10.4
5/25/2024 1:15:00 PM 14.37 57.866 0.029 6.88 5.57 10.36
5/25/2024 1:30:00 PM 14.55 58.19 0.029 6.89 5.42 10.41
5/25/2024 1:45:00 PM 14.76 58.568 0.029 6.9 8.26 10.38
5/25/2024 2:00:00 PM 14.84 58.712 0.029 6.91 5.63 10.36
5/25/2024 2:15:00 PM 14.81 58.658 0.029 6.9 5.77 10.3
5/25/2024 2:30:00 PM 14.73 58.514 0.029 6.87 5.69 10.2
5/25/2024 2:45:00 PM 14.68 58.424 0.029 6.83 5.71 10.15
5/25/2024 3:00:00 PM 14.67 58.406 0.029 6.8 5.88 10.11
5/25/2024 3:15:00 PM 14.65 58.37 0.03 6.77 5.8 10.07
5/25/2024 3:30:00 PM 14.62 58.316 0.03 6.74 5.72 10.03
5/25/2024 3:45:00 PM 14.58 58.244 0.03 6.72 5.87 10
5/25/2024 4:00:00 PM 14.54 58.172 0.03 6.7 5.92 10
5/25/2024 4:15:00 PM 14.51 58.118 0.03 6.69 5.67 10.02
5/25/2024 4:30:00 PM 14.49 58.082 0.03 6.68 5.88 10.03
5/25/2024 4:45:00 PM 14.5 58.1 0.03 6.7 5.98 10.13
5/25/2024 5:00:00 PM 14.49 58.082 0.03 6.68 5.18 10.09
5/25/2024 5:15:00 PM 14.44 57.992 0.03 6.71 5.17 10.09
5/25/2024 5:30:00 PM 14.38 57.884 0.03 6.68 5.22 10.02
5/25/2024 5:45:00 PM 14.33 57.794 0.03 6.68 5.32 10.02
5/25/2024 6:00:00 PM 14.3 57.74 0.03 6.67 5.48 10.05
5/25/2024 6:15:00 PM 14.28 57.704 0.03 6.67 5.46 10.07
5/25/2024 6:30:00 PM 14.27 57.686 0.03 6.67 5.54 10.09
5/25/2024 6:45:00 PM 14.24 57.632 0.03 6.67 5.41 10.08
5/25/2024 7:00:00 PM 14.21 57.578 0.03 6.66 5.58 10.05
5/25/2024 7:15:00 PM 14.19 57.542 0.03 6.65 5.42 10.05
5/25/2024 7:30:00 PM 14.17 57.506 0.03 6.64 5.44 10.1
5/25/2024 7:45:00 PM 14.15 57.47 0.03 6.64 5.3 10.11
5/25/2024 8:00:00 PM 14.13 57.434 0.03 6.64 5.24 10.09
5/25/2024 8:15:00 PM 14.1 57.38 0.03 6.63 5.39 10.05
5/25/2024 8:30:00 PM 14.07 57.326 0.03 6.61 5.3 10.02
5/25/2024 8:45:00 PM 14.04 57.272 0.03 6.6 5.52 10
5/25/2024 9:00:00 PM 14.02 57.236 0.03 6.59 5.4 9.99
5/25/2024 9:15:00 PM 14.01 57.218 0.03 6.58 5.34 9.99
5/25/2024 9:30:00 PM 14 57.2 0.03 6.58 5.46 9.99
5/25/2024 9:45:00 PM 13.99 57.182 0.03 6.58 5.37 10
5/25/2024 10:00:00 PM 13.97 57.146 0.03 6.58 5.67 10
5/25/2024 10:15:00 PM 13.95 57.11 0.03 6.59 5.49 10.01
5/25/2024 10:30:00 PM 13.94 57.092 0.03 6.59 5.6 10.02
5/25/2024 10:45:00 PM 13.93 57.074 0.03 6.58 5.55 10.02
5/25/2024 11:00:00 PM 13.92 57.056 0.03 6.59 5.59 10.02
5/25/2024 11:15:00 PM 13.91 57.038 0.03 6.59 5.58 10.03
5/25/2024 11:30:00 PM 13.9 57.02 0.03 6.59 5.53 10.03
5/25/2024 11:45:00 PM 13.89 57.002 0.03 6.59 5.68 10.03
5/26/2024 12:00:00 AM 13.88 56.984 0.03 6.6 5.64 10.04
5/26/2024 12:15:00 AM 13.86 56.948 0.03 6.6 6.08 10.04
5/26/2024 12:30:00 AM 13.85 56.93 0.03 6.6 5.44 10.05
5/26/2024 12:45:00 AM 13.84 56.912 0.03 6.6 5.52 10.05
5/26/2024 1:00:00 AM 13.82 56.876 0.03 6.59 5.5 10.05
5/26/2024 1:15:00 AM 13.82 56.876 0.03 6.59 5.61 10.05
5/26/2024 1:30:00 AM 13.81 56.858 0.03 6.57 5.52 10.06
5/26/2024 1:45:00 AM 13.8 56.84 0.03 6.6 5.82 10.06
5/26/2024 2:00:00 AM 13.79 56.822 0.031 6.6 5.57 10.06
5/26/2024 2:15:00 AM 13.77 56.786 0.03 6.59 5.53 10.07
5/26/2024 2:30:00 AM 13.76 56.768 0.031 6.6 5.56 10.07
5/26/2024 2:45:00 AM 13.75 56.75 0.031 6.6 5.47 10.07
5/26/2024 3:00:00 AM 13.74 56.732 0.031 6.59 5.79 10.08
5/26/2024 3:15:00 AM 13.73 56.714 0.031 6.59 5.49 10.08
5/26/2024 3:30:00 AM 13.71 56.678 0.031 6.58 5.44 10.09
5/26/2024 3:45:00 AM 13.7 56.66 0.031 6.59 5.51 10.09
5/26/2024 4:00:00 AM 13.69 56.642 0.031 6.59 5.66 10.09
5/26/2024 4:15:00 AM 13.68 56.624 0.031 6.59 6.22 10.1
5/26/2024 4:30:00 AM 13.66 56.588 0.031 6.6 5.46 10.1
5/26/2024 4:45:00 AM 13.65 56.57 0.031 6.6 5.63 10.1
5/26/2024 5:00:00 AM 13.64 56.552 0.031 6.6 5.69 10.1
5/26/2024 5:15:00 AM 13.62 56.516 0.031 6.6 5.49 10.11
5/26/2024 5:30:00 AM 13.61 56.498 0.031 6.6 5.55 10.11
5/26/2024 5:45:00 AM 13.6 56.48 0.031 6.6 5.49 10.11
5/26/2024 6:00:00 AM 13.59 56.462 0.031 6.6 5.63 10.11
5/26/2024 6:15:00 AM 13.58 56.444 0.031 6.6 5.61 10.13
5/26/2024 6:30:00 AM 13.57 56.426 0.031 6.6 5.63 10.15
5/26/2024 6:45:00 AM 13.56 56.408 0.031 6.59 5.88 10.16
5/26/2024 7:00:00 AM 13.55 56.39 0.031 6.6 5.39 10.17
5/26/2024 7:15:00 AM 13.55 56.39 0.031 6.6 5.36 10.2
5/26/2024 7:30:00 AM 13.55 56.39 0.031 6.61 5.39 10.23
5/26/2024 7:45:00 AM 13.55 56.39 0.031 6.62 5.36 10.26
5/26/2024 8:00:00 AM 13.56 56.408 0.031 6.63 5.27 10.27
5/26/2024 8:15:00 AM 13.56 56.408 0.03 6.64 5.37 10.31
5/26/2024 8:30:00 AM 13.58 56.444 0.03 6.66 5.38 10.35
5/26/2024 8:45:00 AM 13.6 56.48 0.03 6.67 5.38 10.35
5/26/2024 9:00:00 AM 13.62 56.516 0.03 6.67 5.33 10.38
5/26/2024 9:15:00 AM 13.63 56.534 0.03 6.69 5.6 10.39
5/26/2024 9:30:00 AM 13.65 56.57 0.03 6.7 5.34 10.41
5/26/2024 9:45:00 AM 13.66 56.588 0.03 6.7 5.24 10.41
5/26/2024 10:00:00 AM 13.67 56.606 0.03 6.71 5.37 10.4
5/26/2024 10:15:00 AM 13.7 56.66 0.03 6.72 5.33 10.43
5/26/2024 10:30:00 AM 13.74 56.732 0.03 6.73 5.35 10.46
5/26/2024 10:45:00 AM 13.79 56.822 0.03 6.74 5.46 10.48
5/26/2024 11:00:00 AM 13.86 56.948 0.03 6.76 5.31 10.51
5/26/2024 11:15:00 AM 13.95 57.11 0.03 6.79 5.38 10.52
5/26/2024 11:30:00 AM 14.07 57.326 0.03 6.81 5.61 10.53
5/26/2024 11:45:00 AM 14.22 57.596 0.03 6.82 5.33 10.51
5/26/2024 12:00:00 PM 14.32 57.776 0.03 6.84 5.46 10.47
5/26/2024 12:15:00 PM 14.52 58.136 0.03 6.84 6.38 10.44
5/26/2024 12:30:00 PM 14.7 58.46 0.03 6.85 5.33 10.37
5/26/2024 12:45:00 PM 14.88 58.784 0.03 6.85 5.41 10.32
5/26/2024 1:00:00 PM 15.07 59.126 0.03 6.85 5.48 10.29
5/26/2024 1:15:00 PM 15.27 59.486 0.03 6.86 5.46 10.25
5/26/2024 1:30:00 PM 15.48 59.864 0.03 6.87 5.59 10.21
5/26/2024 1:45:00 PM 15.69 60.242 0.03 6.87 5.51 10.17
5/26/2024 2:00:00 PM 15.9 60.62 0.03 6.89 5.5 10.13
5/26/2024 2:15:00 PM 16.08 60.944 0.03 6.89 5.6 10.1
5/26/2024 2:30:00 PM 16.23 61.214 0.03 6.9 5.66 10.07
5/26/2024 2:45:00 PM 16.34 61.412 0.03 6.9 5.95 10.03
5/26/2024 3:00:00 PM 16.4 61.52 0.03 6.9 5.86 10.01
5/26/2024 3:15:00 PM 16.43 61.574 0.03 6.9 5.67 9.99
5/26/2024 3:30:00 PM 16.4 61.52 0.03 6.89 5.59 9.95
5/26/2024 3:45:00 PM 16.4 61.52 0.03 6.87 5.71 9.92
5/26/2024 4:00:00 PM 16.4 61.52 0.03 6.86 5.65 9.89
5/26/2024 4:15:00 PM 16.4 61.52 0.03 6.86 5.8 9.87
5/26/2024 4:30:00 PM 16.37 61.466 0.03 6.84 5.89 9.85
5/26/2024 4:45:00 PM 16.35 61.43 0.03 6.84 5.64 9.85
5/26/2024 5:00:00 PM 16.31 61.358 0.03 6.83 5.68 9.84
5/26/2024 5:15:00 PM 16.27 61.286 0.03 6.83 5.67 9.83
5/26/2024 5:30:00 PM 16.21 61.178 0.03 6.81 5.8 9.83
5/26/2024 5:45:00 PM 16.17 61.106 0.03 6.81 5.78 9.82
5/26/2024 6:00:00 PM 16.11 60.998 0.03 6.8 5.84 9.82
5/26/2024 6:15:00 PM 16.05 60.89 0.03 6.79 6.37 9.81
5/26/2024 6:30:00 PM 15.99 60.782 0.03 6.77 5.86 9.8
5/26/2024 6:45:00 PM 15.93 60.674 0.03 6.76 5.81 9.79
5/26/2024 7:00:00 PM 15.85 60.53 0.03 6.74 5.77 9.76
5/26/2024 7:15:00 PM 15.77 60.386 0.03 6.73 5.94 9.74
5/26/2024 7:30:00 PM 15.69 60.242 0.03 6.7 5.98 9.72
5/26/2024 7:45:00 PM 15.62 60.116 0.031 6.69 5.85 9.69
5/26/2024 8:00:00 PM 15.55 59.99 0.031 6.67 6.02 9.68
5/26/2024 8:15:00 PM 15.49 59.882 0.031 6.65 5.99 9.67
5/26/2024 8:30:00 PM 15.43 59.774 0.031 6.64 5.83 9.65
5/26/2024 8:45:00 PM 15.38 59.684 0.031 6.63 6.26 9.64
5/26/2024 9:00:00 PM 15.33 59.594 0.031 6.62 6.12 9.65
5/26/2024 9:15:00 PM 15.29 59.522 0.031 6.61 6.04 9.65
5/26/2024 9:30:00 PM 15.25 59.45 0.031 6.61 6.03 9.65
5/26/2024 9:45:00 PM 15.21 59.378 0.031 6.61 6.04 9.66
5/26/2024 10:00:00 PM 15.17 59.306 0.031 6.6 6.22 9.67
5/26/2024 10:15:00 PM 15.14 59.252 0.031 6.59 6.07 9.68
5/26/2024 10:30:00 PM 15.1 59.18 0.031 6.6 6.15 9.68
5/26/2024 10:45:00 PM 15.08 59.144 0.031 6.59 6.03 9.68
5/26/2024 11:00:00 PM 15.05 59.09 0.031 6.59 6.04 9.69
5/26/2024 11:15:00 PM 15.03 59.054 0.031 6.59 6.11 9.69
5/26/2024 11:30:00 PM 15.02 59.036 0.031 6.58 6.26 9.69
5/26/2024 11:45:00 PM 15.01 59.018 0.031 6.59 6.2 9.69
5/27/2024 12:00:00 AM 15.01 59.018 0.031 6.59 6.08 9.69
5/27/2024 12:15:00 AM 15.01 59.018 0.031 6.59 7.08 9.68
5/27/2024 12:30:00 AM 15.01 59.018 0.031 6.58 7.09 9.65
5/27/2024 12:45:00 AM 14.99 58.982 0.031 6.58 8.08 9.65
5/27/2024 1:00:00 AM 14.96 58.928 0.031 6.58 7.55 9.64
5/27/2024 1:15:00 AM 14.94 58.892 0.031 6.57 7.56 9.65
5/27/2024 1:30:00 AM 14.92 58.856 0.031 6.57 7.58 9.66
5/27/2024 1:45:00 AM 14.89 58.802 0.031 6.56 7.73 9.67
5/27/2024 2:00:00 AM 14.86 58.748 0.031 6.57 7.64 9.68
5/27/2024 2:15:00 AM 14.83 58.694 0.031 6.57 7.74 9.69
5/27/2024 2:30:00 AM 14.8 58.64 0.031 6.57 7.91 9.67
5/27/2024 2:45:00 AM 14.77 58.586 0.031 6.56 7.76 9.7
5/27/2024 3:00:00 AM 14.75 58.55 0.031 6.57 8.02 9.69
5/27/2024 3:15:00 AM 14.72 58.496 0.031 6.56 7.94 9.71

These are provisional data and have not been subject to a quality assurance process, but rather are the raw data reported by the instrument.
H: value is above sensor operating range
L: value is below sensor operating range
Offline: station is not reporting data
NC: parameter is not collected at site

Data Availability & Limitations

Uncertainty and potential for error can be associated with environmental monitoring data. Provisional data have not been subject to a quality assurance process, but rather are the raw data reported by the instrument. Data users are cautioned to consider carefully the provisional nature of the information before using it for decisions that concern personal or public safety or the conduct of business that involves substantial monetary or operational consequences.

Approved data are currently available by request by emailing: [email protected]. Approved data have been subject to a quality assurance process to correct for equipment or fouling drift. Data recorded during equipment malfunctions have been removed.

View Historical Stations that have been discontinued.